<?xml version="1.0" encoding="UTF-8" standalone="no" ?>
<gpx xmlns="http://www.topografix.com/GPX/1/1" xmlns:xsi="http://www.w3.org/2001/XMLSchema-instance" xsi:schemaLocation="http://www.topografix.com/GPX/1/1 http://www.topografix.com/GPX/1/1/gpx.xsd" version="1.1" creator="VisuGPX - https://www.visugpx.com">
  <metadata>
    <name>63 CCC Flémalle - Faux les Tombes - Flémalle</name>
    <desc><![CDATA[Randonnée au départ de l'Auto5 de Flémalle.
Flémalle - Mons - Hozémont - St Georges - Warnant Dreye - Hucorne - Waret l'Evêque - Petit Waret - Namèche - Faux les Tombes - Strud; Andenne - Surlemez - Bas Oha - Huy - Amay - Awirs - Chokier - Flémalle.]]></desc>
  </metadata>
  <trk>
    <name><![CDATA[63 CCC]]></name>
    <extensions>
      <line xmlns="http://www.topografix.com/GPX/gpx_style/0/2">
        <color>0000FF</color>
        <width>4</width>
      </line>
    </extensions>
    <trkseg>
      <trkpt lat="50.60428" lon="5.4843">
        <ele>65.2</ele>
        <time>2019-03-17T15:15:35Z</time>
      </trkpt>
      <trkpt lat="50.60405" lon="5.4844">
        <ele>65</ele>
        <time>2019-03-17T15:17:35Z</time>
      </trkpt>
      <trkpt lat="50.6035" lon="5.48517">
        <ele>64</ele>
        <time>2019-03-17T15:19:35Z</time>
      </trkpt>
      <trkpt lat="50.60366" lon="5.48549">
        <ele>63</ele>
        <time>2019-03-17T15:21:35Z</time>
      </trkpt>
      <trkpt lat="50.60373" lon="5.48534">
        <ele>63.5</ele>
        <time>2019-03-17T15:25:35Z</time>
      </trkpt>
      <trkpt lat="50.60418" lon="5.48477">
        <ele>65</ele>
        <time>2019-03-17T15:29:35Z</time>
      </trkpt>
      <trkpt lat="50.60487" lon="5.48396">
        <ele>67</ele>
        <time>2019-03-17T15:30:35Z</time>
      </trkpt>
      <trkpt lat="50.60497" lon="5.48397">
        <ele>67</ele>
        <time>2019-03-17T15:34:35Z</time>
      </trkpt>
      <trkpt lat="50.60503" lon="5.48387">
        <ele>67</ele>
        <time>2019-03-17T15:41:35Z</time>
      </trkpt>
      <trkpt lat="50.60503" lon="5.48375">
        <ele>67</ele>
        <time>2019-03-17T15:43:35Z</time>
      </trkpt>
      <trkpt lat="50.60527" lon="5.48355">
        <ele>68</ele>
        <time>2019-03-17T15:44:35Z</time>
      </trkpt>
      <trkpt lat="50.60553" lon="5.48335">
        <ele>68</ele>
        <time>2019-03-17T15:48:35Z</time>
      </trkpt>
      <trkpt lat="50.60596" lon="5.48303">
        <ele>68</ele>
        <time>2019-03-17T15:51:35Z</time>
      </trkpt>
      <trkpt lat="50.6064" lon="5.48265">
        <ele>68</ele>
        <time>2019-03-17T16:04:35Z</time>
      </trkpt>
      <trkpt lat="50.60677" lon="5.4822">
        <ele>71</ele>
        <time>2019-03-17T16:08:35Z</time>
      </trkpt>
      <trkpt lat="50.60679" lon="5.48207">
        <ele>71</ele>
        <time>2019-03-17T16:25:35Z</time>
      </trkpt>
      <trkpt lat="50.60678" lon="5.48191">
        <ele>71</ele>
        <time>2019-03-17T16:31:35Z</time>
      </trkpt>
      <trkpt lat="50.60657" lon="5.48138">
        <ele>70</ele>
        <time>2019-03-17T16:36:35Z</time>
      </trkpt>
      <trkpt lat="50.60635" lon="5.48089">
        <ele>70</ele>
        <time>2019-03-17T16:43:35Z</time>
      </trkpt>
      <trkpt lat="50.60614" lon="5.48042">
        <ele>70</ele>
        <time>2019-03-17T16:52:35Z</time>
      </trkpt>
      <trkpt lat="50.60593" lon="5.47996">
        <ele>71</ele>
        <time>2019-03-17T16:56:35Z</time>
      </trkpt>
      <trkpt lat="50.60657" lon="5.47915">
        <ele>72</ele>
        <time>2019-03-17T17:04:35Z</time>
      </trkpt>
      <trkpt lat="50.60667" lon="5.47914">
        <ele>72</ele>
        <time>2019-03-17T17:12:35Z</time>
      </trkpt>
      <trkpt lat="50.60674" lon="5.47904">
        <ele>74</ele>
        <time>2019-03-17T17:13:35Z</time>
      </trkpt>
      <trkpt lat="50.60698" lon="5.47895">
        <ele>75</ele>
        <time>2019-03-17T17:21:35Z</time>
      </trkpt>
      <trkpt lat="50.60724" lon="5.47884">
        <ele>76</ele>
        <time>2019-03-17T17:22:35Z</time>
      </trkpt>
      <trkpt lat="50.60776" lon="5.47861">
        <ele>80</ele>
        <time>2019-03-17T17:28:35Z</time>
      </trkpt>
      <trkpt lat="50.60808" lon="5.47848">
        <ele>81</ele>
        <time>2019-03-17T17:31:35Z</time>
      </trkpt>
      <trkpt lat="50.60824" lon="5.4784">
        <ele>80</ele>
        <time>2019-03-17T17:34:35Z</time>
      </trkpt>
      <trkpt lat="50.6084" lon="5.47828">
        <ele>81</ele>
        <time>2019-03-17T17:36:35Z</time>
      </trkpt>
      <trkpt lat="50.6086" lon="5.47809">
        <ele>82</ele>
        <time>2019-03-17T17:38:35Z</time>
      </trkpt>
      <trkpt lat="50.60876" lon="5.47795">
        <ele>83</ele>
        <time>2019-03-17T17:39:35Z</time>
      </trkpt>
      <trkpt lat="50.60894" lon="5.47788">
        <ele>83</ele>
        <time>2019-03-17T17:40:35Z</time>
      </trkpt>
      <trkpt lat="50.60909" lon="5.47788">
        <ele>83</ele>
        <time>2019-03-17T17:41:35Z</time>
      </trkpt>
      <trkpt lat="50.60925" lon="5.47792">
        <ele>85</ele>
        <time>2019-03-17T17:42:35Z</time>
      </trkpt>
      <trkpt lat="50.60949" lon="5.47806">
        <ele>86</ele>
        <time>2019-03-17T17:43:35Z</time>
      </trkpt>
      <trkpt lat="50.60965" lon="5.47826">
        <ele>86</ele>
        <time>2019-03-17T17:44:35Z</time>
      </trkpt>
      <trkpt lat="50.60982" lon="5.4785">
        <ele>89</ele>
        <time>2019-03-17T17:46:35Z</time>
      </trkpt>
      <trkpt lat="50.61009" lon="5.47878">
        <ele>92</ele>
        <time>2019-03-17T17:47:35Z</time>
      </trkpt>
      <trkpt lat="50.61022" lon="5.47889">
        <ele>92</ele>
        <time>2019-03-17T17:48:35Z</time>
      </trkpt>
      <trkpt lat="50.61035" lon="5.47897">
        <ele>93</ele>
        <time>2019-03-17T17:49:35Z</time>
      </trkpt>
      <trkpt lat="50.61054" lon="5.47904">
        <ele>93</ele>
        <time>2019-03-17T17:50:35Z</time>
      </trkpt>
      <trkpt lat="50.61078" lon="5.4791">
        <ele>95</ele>
        <time>2019-03-17T17:51:35Z</time>
      </trkpt>
      <trkpt lat="50.61126" lon="5.479">
        <ele>96</ele>
        <time>2019-03-17T17:52:35Z</time>
      </trkpt>
      <trkpt lat="50.61176" lon="5.4789">
        <ele>97</ele>
        <time>2019-03-17T17:53:35Z</time>
      </trkpt>
      <trkpt lat="50.61221" lon="5.47906">
        <ele>96</ele>
        <time>2019-03-17T17:54:35Z</time>
      </trkpt>
      <trkpt lat="50.61267" lon="5.47924">
        <ele>94</ele>
        <time>2019-03-17T17:55:35Z</time>
      </trkpt>
      <trkpt lat="50.61313" lon="5.47949">
        <ele>92</ele>
        <time>2019-03-17T17:56:35Z</time>
      </trkpt>
      <trkpt lat="50.6136" lon="5.47977">
        <ele>92</ele>
        <time>2019-03-17T17:57:35Z</time>
      </trkpt>
      <trkpt lat="50.61399" lon="5.47984">
        <ele>92</ele>
        <time>2019-03-17T17:58:35Z</time>
      </trkpt>
      <trkpt lat="50.61441" lon="5.47991">
        <ele>95</ele>
        <time>2019-03-17T17:59:35Z</time>
      </trkpt>
      <trkpt lat="50.61449" lon="5.47983">
        <ele>95</ele>
        <time>2019-03-17T18:00:35Z</time>
      </trkpt>
      <trkpt lat="50.61458" lon="5.47969">
        <ele>95</ele>
        <time>2019-03-17T18:01:35Z</time>
      </trkpt>
      <trkpt lat="50.61469" lon="5.47937">
        <ele>96</ele>
        <time>2019-03-17T18:03:35Z</time>
      </trkpt>
      <trkpt lat="50.61473" lon="5.4792">
        <ele>96</ele>
        <time>2019-03-17T18:04:35Z</time>
      </trkpt>
      <trkpt lat="50.61478" lon="5.47897">
        <ele>96</ele>
        <time>2019-03-17T18:05:35Z</time>
      </trkpt>
      <trkpt lat="50.61482" lon="5.47845">
        <ele>96</ele>
        <time>2019-03-17T18:06:35Z</time>
      </trkpt>
      <trkpt lat="50.61486" lon="5.47792">
        <ele>97</ele>
        <time>2019-03-17T18:07:35Z</time>
      </trkpt>
      <trkpt lat="50.61493" lon="5.47765">
        <ele>97</ele>
        <time>2019-03-17T18:08:35Z</time>
      </trkpt>
      <trkpt lat="50.61502" lon="5.47741">
        <ele>98</ele>
        <time>2019-03-17T18:09:35Z</time>
      </trkpt>
      <trkpt lat="50.61517" lon="5.47715">
        <ele>99</ele>
        <time>2019-03-17T18:10:35Z</time>
      </trkpt>
      <trkpt lat="50.61532" lon="5.4769">
        <ele>99</ele>
        <time>2019-03-17T18:11:35Z</time>
      </trkpt>
      <trkpt lat="50.61551" lon="5.47654">
        <ele>100</ele>
        <time>2019-03-17T18:12:35Z</time>
      </trkpt>
      <trkpt lat="50.61562" lon="5.47627">
        <ele>100</ele>
        <time>2019-03-17T18:13:35Z</time>
      </trkpt>
      <trkpt lat="50.61558" lon="5.47592">
        <ele>101</ele>
        <time>2019-03-17T18:15:35Z</time>
      </trkpt>
      <trkpt lat="50.61546" lon="5.47548">
        <ele>104</ele>
        <time>2019-03-17T18:16:35Z</time>
      </trkpt>
      <trkpt lat="50.61534" lon="5.47505">
        <ele>104.6</ele>
        <time>2019-03-17T18:17:35Z</time>
      </trkpt>
      <trkpt lat="50.61523" lon="5.47459">
        <ele>107</ele>
        <time>2019-03-17T18:18:35Z</time>
      </trkpt>
      <trkpt lat="50.61511" lon="5.47416">
        <ele>109</ele>
        <time>2019-03-17T18:19:35Z</time>
      </trkpt>
      <trkpt lat="50.61504" lon="5.47378">
        <ele>110</ele>
        <time>2019-03-17T18:20:35Z</time>
      </trkpt>
      <trkpt lat="50.61496" lon="5.4734">
        <ele>110</ele>
        <time>2019-03-17T18:21:35Z</time>
      </trkpt>
      <trkpt lat="50.6149" lon="5.47303">
        <ele>112.1</ele>
        <time>2019-03-17T18:22:35Z</time>
      </trkpt>
      <trkpt lat="50.61483" lon="5.4728">
        <ele>113</ele>
        <time>2019-03-17T18:23:35Z</time>
      </trkpt>
      <trkpt lat="50.61477" lon="5.47269">
        <ele>113</ele>
        <time>2019-03-17T18:24:35Z</time>
      </trkpt>
      <trkpt lat="50.61483" lon="5.47249">
        <ele>113</ele>
        <time>2019-03-17T18:25:35Z</time>
      </trkpt>
      <trkpt lat="50.615" lon="5.4724">
        <ele>113</ele>
        <time>2019-03-17T18:26:35Z</time>
      </trkpt>
      <trkpt lat="50.61519" lon="5.4723">
        <ele>114</ele>
        <time>2019-03-17T18:27:35Z</time>
      </trkpt>
      <trkpt lat="50.61547" lon="5.47215">
        <ele>116</ele>
        <time>2019-03-17T18:28:35Z</time>
      </trkpt>
      <trkpt lat="50.61559" lon="5.47198">
        <ele>116</ele>
        <time>2019-03-17T18:29:35Z</time>
      </trkpt>
      <trkpt lat="50.61565" lon="5.4717">
        <ele>117</ele>
        <time>2019-03-17T18:30:35Z</time>
      </trkpt>
      <trkpt lat="50.61567" lon="5.47142">
        <ele>119</ele>
        <time>2019-03-17T18:31:35Z</time>
      </trkpt>
      <trkpt lat="50.6157" lon="5.47106">
        <ele>121</ele>
        <time>2019-03-17T18:32:35Z</time>
      </trkpt>
      <trkpt lat="50.61574" lon="5.47036">
        <ele>125</ele>
        <time>2019-03-17T18:33:35Z</time>
      </trkpt>
      <trkpt lat="50.61579" lon="5.46957">
        <ele>128</ele>
        <time>2019-03-17T18:34:35Z</time>
      </trkpt>
      <trkpt lat="50.61579" lon="5.46924">
        <ele>129</ele>
        <time>2019-03-17T18:35:35Z</time>
      </trkpt>
      <trkpt lat="50.6158" lon="5.46888">
        <ele>130</ele>
        <time>2019-03-17T18:36:35Z</time>
      </trkpt>
      <trkpt lat="50.61574" lon="5.46853">
        <ele>130</ele>
        <time>2019-03-17T18:37:35Z</time>
      </trkpt>
      <trkpt lat="50.61559" lon="5.46794">
        <ele>132</ele>
        <time>2019-03-17T18:38:35Z</time>
      </trkpt>
      <trkpt lat="50.61544" lon="5.46739">
        <ele>135</ele>
        <time>2019-03-17T18:39:35Z</time>
      </trkpt>
      <trkpt lat="50.61524" lon="5.4666">
        <ele>138</ele>
        <time>2019-03-17T18:40:35Z</time>
      </trkpt>
      <trkpt lat="50.61506" lon="5.46586">
        <ele>140</ele>
        <time>2019-03-17T18:41:35Z</time>
      </trkpt>
      <trkpt lat="50.61503" lon="5.46569">
        <ele>141</ele>
        <time>2019-03-17T18:43:35Z</time>
      </trkpt>
      <trkpt lat="50.61503" lon="5.46547">
        <ele>142</ele>
        <time>2019-03-17T18:44:35Z</time>
      </trkpt>
      <trkpt lat="50.61508" lon="5.46523">
        <ele>143</ele>
        <time>2019-03-17T18:45:35Z</time>
      </trkpt>
      <trkpt lat="50.61546" lon="5.46435">
        <ele>146</ele>
        <time>2019-03-17T18:46:35Z</time>
      </trkpt>
      <trkpt lat="50.61565" lon="5.46388">
        <ele>147</ele>
        <time>2019-03-17T18:47:35Z</time>
      </trkpt>
      <trkpt lat="50.61585" lon="5.46341">
        <ele>149</ele>
        <time>2019-03-17T18:48:35Z</time>
      </trkpt>
      <trkpt lat="50.61602" lon="5.46301">
        <ele>151</ele>
        <time>2019-03-17T18:50:35Z</time>
      </trkpt>
      <trkpt lat="50.61619" lon="5.46259">
        <ele>151</ele>
        <time>2019-03-17T18:51:35Z</time>
      </trkpt>
      <trkpt lat="50.61629" lon="5.46246">
        <ele>153</ele>
        <time>2019-03-17T18:52:35Z</time>
      </trkpt>
      <trkpt lat="50.6164" lon="5.46234">
        <ele>154</ele>
        <time>2019-03-17T18:53:35Z</time>
      </trkpt>
      <trkpt lat="50.61665" lon="5.4623">
        <ele>155</ele>
        <time>2019-03-17T18:54:35Z</time>
      </trkpt>
      <trkpt lat="50.61694" lon="5.46238">
        <ele>160</ele>
        <time>2019-03-17T18:55:35Z</time>
      </trkpt>
      <trkpt lat="50.61726" lon="5.46246">
        <ele>162</ele>
        <time>2019-03-17T18:56:35Z</time>
      </trkpt>
      <trkpt lat="50.61743" lon="5.46243">
        <ele>164</ele>
        <time>2019-03-17T18:57:35Z</time>
      </trkpt>
      <trkpt lat="50.61764" lon="5.46224">
        <ele>166</ele>
        <time>2019-03-17T18:59:35Z</time>
      </trkpt>
      <trkpt lat="50.61787" lon="5.462">
        <ele>167</ele>
        <time>2019-03-17T19:00:35Z</time>
      </trkpt>
      <trkpt lat="50.61808" lon="5.4618">
        <ele>168</ele>
        <time>2019-03-17T19:01:35Z</time>
      </trkpt>
      <trkpt lat="50.61832" lon="5.46155">
        <ele>168.3</ele>
        <time>2019-03-17T19:02:35Z</time>
      </trkpt>
      <trkpt lat="50.61844" lon="5.4615">
        <ele>170</ele>
        <time>2019-03-17T19:03:35Z</time>
      </trkpt>
      <trkpt lat="50.61853" lon="5.46159">
        <ele>171</ele>
        <time>2019-03-17T19:04:35Z</time>
      </trkpt>
      <trkpt lat="50.61861" lon="5.46157">
        <ele>171</ele>
        <time>2019-03-17T19:05:35Z</time>
      </trkpt>
      <trkpt lat="50.61864" lon="5.46146">
        <ele>171</ele>
        <time>2019-03-17T19:06:35Z</time>
      </trkpt>
      <trkpt lat="50.61882" lon="5.46147">
        <ele>172</ele>
        <time>2019-03-17T19:07:35Z</time>
      </trkpt>
      <trkpt lat="50.61904" lon="5.46138">
        <ele>173</ele>
        <time>2019-03-17T19:08:35Z</time>
      </trkpt>
      <trkpt lat="50.61928" lon="5.46126">
        <ele>176</ele>
        <time>2019-03-17T19:09:35Z</time>
      </trkpt>
      <trkpt lat="50.61974" lon="5.46102">
        <ele>177</ele>
        <time>2019-03-17T19:10:35Z</time>
      </trkpt>
      <trkpt lat="50.62014" lon="5.46082">
        <ele>179</ele>
        <time>2019-03-17T19:11:35Z</time>
      </trkpt>
      <trkpt lat="50.62056" lon="5.46061">
        <ele>180</ele>
        <time>2019-03-17T19:12:35Z</time>
      </trkpt>
      <trkpt lat="50.62098" lon="5.4604">
        <ele>182</ele>
        <time>2019-03-17T19:13:35Z</time>
      </trkpt>
      <trkpt lat="50.62114" lon="5.46027">
        <ele>182</ele>
        <time>2019-03-17T19:14:35Z</time>
      </trkpt>
      <trkpt lat="50.62131" lon="5.46013">
        <ele>181.7</ele>
        <time>2019-03-17T19:15:35Z</time>
      </trkpt>
      <trkpt lat="50.62152" lon="5.46004">
        <ele>181</ele>
        <time>2019-03-17T19:17:35Z</time>
      </trkpt>
      <trkpt lat="50.62178" lon="5.46">
        <ele>181.3</ele>
        <time>2019-03-17T19:18:35Z</time>
      </trkpt>
      <trkpt lat="50.62205" lon="5.45996">
        <ele>181</ele>
        <time>2019-03-17T19:19:35Z</time>
      </trkpt>
      <trkpt lat="50.62232" lon="5.45992">
        <ele>181</ele>
        <time>2019-03-17T19:20:35Z</time>
      </trkpt>
      <trkpt lat="50.62263" lon="5.45976">
        <ele>181</ele>
        <time>2019-03-17T19:21:35Z</time>
      </trkpt>
      <trkpt lat="50.62296" lon="5.45959">
        <ele>181</ele>
        <time>2019-03-17T19:22:35Z</time>
      </trkpt>
      <trkpt lat="50.62362" lon="5.45921">
        <ele>180</ele>
        <time>2019-03-17T19:23:35Z</time>
      </trkpt>
      <trkpt lat="50.62397" lon="5.45902">
        <ele>180</ele>
        <time>2019-03-17T19:24:35Z</time>
      </trkpt>
      <trkpt lat="50.6243" lon="5.45888">
        <ele>179</ele>
        <time>2019-03-17T19:25:35Z</time>
      </trkpt>
      <trkpt lat="50.62445" lon="5.45883">
        <ele>179</ele>
        <time>2019-03-17T19:26:35Z</time>
      </trkpt>
      <trkpt lat="50.62462" lon="5.45873">
        <ele>179</ele>
        <time>2019-03-17T19:27:35Z</time>
      </trkpt>
      <trkpt lat="50.62498" lon="5.45834">
        <ele>179.9</ele>
        <time>2019-03-17T19:28:35Z</time>
      </trkpt>
      <trkpt lat="50.62484" lon="5.45804">
        <ele>182</ele>
        <time>2019-03-17T19:29:35Z</time>
      </trkpt>
      <trkpt lat="50.62449" lon="5.45774">
        <ele>183</ele>
        <time>2019-03-17T19:30:35Z</time>
      </trkpt>
      <trkpt lat="50.62336" lon="5.45591">
        <ele>184</ele>
        <time>2019-03-17T19:32:35Z</time>
      </trkpt>
      <trkpt lat="50.62326" lon="5.45327">
        <ele>188</ele>
        <time>2019-03-17T19:33:35Z</time>
      </trkpt>
      <trkpt lat="50.62316" lon="5.45064">
        <ele>186.6</ele>
        <time>2019-03-17T19:34:35Z</time>
      </trkpt>
      <trkpt lat="50.62315" lon="5.45002">
        <ele>187</ele>
        <time>2019-03-17T19:35:35Z</time>
      </trkpt>
      <trkpt lat="50.62318" lon="5.44933">
        <ele>187.8</ele>
        <time>2019-03-17T19:36:35Z</time>
      </trkpt>
      <trkpt lat="50.62328" lon="5.44818">
        <ele>187</ele>
        <time>2019-03-17T19:37:35Z</time>
      </trkpt>
      <trkpt lat="50.6234" lon="5.44708">
        <ele>189</ele>
        <time>2019-03-17T19:38:35Z</time>
      </trkpt>
      <trkpt lat="50.62351" lon="5.44607">
        <ele>188.9</ele>
        <time>2019-03-17T19:39:35Z</time>
      </trkpt>
      <trkpt lat="50.62352" lon="5.44535">
        <ele>188</ele>
        <time>2019-03-17T19:40:35Z</time>
      </trkpt>
      <trkpt lat="50.6235" lon="5.44468">
        <ele>186</ele>
        <time>2019-03-17T19:41:35Z</time>
      </trkpt>
      <trkpt lat="50.62347" lon="5.44419">
        <ele>185</ele>
        <time>2019-03-17T19:42:35Z</time>
      </trkpt>
      <trkpt lat="50.6234" lon="5.44362">
        <ele>186.3</ele>
        <time>2019-03-17T19:43:35Z</time>
      </trkpt>
      <trkpt lat="50.62322" lon="5.44272">
        <ele>187</ele>
        <time>2019-03-17T19:44:35Z</time>
      </trkpt>
      <trkpt lat="50.62303" lon="5.44188">
        <ele>186</ele>
        <time>2019-03-17T19:45:35Z</time>
      </trkpt>
      <trkpt lat="50.62301" lon="5.44153">
        <ele>186</ele>
        <time>2019-03-17T19:46:35Z</time>
      </trkpt>
      <trkpt lat="50.62311" lon="5.44119">
        <ele>185</ele>
        <time>2019-03-17T19:48:35Z</time>
      </trkpt>
      <trkpt lat="50.6233" lon="5.44083">
        <ele>184.9</ele>
        <time>2019-03-17T19:49:35Z</time>
      </trkpt>
      <trkpt lat="50.62368" lon="5.44012">
        <ele>186</ele>
        <time>2019-03-17T19:50:35Z</time>
      </trkpt>
      <trkpt lat="50.62371" lon="5.43979">
        <ele>185</ele>
        <time>2019-03-17T19:51:35Z</time>
      </trkpt>
      <trkpt lat="50.62358" lon="5.43911">
        <ele>184</ele>
        <time>2019-03-17T19:52:35Z</time>
      </trkpt>
      <trkpt lat="50.62343" lon="5.43848">
        <ele>183</ele>
        <time>2019-03-17T19:53:35Z</time>
      </trkpt>
      <trkpt lat="50.62329" lon="5.43781">
        <ele>181.4</ele>
        <time>2019-03-17T19:54:35Z</time>
      </trkpt>
      <trkpt lat="50.62288" lon="5.43665">
        <ele>186</ele>
        <time>2019-03-17T19:55:35Z</time>
      </trkpt>
      <trkpt lat="50.62246" lon="5.43563">
        <ele>188</ele>
        <time>2019-03-17T19:56:35Z</time>
      </trkpt>
      <trkpt lat="50.62226" lon="5.43512">
        <ele>188</ele>
        <time>2019-03-17T19:57:35Z</time>
      </trkpt>
      <trkpt lat="50.62233" lon="5.43498">
        <ele>190</ele>
        <time>2019-03-17T19:58:35Z</time>
      </trkpt>
      <trkpt lat="50.62231" lon="5.43481">
        <ele>190</ele>
        <time>2019-03-17T19:59:35Z</time>
      </trkpt>
      <trkpt lat="50.62225" lon="5.43472">
        <ele>190</ele>
        <time>2019-03-17T20:00:35Z</time>
      </trkpt>
      <trkpt lat="50.62219" lon="5.43468">
        <ele>189</ele>
        <time>2019-03-17T20:01:35Z</time>
      </trkpt>
      <trkpt lat="50.62209" lon="5.43473">
        <ele>189</ele>
        <time>2019-03-17T20:02:35Z</time>
      </trkpt>
      <trkpt lat="50.62187" lon="5.43408">
        <ele>191</ele>
        <time>2019-03-17T20:03:35Z</time>
      </trkpt>
      <trkpt lat="50.62164" lon="5.43344">
        <ele>192</ele>
        <time>2019-03-17T20:04:35Z</time>
      </trkpt>
      <trkpt lat="50.62155" lon="5.43319">
        <ele>192</ele>
        <time>2019-03-17T20:06:35Z</time>
      </trkpt>
      <trkpt lat="50.62144" lon="5.43299">
        <ele>192</ele>
        <time>2019-03-17T20:07:35Z</time>
      </trkpt>
      <trkpt lat="50.62103" lon="5.43253">
        <ele>191</ele>
        <time>2019-03-17T20:08:35Z</time>
      </trkpt>
      <trkpt lat="50.62057" lon="5.43204">
        <ele>190.2</ele>
        <time>2019-03-17T20:09:35Z</time>
      </trkpt>
      <trkpt lat="50.62018" lon="5.43174">
        <ele>190.4</ele>
        <time>2019-03-17T20:10:35Z</time>
      </trkpt>
      <trkpt lat="50.61988" lon="5.43158">
        <ele>191</ele>
        <time>2019-03-17T20:11:35Z</time>
      </trkpt>
      <trkpt lat="50.6196" lon="5.43134">
        <ele>190</ele>
        <time>2019-03-17T20:12:35Z</time>
      </trkpt>
      <trkpt lat="50.61911" lon="5.43067">
        <ele>189</ele>
        <time>2019-03-17T20:13:35Z</time>
      </trkpt>
      <trkpt lat="50.61867" lon="5.43003">
        <ele>189.7</ele>
        <time>2019-03-17T20:14:35Z</time>
      </trkpt>
      <trkpt lat="50.6183" lon="5.42953">
        <ele>189.2</ele>
        <time>2019-03-17T20:15:35Z</time>
      </trkpt>
      <trkpt lat="50.61804" lon="5.42927">
        <ele>189</ele>
        <time>2019-03-17T20:16:35Z</time>
      </trkpt>
      <trkpt lat="50.61791" lon="5.42916">
        <ele>188</ele>
        <time>2019-03-17T20:18:35Z</time>
      </trkpt>
      <trkpt lat="50.61779" lon="5.429">
        <ele>187.3</ele>
        <time>2019-03-17T20:19:35Z</time>
      </trkpt>
      <trkpt lat="50.61766" lon="5.42875">
        <ele>186</ele>
        <time>2019-03-17T20:20:35Z</time>
      </trkpt>
      <trkpt lat="50.61768" lon="5.4284">
        <ele>186</ele>
        <time>2019-03-17T20:21:35Z</time>
      </trkpt>
      <trkpt lat="50.61782" lon="5.42807">
        <ele>185</ele>
        <time>2019-03-17T20:22:35Z</time>
      </trkpt>
      <trkpt lat="50.61798" lon="5.4276">
        <ele>184.7</ele>
        <time>2019-03-17T20:23:35Z</time>
      </trkpt>
      <trkpt lat="50.61808" lon="5.42719">
        <ele>184.9</ele>
        <time>2019-03-17T20:24:35Z</time>
      </trkpt>
      <trkpt lat="50.61816" lon="5.42679">
        <ele>186</ele>
        <time>2019-03-17T20:26:35Z</time>
      </trkpt>
      <trkpt lat="50.61817" lon="5.42635">
        <ele>188</ele>
        <time>2019-03-17T20:27:35Z</time>
      </trkpt>
      <trkpt lat="50.61812" lon="5.42595">
        <ele>188.3</ele>
        <time>2019-03-17T20:28:35Z</time>
      </trkpt>
      <trkpt lat="50.6184" lon="5.42596">
        <ele>190</ele>
        <time>2019-03-17T20:29:35Z</time>
      </trkpt>
      <trkpt lat="50.61885" lon="5.42607">
        <ele>191.5</ele>
        <time>2019-03-17T20:30:35Z</time>
      </trkpt>
      <trkpt lat="50.61965" lon="5.42598">
        <ele>193.4</ele>
        <time>2019-03-17T20:31:35Z</time>
      </trkpt>
      <trkpt lat="50.62031" lon="5.42612">
        <ele>194</ele>
        <time>2019-03-17T20:32:35Z</time>
      </trkpt>
      <trkpt lat="50.62097" lon="5.42621">
        <ele>192.4</ele>
        <time>2019-03-17T20:33:35Z</time>
      </trkpt>
      <trkpt lat="50.62133" lon="5.42631">
        <ele>192</ele>
        <time>2019-03-17T20:34:35Z</time>
      </trkpt>
      <trkpt lat="50.62146" lon="5.42635">
        <ele>191.7</ele>
        <time>2019-03-17T20:35:35Z</time>
      </trkpt>
      <trkpt lat="50.62158" lon="5.4263">
        <ele>192</ele>
        <time>2019-03-17T20:36:35Z</time>
      </trkpt>
      <trkpt lat="50.62171" lon="5.42623">
        <ele>190</ele>
        <time>2019-03-17T20:37:35Z</time>
      </trkpt>
      <trkpt lat="50.62196" lon="5.42566">
        <ele>188.1</ele>
        <time>2019-03-17T20:38:35Z</time>
      </trkpt>
      <trkpt lat="50.62213" lon="5.42553">
        <ele>188</ele>
        <time>2019-03-17T20:39:35Z</time>
      </trkpt>
      <trkpt lat="50.62246" lon="5.42559">
        <ele>187.1</ele>
        <time>2019-03-17T20:40:35Z</time>
      </trkpt>
      <trkpt lat="50.62282" lon="5.42539">
        <ele>186.1</ele>
        <time>2019-03-17T20:41:35Z</time>
      </trkpt>
      <trkpt lat="50.62291" lon="5.42546">
        <ele>186</ele>
        <time>2019-03-17T20:42:35Z</time>
      </trkpt>
      <trkpt lat="50.62302" lon="5.42549">
        <ele>186</ele>
        <time>2019-03-17T20:43:35Z</time>
      </trkpt>
      <trkpt lat="50.62311" lon="5.42543">
        <ele>186</ele>
        <time>2019-03-17T20:44:35Z</time>
      </trkpt>
      <trkpt lat="50.62316" lon="5.42525">
        <ele>186</ele>
        <time>2019-03-17T20:45:35Z</time>
      </trkpt>
      <trkpt lat="50.62313" lon="5.425">
        <ele>186</ele>
        <time>2019-03-17T20:46:35Z</time>
      </trkpt>
      <trkpt lat="50.62353" lon="5.4241">
        <ele>182</ele>
        <time>2019-03-17T20:47:35Z</time>
      </trkpt>
      <trkpt lat="50.62359" lon="5.42403">
        <ele>182</ele>
        <time>2019-03-17T20:48:35Z</time>
      </trkpt>
      <trkpt lat="50.62369" lon="5.42406">
        <ele>182</ele>
        <time>2019-03-17T20:49:35Z</time>
      </trkpt>
      <trkpt lat="50.62377" lon="5.424">
        <ele>182</ele>
        <time>2019-03-17T20:50:35Z</time>
      </trkpt>
      <trkpt lat="50.62382" lon="5.4239">
        <ele>182</ele>
        <time>2019-03-17T20:51:35Z</time>
      </trkpt>
      <trkpt lat="50.62382" lon="5.42369">
        <ele>181</ele>
        <time>2019-03-17T20:52:35Z</time>
      </trkpt>
      <trkpt lat="50.62375" lon="5.42354">
        <ele>181</ele>
        <time>2019-03-17T20:53:35Z</time>
      </trkpt>
      <trkpt lat="50.62401" lon="5.42262">
        <ele>179</ele>
        <time>2019-03-17T20:54:35Z</time>
      </trkpt>
      <trkpt lat="50.62431" lon="5.42173">
        <ele>179.3</ele>
        <time>2019-03-17T20:55:35Z</time>
      </trkpt>
      <trkpt lat="50.62446" lon="5.42154">
        <ele>179</ele>
        <time>2019-03-17T20:56:35Z</time>
      </trkpt>
      <trkpt lat="50.62461" lon="5.42144">
        <ele>179</ele>
        <time>2019-03-17T20:57:35Z</time>
      </trkpt>
      <trkpt lat="50.62479" lon="5.42139">
        <ele>180</ele>
        <time>2019-03-17T20:58:35Z</time>
      </trkpt>
      <trkpt lat="50.62498" lon="5.42129">
        <ele>180</ele>
        <time>2019-03-17T20:59:35Z</time>
      </trkpt>
      <trkpt lat="50.62531" lon="5.42103">
        <ele>180.7</ele>
        <time>2019-03-17T21:00:35Z</time>
      </trkpt>
      <trkpt lat="50.62569" lon="5.42053">
        <ele>179</ele>
        <time>2019-03-17T21:01:35Z</time>
      </trkpt>
      <trkpt lat="50.62622" lon="5.4198">
        <ele>176.4</ele>
        <time>2019-03-17T21:02:35Z</time>
      </trkpt>
      <trkpt lat="50.62639" lon="5.41961">
        <ele>176</ele>
        <time>2019-03-17T21:03:35Z</time>
      </trkpt>
      <trkpt lat="50.62656" lon="5.41949">
        <ele>176</ele>
        <time>2019-03-17T21:04:35Z</time>
      </trkpt>
      <trkpt lat="50.62673" lon="5.41936">
        <ele>175.7</ele>
        <time>2019-03-17T21:05:35Z</time>
      </trkpt>
      <trkpt lat="50.62666" lon="5.41872">
        <ele>175</ele>
        <time>2019-03-17T21:06:35Z</time>
      </trkpt>
      <trkpt lat="50.62658" lon="5.41811">
        <ele>173.9</ele>
        <time>2019-03-17T21:07:35Z</time>
      </trkpt>
      <trkpt lat="50.62616" lon="5.41685">
        <ele>171</ele>
        <time>2019-03-17T21:08:35Z</time>
      </trkpt>
      <trkpt lat="50.62572" lon="5.41557">
        <ele>169.9</ele>
        <time>2019-03-17T21:09:35Z</time>
      </trkpt>
      <trkpt lat="50.6262" lon="5.41483">
        <ele>167</ele>
        <time>2019-03-17T21:10:35Z</time>
      </trkpt>
      <trkpt lat="50.62635" lon="5.41463">
        <ele>167</ele>
        <time>2019-03-17T21:11:35Z</time>
      </trkpt>
      <trkpt lat="50.6265" lon="5.41446">
        <ele>167</ele>
        <time>2019-03-17T21:12:35Z</time>
      </trkpt>
      <trkpt lat="50.62686" lon="5.41439">
        <ele>166</ele>
        <time>2019-03-17T21:13:35Z</time>
      </trkpt>
      <trkpt lat="50.62698" lon="5.41441">
        <ele>166</ele>
        <time>2019-03-17T21:14:35Z</time>
      </trkpt>
      <trkpt lat="50.62788" lon="5.41472">
        <ele>165.9</ele>
        <time>2019-03-17T21:15:35Z</time>
      </trkpt>
      <trkpt lat="50.62881" lon="5.41504">
        <ele>166</ele>
        <time>2019-03-17T21:16:35Z</time>
      </trkpt>
      <trkpt lat="50.62951" lon="5.41463">
        <ele>163</ele>
        <time>2019-03-17T21:17:35Z</time>
      </trkpt>
      <trkpt lat="50.63026" lon="5.41419">
        <ele>164.5</ele>
        <time>2019-03-17T21:18:35Z</time>
      </trkpt>
      <trkpt lat="50.62986" lon="5.41275">
        <ele>160</ele>
        <time>2019-03-17T21:19:35Z</time>
      </trkpt>
      <trkpt lat="50.62946" lon="5.41133">
        <ele>157</ele>
        <time>2019-03-17T21:20:35Z</time>
      </trkpt>
      <trkpt lat="50.62904" lon="5.40988">
        <ele>156</ele>
        <time>2019-03-17T21:21:35Z</time>
      </trkpt>
      <trkpt lat="50.62863" lon="5.40844">
        <ele>155</ele>
        <time>2019-03-17T21:22:35Z</time>
      </trkpt>
      <trkpt lat="50.62813" lon="5.40716">
        <ele>155</ele>
        <time>2019-03-17T21:23:35Z</time>
      </trkpt>
      <trkpt lat="50.62765" lon="5.4059">
        <ele>157</ele>
        <time>2019-03-17T21:24:35Z</time>
      </trkpt>
      <trkpt lat="50.6274" lon="5.40519">
        <ele>158</ele>
        <time>2019-03-17T21:25:35Z</time>
      </trkpt>
      <trkpt lat="50.62715" lon="5.40447">
        <ele>158</ele>
        <time>2019-03-17T21:27:35Z</time>
      </trkpt>
      <trkpt lat="50.62719" lon="5.40272">
        <ele>156.7</ele>
        <time>2019-03-17T21:28:35Z</time>
      </trkpt>
      <trkpt lat="50.62719" lon="5.40184">
        <ele>157</ele>
        <time>2019-03-17T21:30:35Z</time>
      </trkpt>
      <trkpt lat="50.62719" lon="5.40099">
        <ele>156.7</ele>
        <time>2019-03-17T21:31:35Z</time>
      </trkpt>
      <trkpt lat="50.62713" lon="5.40044">
        <ele>153</ele>
        <time>2019-03-17T21:32:35Z</time>
      </trkpt>
      <trkpt lat="50.62705" lon="5.39983">
        <ele>149</ele>
        <time>2019-03-17T21:33:35Z</time>
      </trkpt>
      <trkpt lat="50.62691" lon="5.39925">
        <ele>148</ele>
        <time>2019-03-17T21:34:35Z</time>
      </trkpt>
      <trkpt lat="50.62677" lon="5.39879">
        <ele>147.2</ele>
        <time>2019-03-17T21:35:35Z</time>
      </trkpt>
      <trkpt lat="50.62727" lon="5.39768">
        <ele>147</ele>
        <time>2019-03-17T21:36:35Z</time>
      </trkpt>
      <trkpt lat="50.62727" lon="5.39739">
        <ele>147.4</ele>
        <time>2019-03-17T21:37:35Z</time>
      </trkpt>
      <trkpt lat="50.627" lon="5.39704">
        <ele>147</ele>
        <time>2019-03-17T21:38:35Z</time>
      </trkpt>
      <trkpt lat="50.62675" lon="5.39669">
        <ele>146</ele>
        <time>2019-03-17T21:39:35Z</time>
      </trkpt>
      <trkpt lat="50.62642" lon="5.39631">
        <ele>146</ele>
        <time>2019-03-17T21:40:35Z</time>
      </trkpt>
      <trkpt lat="50.62626" lon="5.39597">
        <ele>146</ele>
        <time>2019-03-17T21:41:35Z</time>
      </trkpt>
      <trkpt lat="50.6261" lon="5.39538">
        <ele>146.4</ele>
        <time>2019-03-17T21:42:35Z</time>
      </trkpt>
      <trkpt lat="50.62583" lon="5.39515">
        <ele>142.3</ele>
        <time>2019-03-17T21:44:35Z</time>
      </trkpt>
      <trkpt lat="50.62563" lon="5.3944">
        <ele>141</ele>
        <time>2019-03-17T21:45:35Z</time>
      </trkpt>
      <trkpt lat="50.62543" lon="5.39361">
        <ele>142</ele>
        <time>2019-03-17T21:46:35Z</time>
      </trkpt>
      <trkpt lat="50.62548" lon="5.39327">
        <ele>145</ele>
        <time>2019-03-17T21:47:35Z</time>
      </trkpt>
      <trkpt lat="50.62549" lon="5.3929">
        <ele>146</ele>
        <time>2019-03-17T21:48:35Z</time>
      </trkpt>
      <trkpt lat="50.62542" lon="5.39269">
        <ele>146</ele>
        <time>2019-03-17T21:49:35Z</time>
      </trkpt>
      <trkpt lat="50.62469" lon="5.39189">
        <ele>148</ele>
        <time>2019-03-17T21:50:35Z</time>
      </trkpt>
      <trkpt lat="50.62458" lon="5.3917">
        <ele>149</ele>
        <time>2019-03-17T21:51:35Z</time>
      </trkpt>
      <trkpt lat="50.62395" lon="5.38971">
        <ele>152.1</ele>
        <time>2019-03-17T21:52:35Z</time>
      </trkpt>
      <trkpt lat="50.62328" lon="5.38813">
        <ele>148</ele>
        <time>2019-03-17T21:53:35Z</time>
      </trkpt>
      <trkpt lat="50.62284" lon="5.38698">
        <ele>145.8</ele>
        <time>2019-03-17T21:54:35Z</time>
      </trkpt>
      <trkpt lat="50.62272" lon="5.38615">
        <ele>145</ele>
        <time>2019-03-17T21:55:35Z</time>
      </trkpt>
      <trkpt lat="50.6226" lon="5.38539">
        <ele>146</ele>
        <time>2019-03-17T21:56:35Z</time>
      </trkpt>
      <trkpt lat="50.62251" lon="5.38486">
        <ele>145</ele>
        <time>2019-03-17T21:57:35Z</time>
      </trkpt>
      <trkpt lat="50.62209" lon="5.38391">
        <ele>141.8</ele>
        <time>2019-03-17T21:58:35Z</time>
      </trkpt>
      <trkpt lat="50.6217" lon="5.38378">
        <ele>141</ele>
        <time>2019-03-17T21:59:35Z</time>
      </trkpt>
      <trkpt lat="50.62154" lon="5.38371">
        <ele>143</ele>
        <time>2019-03-17T22:00:35Z</time>
      </trkpt>
      <trkpt lat="50.6214" lon="5.38363">
        <ele>143</ele>
        <time>2019-03-17T22:01:35Z</time>
      </trkpt>
      <trkpt lat="50.62117" lon="5.3833">
        <ele>144</ele>
        <time>2019-03-17T22:02:35Z</time>
      </trkpt>
      <trkpt lat="50.62094" lon="5.3828">
        <ele>144.1</ele>
        <time>2019-03-17T22:03:35Z</time>
      </trkpt>
      <trkpt lat="50.62083" lon="5.38257">
        <ele>145</ele>
        <time>2019-03-17T22:04:35Z</time>
      </trkpt>
      <trkpt lat="50.62073" lon="5.38229">
        <ele>147</ele>
        <time>2019-03-17T22:05:35Z</time>
      </trkpt>
      <trkpt lat="50.62035" lon="5.38107">
        <ele>149</ele>
        <time>2019-03-17T22:06:35Z</time>
      </trkpt>
      <trkpt lat="50.62013" lon="5.38023">
        <ele>150</ele>
        <time>2019-03-17T22:07:35Z</time>
      </trkpt>
      <trkpt lat="50.62002" lon="5.37978">
        <ele>151.1</ele>
        <time>2019-03-17T22:08:35Z</time>
      </trkpt>
      <trkpt lat="50.61992" lon="5.37975">
        <ele>151</ele>
        <time>2019-03-17T22:09:35Z</time>
      </trkpt>
      <trkpt lat="50.61955" lon="5.37992">
        <ele>152</ele>
        <time>2019-03-17T22:10:35Z</time>
      </trkpt>
      <trkpt lat="50.61938" lon="5.37991">
        <ele>152</ele>
        <time>2019-03-17T22:11:35Z</time>
      </trkpt>
      <trkpt lat="50.61834" lon="5.37868">
        <ele>156</ele>
        <time>2019-03-17T22:12:35Z</time>
      </trkpt>
      <trkpt lat="50.61792" lon="5.37796">
        <ele>158</ele>
        <time>2019-03-17T22:13:35Z</time>
      </trkpt>
      <trkpt lat="50.61728" lon="5.37707">
        <ele>160.1</ele>
        <time>2019-03-17T22:14:35Z</time>
      </trkpt>
      <trkpt lat="50.6165" lon="5.37604">
        <ele>161.7</ele>
        <time>2019-03-17T22:15:35Z</time>
      </trkpt>
      <trkpt lat="50.61629" lon="5.37576">
        <ele>162</ele>
        <time>2019-03-17T22:16:35Z</time>
      </trkpt>
      <trkpt lat="50.61609" lon="5.37543">
        <ele>162</ele>
        <time>2019-03-17T22:18:35Z</time>
      </trkpt>
      <trkpt lat="50.61566" lon="5.37465">
        <ele>164.2</ele>
        <time>2019-03-17T22:19:35Z</time>
      </trkpt>
      <trkpt lat="50.61548" lon="5.37385">
        <ele>166</ele>
        <time>2019-03-17T22:21:35Z</time>
      </trkpt>
      <trkpt lat="50.61541" lon="5.3729">
        <ele>167</ele>
        <time>2019-03-17T22:24:35Z</time>
      </trkpt>
      <trkpt lat="50.61514" lon="5.37216">
        <ele>167.6</ele>
        <time>2019-03-17T22:28:35Z</time>
      </trkpt>
      <trkpt lat="50.61476" lon="5.37165">
        <ele>169</ele>
        <time>2019-03-17T22:39:35Z</time>
      </trkpt>
      <trkpt lat="50.61457" lon="5.37139">
        <ele>169</ele>
        <time>2019-03-17T22:44:35Z</time>
      </trkpt>
      <trkpt lat="50.61439" lon="5.3711">
        <ele>169</ele>
        <time>2019-03-17T22:46:35Z</time>
      </trkpt>
      <trkpt lat="50.61363" lon="5.36985">
        <ele>170</ele>
        <time>2019-03-17T22:49:35Z</time>
      </trkpt>
      <trkpt lat="50.61278" lon="5.36837">
        <ele>171.3</ele>
        <time>2019-03-17T22:55:35Z</time>
      </trkpt>
      <trkpt lat="50.61247" lon="5.36782">
        <ele>172</ele>
        <time>2019-03-17T22:56:35Z</time>
      </trkpt>
      <trkpt lat="50.61219" lon="5.36752">
        <ele>172</ele>
        <time>2019-03-17T23:12:35Z</time>
      </trkpt>
      <trkpt lat="50.61191" lon="5.36728">
        <ele>172</ele>
        <time>2019-03-17T23:15:35Z</time>
      </trkpt>
      <trkpt lat="50.61121" lon="5.36702">
        <ele>173</ele>
        <time>2019-03-17T23:17:35Z</time>
      </trkpt>
      <trkpt lat="50.61085" lon="5.3669">
        <ele>174</ele>
        <time>2019-03-17T23:18:35Z</time>
      </trkpt>
      <trkpt lat="50.61052" lon="5.36674">
        <ele>175</ele>
        <time>2019-03-17T23:19:35Z</time>
      </trkpt>
      <trkpt lat="50.60994" lon="5.36642">
        <ele>176</ele>
        <time>2019-03-17T23:20:35Z</time>
      </trkpt>
      <trkpt lat="50.60935" lon="5.36605">
        <ele>176</ele>
        <time>2019-03-17T23:22:35Z</time>
      </trkpt>
      <trkpt lat="50.60805" lon="5.36522">
        <ele>177</ele>
        <time>2019-03-17T23:26:35Z</time>
      </trkpt>
      <trkpt lat="50.60675" lon="5.36428">
        <ele>179</ele>
        <time>2019-03-17T23:39:35Z</time>
      </trkpt>
      <trkpt lat="50.60644" lon="5.3641">
        <ele>179</ele>
        <time>2019-03-17T23:40:35Z</time>
      </trkpt>
      <trkpt lat="50.60614" lon="5.36394">
        <ele>179</ele>
        <time>2019-03-17T23:43:35Z</time>
      </trkpt>
      <trkpt lat="50.60552" lon="5.36359">
        <ele>179.7</ele>
        <time>2019-03-17T23:46:35Z</time>
      </trkpt>
      <trkpt lat="50.60511" lon="5.36307">
        <ele>180</ele>
        <time>2019-03-17T23:47:35Z</time>
      </trkpt>
      <trkpt lat="50.60488" lon="5.36282">
        <ele>182</ele>
        <time>2019-03-17T23:48:35Z</time>
      </trkpt>
      <trkpt lat="50.60457" lon="5.36259">
        <ele>182.2</ele>
        <time>2019-03-17T23:52:35Z</time>
      </trkpt>
      <trkpt lat="50.60309" lon="5.36077">
        <ele>182</ele>
        <time>2019-03-17T23:57:35Z</time>
      </trkpt>
      <trkpt lat="50.60228" lon="5.35988">
        <ele>183</ele>
        <time>2019-03-17T23:58:35Z</time>
      </trkpt>
      <trkpt lat="50.60166" lon="5.35917">
        <ele>184</ele>
        <time>2019-03-18T00:04:35Z</time>
      </trkpt>
      <trkpt lat="50.60148" lon="5.359">
        <ele>184</ele>
        <time>2019-03-18T00:08:35Z</time>
      </trkpt>
      <trkpt lat="50.60079" lon="5.35828">
        <ele>186</ele>
        <time>2019-03-18T00:10:35Z</time>
      </trkpt>
      <trkpt lat="50.60041" lon="5.35787">
        <ele>186.5</ele>
        <time>2019-03-18T00:14:35Z</time>
      </trkpt>
      <trkpt lat="50.60025" lon="5.35771">
        <ele>187</ele>
        <time>2019-03-18T00:15:35Z</time>
      </trkpt>
      <trkpt lat="50.60011" lon="5.35764">
        <ele>186.8</ele>
        <time>2019-03-18T00:16:35Z</time>
      </trkpt>
      <trkpt lat="50.59988" lon="5.35764">
        <ele>187</ele>
      </trkpt>
      <trkpt lat="50.59964" lon="5.35759">
        <ele>188</ele>
      </trkpt>
      <trkpt lat="50.59912" lon="5.35683">
        <ele>188</ele>
      </trkpt>
      <trkpt lat="50.59848" lon="5.35586">
        <ele>187.9</ele>
      </trkpt>
      <trkpt lat="50.59786" lon="5.3549">
        <ele>186</ele>
      </trkpt>
      <trkpt lat="50.59722" lon="5.35381">
        <ele>186</ele>
      </trkpt>
      <trkpt lat="50.59657" lon="5.35273">
        <ele>187</ele>
      </trkpt>
      <trkpt lat="50.59596" lon="5.35172">
        <ele>187.7</ele>
      </trkpt>
      <trkpt lat="50.59491" lon="5.35015">
        <ele>189</ele>
      </trkpt>
      <trkpt lat="50.59437" lon="5.34934">
        <ele>189</ele>
      </trkpt>
      <trkpt lat="50.59386" lon="5.34853">
        <ele>190</ele>
      </trkpt>
      <trkpt lat="50.59307" lon="5.34726">
        <ele>192.5</ele>
      </trkpt>
      <trkpt lat="50.5922" lon="5.34504">
        <ele>197</ele>
      </trkpt>
      <trkpt lat="50.59178" lon="5.34397">
        <ele>200.1</ele>
      </trkpt>
      <trkpt lat="50.59135" lon="5.34271">
        <ele>200.4</ele>
      </trkpt>
      <trkpt lat="50.592" lon="5.34123">
        <ele>198.6</ele>
      </trkpt>
      <trkpt lat="50.59145" lon="5.34088">
        <ele>200</ele>
      </trkpt>
      <trkpt lat="50.59047" lon="5.34047">
        <ele>199.1</ele>
      </trkpt>
      <trkpt lat="50.5904" lon="5.34026">
        <ele>199</ele>
      </trkpt>
      <trkpt lat="50.59028" lon="5.33926">
        <ele>198</ele>
      </trkpt>
      <trkpt lat="50.59036" lon="5.33901">
        <ele>198</ele>
      </trkpt>
      <trkpt lat="50.59051" lon="5.33774">
        <ele>198</ele>
      </trkpt>
      <trkpt lat="50.5905" lon="5.33728">
        <ele>198</ele>
      </trkpt>
      <trkpt lat="50.59049" lon="5.33698">
        <ele>198</ele>
      </trkpt>
      <trkpt lat="50.59048" lon="5.33674">
        <ele>198.5</ele>
      </trkpt>
      <trkpt lat="50.59039" lon="5.33633">
        <ele>199</ele>
      </trkpt>
      <trkpt lat="50.59029" lon="5.33602">
        <ele>200</ele>
      </trkpt>
      <trkpt lat="50.59009" lon="5.33545">
        <ele>200</ele>
      </trkpt>
      <trkpt lat="50.58988" lon="5.33488">
        <ele>200</ele>
      </trkpt>
      <trkpt lat="50.58978" lon="5.33457">
        <ele>199</ele>
      </trkpt>
      <trkpt lat="50.58968" lon="5.33417">
        <ele>199.1</ele>
      </trkpt>
      <trkpt lat="50.58952" lon="5.33346">
        <ele>198</ele>
      </trkpt>
      <trkpt lat="50.58948" lon="5.33263">
        <ele>197</ele>
      </trkpt>
      <trkpt lat="50.58947" lon="5.33227">
        <ele>197</ele>
      </trkpt>
      <trkpt lat="50.5895" lon="5.33188">
        <ele>196</ele>
      </trkpt>
      <trkpt lat="50.58956" lon="5.33106">
        <ele>196</ele>
      </trkpt>
      <trkpt lat="50.58958" lon="5.33032">
        <ele>195</ele>
      </trkpt>
      <trkpt lat="50.58957" lon="5.32967">
        <ele>195</ele>
      </trkpt>
      <trkpt lat="50.58949" lon="5.32852">
        <ele>194</ele>
      </trkpt>
      <trkpt lat="50.5894" lon="5.32741">
        <ele>193</ele>
      </trkpt>
      <trkpt lat="50.58931" lon="5.32628">
        <ele>193</ele>
      </trkpt>
      <trkpt lat="50.58922" lon="5.32518">
        <ele>192.3</ele>
      </trkpt>
      <trkpt lat="50.58936" lon="5.32166">
        <ele>191</ele>
      </trkpt>
      <trkpt lat="50.58944" lon="5.31992">
        <ele>193</ele>
      </trkpt>
      <trkpt lat="50.58948" lon="5.31886">
        <ele>194</ele>
      </trkpt>
      <trkpt lat="50.58944" lon="5.31802">
        <ele>194.3</ele>
      </trkpt>
      <trkpt lat="50.58936" lon="5.31759">
        <ele>195</ele>
      </trkpt>
      <trkpt lat="50.58929" lon="5.31722">
        <ele>195</ele>
      </trkpt>
      <trkpt lat="50.58909" lon="5.31639">
        <ele>197</ele>
      </trkpt>
      <trkpt lat="50.58885" lon="5.31541">
        <ele>195.4</ele>
      </trkpt>
      <trkpt lat="50.58879" lon="5.31507">
        <ele>195</ele>
      </trkpt>
      <trkpt lat="50.58875" lon="5.31465">
        <ele>194</ele>
      </trkpt>
      <trkpt lat="50.58873" lon="5.31419">
        <ele>194.5</ele>
      </trkpt>
      <trkpt lat="50.58887" lon="5.3137">
        <ele>195</ele>
      </trkpt>
      <trkpt lat="50.58891" lon="5.31305">
        <ele>194.4</ele>
      </trkpt>
      <trkpt lat="50.58895" lon="5.31134">
        <ele>193</ele>
      </trkpt>
      <trkpt lat="50.58885" lon="5.3089">
        <ele>194</ele>
      </trkpt>
      <trkpt lat="50.58877" lon="5.3086">
        <ele>194</ele>
      </trkpt>
      <trkpt lat="50.58804" lon="5.30702">
        <ele>190</ele>
      </trkpt>
      <trkpt lat="50.58791" lon="5.30676">
        <ele>191</ele>
      </trkpt>
      <trkpt lat="50.58783" lon="5.30652">
        <ele>190.8</ele>
      </trkpt>
      <trkpt lat="50.58761" lon="5.30586">
        <ele>191.5</ele>
      </trkpt>
      <trkpt lat="50.58716" lon="5.30371">
        <ele>187</ele>
      </trkpt>
      <trkpt lat="50.58677" lon="5.30149">
        <ele>185.9</ele>
      </trkpt>
      <trkpt lat="50.58675" lon="5.30104">
        <ele>187</ele>
      </trkpt>
      <trkpt lat="50.58678" lon="5.29968">
        <ele>186</ele>
      </trkpt>
      <trkpt lat="50.58675" lon="5.29797">
        <ele>188</ele>
      </trkpt>
      <trkpt lat="50.58673" lon="5.29755">
        <ele>189</ele>
      </trkpt>
      <trkpt lat="50.58669" lon="5.2972">
        <ele>189</ele>
      </trkpt>
      <trkpt lat="50.58659" lon="5.29635">
        <ele>188</ele>
      </trkpt>
      <trkpt lat="50.58641" lon="5.29474">
        <ele>186.2</ele>
      </trkpt>
      <trkpt lat="50.58716" lon="5.29382">
        <ele>186</ele>
      </trkpt>
      <trkpt lat="50.58791" lon="5.29294">
        <ele>185</ele>
      </trkpt>
      <trkpt lat="50.58874" lon="5.29156">
        <ele>181</ele>
      </trkpt>
      <trkpt lat="50.58956" lon="5.29023">
        <ele>180</ele>
      </trkpt>
      <trkpt lat="50.59002" lon="5.2896">
        <ele>182</ele>
      </trkpt>
      <trkpt lat="50.59049" lon="5.28904">
        <ele>183</ele>
      </trkpt>
      <trkpt lat="50.59132" lon="5.28801">
        <ele>185.3</ele>
      </trkpt>
      <trkpt lat="50.59128" lon="5.2859">
        <ele>186</ele>
      </trkpt>
      <trkpt lat="50.59126" lon="5.2849">
        <ele>186</ele>
      </trkpt>
      <trkpt lat="50.59124" lon="5.28426">
        <ele>186</ele>
      </trkpt>
      <trkpt lat="50.59122" lon="5.28396">
        <ele>184.8</ele>
      </trkpt>
      <trkpt lat="50.59105" lon="5.28386">
        <ele>185</ele>
      </trkpt>
      <trkpt lat="50.59066" lon="5.28387">
        <ele>186</ele>
      </trkpt>
      <trkpt lat="50.59055" lon="5.28375">
        <ele>186</ele>
      </trkpt>
      <trkpt lat="50.59044" lon="5.28358">
        <ele>186</ele>
      </trkpt>
      <trkpt lat="50.58956" lon="5.28204">
        <ele>186</ele>
      </trkpt>
      <trkpt lat="50.58913" lon="5.28129">
        <ele>184</ele>
      </trkpt>
      <trkpt lat="50.58865" lon="5.28065">
        <ele>184.6</ele>
      </trkpt>
      <trkpt lat="50.58881" lon="5.28035">
        <ele>185</ele>
      </trkpt>
      <trkpt lat="50.58897" lon="5.27998">
        <ele>185</ele>
      </trkpt>
      <trkpt lat="50.5895" lon="5.27824">
        <ele>183.9</ele>
      </trkpt>
      <trkpt lat="50.59001" lon="5.27606">
        <ele>186</ele>
      </trkpt>
      <trkpt lat="50.59026" lon="5.27499">
        <ele>187</ele>
      </trkpt>
      <trkpt lat="50.59039" lon="5.27443">
        <ele>187</ele>
      </trkpt>
      <trkpt lat="50.59051" lon="5.27375">
        <ele>187</ele>
      </trkpt>
      <trkpt lat="50.59056" lon="5.27302">
        <ele>188</ele>
      </trkpt>
      <trkpt lat="50.59054" lon="5.27225">
        <ele>188</ele>
      </trkpt>
      <trkpt lat="50.59052" lon="5.27182">
        <ele>188</ele>
      </trkpt>
      <trkpt lat="50.59047" lon="5.27131">
        <ele>188.2</ele>
      </trkpt>
      <trkpt lat="50.59031" lon="5.27058">
        <ele>188</ele>
      </trkpt>
      <trkpt lat="50.5901" lon="5.26985">
        <ele>188</ele>
      </trkpt>
      <trkpt lat="50.58956" lon="5.26852">
        <ele>191</ele>
      </trkpt>
      <trkpt lat="50.58899" lon="5.26713">
        <ele>193</ele>
      </trkpt>
      <trkpt lat="50.58785" lon="5.26441">
        <ele>191.4</ele>
      </trkpt>
      <trkpt lat="50.5876" lon="5.26391">
        <ele>191</ele>
      </trkpt>
      <trkpt lat="50.58736" lon="5.26351">
        <ele>190</ele>
      </trkpt>
      <trkpt lat="50.58707" lon="5.26303">
        <ele>189</ele>
      </trkpt>
      <trkpt lat="50.58694" lon="5.26286">
        <ele>188</ele>
      </trkpt>
      <trkpt lat="50.58681" lon="5.26275">
        <ele>187</ele>
      </trkpt>
      <trkpt lat="50.58663" lon="5.26278">
        <ele>187</ele>
      </trkpt>
      <trkpt lat="50.58611" lon="5.26324">
        <ele>188</ele>
      </trkpt>
      <trkpt lat="50.58604" lon="5.26302">
        <ele>187</ele>
      </trkpt>
      <trkpt lat="50.58606" lon="5.26282">
        <ele>187</ele>
      </trkpt>
      <trkpt lat="50.58616" lon="5.26259">
        <ele>187</ele>
      </trkpt>
      <trkpt lat="50.58646" lon="5.26241">
        <ele>186</ele>
      </trkpt>
      <trkpt lat="50.58685" lon="5.26235">
        <ele>187</ele>
      </trkpt>
      <trkpt lat="50.58728" lon="5.26233">
        <ele>189</ele>
      </trkpt>
      <trkpt lat="50.58807" lon="5.26232">
        <ele>190</ele>
      </trkpt>
      <trkpt lat="50.58887" lon="5.26231">
        <ele>190.9</ele>
      </trkpt>
      <trkpt lat="50.59053" lon="5.26227">
        <ele>192</ele>
      </trkpt>
      <trkpt lat="50.59137" lon="5.26225">
        <ele>193</ele>
      </trkpt>
      <trkpt lat="50.59186" lon="5.26224">
        <ele>192</ele>
      </trkpt>
      <trkpt lat="50.5921" lon="5.26225">
        <ele>191</ele>
      </trkpt>
      <trkpt lat="50.59235" lon="5.26229">
        <ele>191</ele>
      </trkpt>
      <trkpt lat="50.59246" lon="5.26241">
        <ele>191</ele>
      </trkpt>
      <trkpt lat="50.5926" lon="5.26245">
        <ele>190</ele>
      </trkpt>
      <trkpt lat="50.59267" lon="5.26232">
        <ele>190</ele>
      </trkpt>
      <trkpt lat="50.59285" lon="5.26226">
        <ele>190</ele>
      </trkpt>
      <trkpt lat="50.59345" lon="5.26223">
        <ele>189</ele>
      </trkpt>
      <trkpt lat="50.59405" lon="5.26222">
        <ele>190</ele>
      </trkpt>
      <trkpt lat="50.59403" lon="5.26203">
        <ele>190</ele>
      </trkpt>
      <trkpt lat="50.59396" lon="5.2618">
        <ele>189.8</ele>
      </trkpt>
      <trkpt lat="50.59298" lon="5.26007">
        <ele>188</ele>
      </trkpt>
      <trkpt lat="50.59248" lon="5.2592">
        <ele>187</ele>
      </trkpt>
      <trkpt lat="50.59199" lon="5.25827">
        <ele>188</ele>
      </trkpt>
      <trkpt lat="50.59182" lon="5.25767">
        <ele>187.8</ele>
      </trkpt>
      <trkpt lat="50.59177" lon="5.25715">
        <ele>188</ele>
      </trkpt>
      <trkpt lat="50.59178" lon="5.25632">
        <ele>189</ele>
      </trkpt>
      <trkpt lat="50.59182" lon="5.25553">
        <ele>189.4</ele>
      </trkpt>
      <trkpt lat="50.59185" lon="5.25512">
        <ele>190</ele>
      </trkpt>
      <trkpt lat="50.59186" lon="5.25465">
        <ele>191</ele>
      </trkpt>
      <trkpt lat="50.59187" lon="5.2537">
        <ele>192</ele>
      </trkpt>
      <trkpt lat="50.59188" lon="5.25291">
        <ele>192</ele>
      </trkpt>
      <trkpt lat="50.59194" lon="5.25209">
        <ele>193</ele>
      </trkpt>
      <trkpt lat="50.59212" lon="5.25046">
        <ele>193.2</ele>
      </trkpt>
      <trkpt lat="50.59218" lon="5.24979">
        <ele>194</ele>
      </trkpt>
      <trkpt lat="50.59225" lon="5.24921">
        <ele>194</ele>
      </trkpt>
      <trkpt lat="50.59242" lon="5.24794">
        <ele>195</ele>
      </trkpt>
      <trkpt lat="50.59258" lon="5.24664">
        <ele>196</ele>
      </trkpt>
      <trkpt lat="50.59271" lon="5.24535">
        <ele>193.5</ele>
      </trkpt>
      <trkpt lat="50.59266" lon="5.24363">
        <ele>187.6</ele>
      </trkpt>
      <trkpt lat="50.59281" lon="5.24154">
        <ele>185</ele>
      </trkpt>
      <trkpt lat="50.59294" lon="5.23976">
        <ele>181.7</ele>
      </trkpt>
      <trkpt lat="50.59292" lon="5.23882">
        <ele>180</ele>
      </trkpt>
      <trkpt lat="50.5929" lon="5.23794">
        <ele>179.6</ele>
      </trkpt>
      <trkpt lat="50.59315" lon="5.23586">
        <ele>176</ele>
      </trkpt>
      <trkpt lat="50.59321" lon="5.23531">
        <ele>176</ele>
      </trkpt>
      <trkpt lat="50.59324" lon="5.23463">
        <ele>175.7</ele>
      </trkpt>
      <trkpt lat="50.59319" lon="5.23395">
        <ele>175</ele>
      </trkpt>
      <trkpt lat="50.5931" lon="5.23334">
        <ele>174</ele>
      </trkpt>
      <trkpt lat="50.5929" lon="5.23267">
        <ele>174</ele>
      </trkpt>
      <trkpt lat="50.5928" lon="5.2323">
        <ele>174</ele>
      </trkpt>
      <trkpt lat="50.59272" lon="5.23196">
        <ele>174.6</ele>
      </trkpt>
      <trkpt lat="50.5927" lon="5.23152">
        <ele>175</ele>
      </trkpt>
      <trkpt lat="50.59275" lon="5.23128">
        <ele>174</ele>
      </trkpt>
      <trkpt lat="50.59282" lon="5.23102">
        <ele>174</ele>
      </trkpt>
      <trkpt lat="50.59288" lon="5.23064">
        <ele>172.6</ele>
      </trkpt>
      <trkpt lat="50.59289" lon="5.23013">
        <ele>172</ele>
      </trkpt>
      <trkpt lat="50.59288" lon="5.22947">
        <ele>170</ele>
      </trkpt>
      <trkpt lat="50.59287" lon="5.22881">
        <ele>169</ele>
      </trkpt>
      <trkpt lat="50.59288" lon="5.22831">
        <ele>168.2</ele>
      </trkpt>
      <trkpt lat="50.59292" lon="5.22779">
        <ele>168</ele>
      </trkpt>
      <trkpt lat="50.59301" lon="5.22726">
        <ele>167</ele>
      </trkpt>
      <trkpt lat="50.5926" lon="5.22689">
        <ele>166.7</ele>
      </trkpt>
      <trkpt lat="50.59232" lon="5.22654">
        <ele>167</ele>
      </trkpt>
      <trkpt lat="50.59203" lon="5.22614">
        <ele>167.5</ele>
      </trkpt>
      <trkpt lat="50.59172" lon="5.22562">
        <ele>168</ele>
      </trkpt>
      <trkpt lat="50.59157" lon="5.22533">
        <ele>168</ele>
      </trkpt>
      <trkpt lat="50.59131" lon="5.22498">
        <ele>168.2</ele>
      </trkpt>
      <trkpt lat="50.5904" lon="5.22415">
        <ele>171</ele>
      </trkpt>
      <trkpt lat="50.5895" lon="5.22327">
        <ele>175</ele>
      </trkpt>
      <trkpt lat="50.58857" lon="5.22236">
        <ele>178</ele>
      </trkpt>
      <trkpt lat="50.58768" lon="5.2215">
        <ele>183</ele>
      </trkpt>
      <trkpt lat="50.58723" lon="5.2211">
        <ele>185</ele>
      </trkpt>
      <trkpt lat="50.58681" lon="5.22081">
        <ele>188</ele>
      </trkpt>
      <trkpt lat="50.58618" lon="5.22061">
        <ele>191</ele>
      </trkpt>
      <trkpt lat="50.58556" lon="5.22055">
        <ele>193</ele>
      </trkpt>
      <trkpt lat="50.58493" lon="5.22055">
        <ele>193</ele>
      </trkpt>
      <trkpt lat="50.58461" lon="5.22056">
        <ele>193</ele>
      </trkpt>
      <trkpt lat="50.58445" lon="5.22049">
        <ele>193</ele>
      </trkpt>
      <trkpt lat="50.58429" lon="5.22037">
        <ele>193</ele>
      </trkpt>
      <trkpt lat="50.58411" lon="5.21999">
        <ele>192</ele>
      </trkpt>
      <trkpt lat="50.58392" lon="5.21948">
        <ele>191</ele>
      </trkpt>
      <trkpt lat="50.58354" lon="5.21847">
        <ele>190</ele>
      </trkpt>
      <trkpt lat="50.58317" lon="5.21747">
        <ele>190</ele>
      </trkpt>
      <trkpt lat="50.58279" lon="5.21651">
        <ele>191.2</ele>
      </trkpt>
      <trkpt lat="50.58254" lon="5.216">
        <ele>192</ele>
      </trkpt>
      <trkpt lat="50.5823" lon="5.21559">
        <ele>191</ele>
      </trkpt>
      <trkpt lat="50.58175" lon="5.21486">
        <ele>190</ele>
      </trkpt>
      <trkpt lat="50.58121" lon="5.21417">
        <ele>188</ele>
      </trkpt>
      <trkpt lat="50.58095" lon="5.21401">
        <ele>188</ele>
      </trkpt>
      <trkpt lat="50.58049" lon="5.21386">
        <ele>187.3</ele>
      </trkpt>
      <trkpt lat="50.58004" lon="5.21354">
        <ele>187</ele>
      </trkpt>
      <trkpt lat="50.57981" lon="5.21328">
        <ele>187.4</ele>
      </trkpt>
      <trkpt lat="50.57951" lon="5.21295">
        <ele>187.9</ele>
      </trkpt>
      <trkpt lat="50.57886" lon="5.21156">
        <ele>189</ele>
      </trkpt>
      <trkpt lat="50.57824" lon="5.21034">
        <ele>185</ele>
      </trkpt>
      <trkpt lat="50.57761" lon="5.20915">
        <ele>185</ele>
      </trkpt>
      <trkpt lat="50.57705" lon="5.20816">
        <ele>186</ele>
      </trkpt>
      <trkpt lat="50.57703" lon="5.208">
        <ele>186</ele>
      </trkpt>
      <trkpt lat="50.57703" lon="5.20787">
        <ele>186</ele>
      </trkpt>
      <trkpt lat="50.57714" lon="5.20759">
        <ele>186</ele>
      </trkpt>
      <trkpt lat="50.57729" lon="5.20729">
        <ele>185</ele>
      </trkpt>
      <trkpt lat="50.57754" lon="5.20678">
        <ele>185.5</ele>
      </trkpt>
      <trkpt lat="50.57759" lon="5.20646">
        <ele>186</ele>
      </trkpt>
      <trkpt lat="50.57763" lon="5.20596">
        <ele>186</ele>
      </trkpt>
      <trkpt lat="50.57763" lon="5.20533">
        <ele>185</ele>
      </trkpt>
      <trkpt lat="50.57757" lon="5.20489">
        <ele>184</ele>
      </trkpt>
      <trkpt lat="50.57748" lon="5.20456">
        <ele>185</ele>
      </trkpt>
      <trkpt lat="50.57718" lon="5.20391">
        <ele>184</ele>
      </trkpt>
      <trkpt lat="50.57665" lon="5.20281">
        <ele>183.1</ele>
      </trkpt>
      <trkpt lat="50.57509" lon="5.19951">
        <ele>184</ele>
      </trkpt>
      <trkpt lat="50.5743" lon="5.19783">
        <ele>182</ele>
      </trkpt>
      <trkpt lat="50.57316" lon="5.19536">
        <ele>179</ele>
      </trkpt>
      <trkpt lat="50.57247" lon="5.19371">
        <ele>177</ele>
      </trkpt>
      <trkpt lat="50.57197" lon="5.19254">
        <ele>176</ele>
      </trkpt>
      <trkpt lat="50.57151" lon="5.19131">
        <ele>173.7</ele>
      </trkpt>
      <trkpt lat="50.5705" lon="5.18857">
        <ele>169</ele>
      </trkpt>
      <trkpt lat="50.56951" lon="5.18575">
        <ele>166</ele>
      </trkpt>
      <trkpt lat="50.56801" lon="5.18119">
        <ele>156</ele>
      </trkpt>
      <trkpt lat="50.56728" lon="5.17883">
        <ele>151</ele>
      </trkpt>
      <trkpt lat="50.56654" lon="5.17663">
        <ele>140</ele>
      </trkpt>
      <trkpt lat="50.56637" lon="5.17646">
        <ele>133</ele>
      </trkpt>
      <trkpt lat="50.56622" lon="5.17644">
        <ele>131</ele>
      </trkpt>
      <trkpt lat="50.56589" lon="5.1765">
        <ele>123</ele>
      </trkpt>
      <trkpt lat="50.56574" lon="5.17669">
        <ele>121</ele>
      </trkpt>
      <trkpt lat="50.5656" lon="5.17703">
        <ele>118</ele>
      </trkpt>
      <trkpt lat="50.56547" lon="5.17741">
        <ele>122</ele>
      </trkpt>
      <trkpt lat="50.56536" lon="5.17767">
        <ele>126</ele>
      </trkpt>
      <trkpt lat="50.56527" lon="5.1778">
        <ele>126</ele>
      </trkpt>
      <trkpt lat="50.56508" lon="5.17798">
        <ele>127</ele>
      </trkpt>
      <trkpt lat="50.56478" lon="5.17811">
        <ele>115.8</ele>
      </trkpt>
      <trkpt lat="50.56452" lon="5.17818">
        <ele>112</ele>
      </trkpt>
      <trkpt lat="50.56416" lon="5.17845">
        <ele>111</ele>
      </trkpt>
      <trkpt lat="50.56397" lon="5.17856">
        <ele>114</ele>
      </trkpt>
      <trkpt lat="50.5638" lon="5.17855">
        <ele>114.8</ele>
      </trkpt>
      <trkpt lat="50.56367" lon="5.17836">
        <ele>113</ele>
      </trkpt>
      <trkpt lat="50.56363" lon="5.17819">
        <ele>103</ele>
      </trkpt>
      <trkpt lat="50.56362" lon="5.17797">
        <ele>102</ele>
      </trkpt>
      <trkpt lat="50.56372" lon="5.17779">
        <ele>100</ele>
      </trkpt>
      <trkpt lat="50.56382" lon="5.17765">
        <ele>99</ele>
      </trkpt>
      <trkpt lat="50.56424" lon="5.17764">
        <ele>102.1</ele>
      </trkpt>
      <trkpt lat="50.56452" lon="5.17746">
        <ele>99</ele>
      </trkpt>
      <trkpt lat="50.56484" lon="5.17685">
        <ele>98.8</ele>
      </trkpt>
      <trkpt lat="50.5652" lon="5.17618">
        <ele>105</ele>
      </trkpt>
      <trkpt lat="50.56541" lon="5.1757">
        <ele>104</ele>
      </trkpt>
      <trkpt lat="50.56554" lon="5.17529">
        <ele>104.5</ele>
      </trkpt>
      <trkpt lat="50.56569" lon="5.17482">
        <ele>105</ele>
      </trkpt>
      <trkpt lat="50.56576" lon="5.17444">
        <ele>105</ele>
      </trkpt>
      <trkpt lat="50.56597" lon="5.17346">
        <ele>116</ele>
      </trkpt>
      <trkpt lat="50.56605" lon="5.17271">
        <ele>119</ele>
      </trkpt>
      <trkpt lat="50.5661" lon="5.17208">
        <ele>117</ele>
      </trkpt>
      <trkpt lat="50.56615" lon="5.17145">
        <ele>113</ele>
      </trkpt>
      <trkpt lat="50.56623" lon="5.17076">
        <ele>112</ele>
      </trkpt>
      <trkpt lat="50.56644" lon="5.1699">
        <ele>108</ele>
      </trkpt>
      <trkpt lat="50.56675" lon="5.16919">
        <ele>106</ele>
      </trkpt>
      <trkpt lat="50.56695" lon="5.16893">
        <ele>105</ele>
      </trkpt>
      <trkpt lat="50.56714" lon="5.16872">
        <ele>105</ele>
      </trkpt>
      <trkpt lat="50.56742" lon="5.1685">
        <ele>104</ele>
      </trkpt>
      <trkpt lat="50.5677" lon="5.16828">
        <ele>103</ele>
      </trkpt>
      <trkpt lat="50.5677" lon="5.16814">
        <ele>102</ele>
      </trkpt>
      <trkpt lat="50.56758" lon="5.16776">
        <ele>101</ele>
      </trkpt>
      <trkpt lat="50.56746" lon="5.16742">
        <ele>97</ele>
      </trkpt>
      <trkpt lat="50.56734" lon="5.16704">
        <ele>98</ele>
      </trkpt>
      <trkpt lat="50.56724" lon="5.16666">
        <ele>98.4</ele>
      </trkpt>
      <trkpt lat="50.56727" lon="5.1656">
        <ele>101</ele>
      </trkpt>
      <trkpt lat="50.56721" lon="5.16497">
        <ele>105</ele>
      </trkpt>
      <trkpt lat="50.56716" lon="5.16434">
        <ele>109</ele>
      </trkpt>
      <trkpt lat="50.56704" lon="5.16404">
        <ele>111</ele>
      </trkpt>
      <trkpt lat="50.56685" lon="5.16376">
        <ele>111</ele>
      </trkpt>
      <trkpt lat="50.56644" lon="5.16317">
        <ele>119.1</ele>
      </trkpt>
      <trkpt lat="50.56624" lon="5.16268">
        <ele>122</ele>
      </trkpt>
      <trkpt lat="50.56604" lon="5.16199">
        <ele>123</ele>
      </trkpt>
      <trkpt lat="50.56566" lon="5.16093">
        <ele>128</ele>
      </trkpt>
      <trkpt lat="50.56525" lon="5.15986">
        <ele>136</ele>
      </trkpt>
      <trkpt lat="50.56484" lon="5.15875">
        <ele>140.1</ele>
      </trkpt>
      <trkpt lat="50.56419" lon="5.15738">
        <ele>141</ele>
      </trkpt>
      <trkpt lat="50.56387" lon="5.15668">
        <ele>147</ele>
      </trkpt>
      <trkpt lat="50.56354" lon="5.15584">
        <ele>150</ele>
      </trkpt>
      <trkpt lat="50.56317" lon="5.15466">
        <ele>155</ele>
      </trkpt>
      <trkpt lat="50.56282" lon="5.1536">
        <ele>159</ele>
      </trkpt>
      <trkpt lat="50.56229" lon="5.15228">
        <ele>162.6</ele>
      </trkpt>
      <trkpt lat="50.56211" lon="5.15202">
        <ele>163</ele>
      </trkpt>
      <trkpt lat="50.56192" lon="5.15182">
        <ele>164</ele>
      </trkpt>
      <trkpt lat="50.56157" lon="5.15148">
        <ele>165.6</ele>
      </trkpt>
      <trkpt lat="50.56125" lon="5.14965">
        <ele>168</ele>
      </trkpt>
      <trkpt lat="50.56115" lon="5.14913">
        <ele>170</ele>
      </trkpt>
      <trkpt lat="50.5611" lon="5.14856">
        <ele>170</ele>
      </trkpt>
      <trkpt lat="50.56109" lon="5.14806">
        <ele>171</ele>
      </trkpt>
      <trkpt lat="50.5611" lon="5.1476">
        <ele>172</ele>
      </trkpt>
      <trkpt lat="50.56207" lon="5.14711">
        <ele>172</ele>
      </trkpt>
      <trkpt lat="50.56256" lon="5.14683">
        <ele>174</ele>
      </trkpt>
      <trkpt lat="50.56308" lon="5.14655">
        <ele>177.1</ele>
      </trkpt>
      <trkpt lat="50.56367" lon="5.14511">
        <ele>181</ele>
      </trkpt>
      <trkpt lat="50.56426" lon="5.14357">
        <ele>180.6</ele>
      </trkpt>
      <trkpt lat="50.56493" lon="5.14151">
        <ele>181</ele>
      </trkpt>
      <trkpt lat="50.56526" lon="5.1404">
        <ele>180</ele>
      </trkpt>
      <trkpt lat="50.56547" lon="5.13969">
        <ele>180</ele>
      </trkpt>
      <trkpt lat="50.56557" lon="5.13916">
        <ele>179.7</ele>
      </trkpt>
      <trkpt lat="50.56561" lon="5.13827">
        <ele>179</ele>
      </trkpt>
      <trkpt lat="50.56567" lon="5.13733">
        <ele>178</ele>
      </trkpt>
      <trkpt lat="50.56572" lon="5.13641">
        <ele>177</ele>
      </trkpt>
      <trkpt lat="50.56581" lon="5.13554">
        <ele>175.2</ele>
      </trkpt>
      <trkpt lat="50.56606" lon="5.13455">
        <ele>174</ele>
      </trkpt>
      <trkpt lat="50.56623" lon="5.13397">
        <ele>175</ele>
      </trkpt>
      <trkpt lat="50.56638" lon="5.13367">
        <ele>174.8</ele>
      </trkpt>
      <trkpt lat="50.56661" lon="5.13329">
        <ele>176</ele>
      </trkpt>
      <trkpt lat="50.56685" lon="5.13299">
        <ele>176</ele>
      </trkpt>
      <trkpt lat="50.56704" lon="5.13253">
        <ele>176</ele>
      </trkpt>
      <trkpt lat="50.56739" lon="5.13162">
        <ele>177</ele>
      </trkpt>
      <trkpt lat="50.56755" lon="5.1312">
        <ele>176</ele>
      </trkpt>
      <trkpt lat="50.56771" lon="5.13074">
        <ele>177.3</ele>
      </trkpt>
      <trkpt lat="50.5672" lon="5.12963">
        <ele>178</ele>
      </trkpt>
      <trkpt lat="50.56695" lon="5.12903">
        <ele>178</ele>
      </trkpt>
      <trkpt lat="50.56682" lon="5.12872">
        <ele>178</ele>
      </trkpt>
      <trkpt lat="50.56675" lon="5.1283">
        <ele>179</ele>
      </trkpt>
      <trkpt lat="50.56686" lon="5.12779">
        <ele>179</ele>
      </trkpt>
      <trkpt lat="50.56704" lon="5.12733">
        <ele>180</ele>
      </trkpt>
      <trkpt lat="50.56749" lon="5.12619">
        <ele>181</ele>
      </trkpt>
      <trkpt lat="50.56824" lon="5.12423">
        <ele>179</ele>
      </trkpt>
      <trkpt lat="50.56978" lon="5.12021">
        <ele>171.8</ele>
      </trkpt>
      <trkpt lat="50.56823" lon="5.12024">
        <ele>176</ele>
      </trkpt>
      <trkpt lat="50.56674" lon="5.12027">
        <ele>175.8</ele>
      </trkpt>
      <trkpt lat="50.56636" lon="5.12005">
        <ele>174</ele>
      </trkpt>
      <trkpt lat="50.56591" lon="5.1197">
        <ele>172.7</ele>
      </trkpt>
      <trkpt lat="50.5653" lon="5.11938">
        <ele>168.5</ele>
      </trkpt>
      <trkpt lat="50.56496" lon="5.11932">
        <ele>166</ele>
      </trkpt>
      <trkpt lat="50.56427" lon="5.11927">
        <ele>166</ele>
      </trkpt>
      <trkpt lat="50.5639" lon="5.11925">
        <ele>167</ele>
      </trkpt>
      <trkpt lat="50.56354" lon="5.11917">
        <ele>167</ele>
      </trkpt>
      <trkpt lat="50.5633" lon="5.11893">
        <ele>167</ele>
      </trkpt>
      <trkpt lat="50.56303" lon="5.11862">
        <ele>167</ele>
      </trkpt>
      <trkpt lat="50.56286" lon="5.11846">
        <ele>167</ele>
      </trkpt>
      <trkpt lat="50.5627" lon="5.11831">
        <ele>167</ele>
      </trkpt>
      <trkpt lat="50.56241" lon="5.11842">
        <ele>168.3</ele>
      </trkpt>
      <trkpt lat="50.56214" lon="5.11864">
        <ele>169</ele>
      </trkpt>
      <trkpt lat="50.56179" lon="5.11887">
        <ele>169</ele>
      </trkpt>
      <trkpt lat="50.5612" lon="5.11935">
        <ele>171</ele>
      </trkpt>
      <trkpt lat="50.5606" lon="5.11973">
        <ele>171</ele>
      </trkpt>
      <trkpt lat="50.56011" lon="5.11996">
        <ele>172</ele>
      </trkpt>
      <trkpt lat="50.55972" lon="5.1201">
        <ele>175.4</ele>
      </trkpt>
      <trkpt lat="50.55947" lon="5.12011">
        <ele>176</ele>
      </trkpt>
      <trkpt lat="50.55921" lon="5.12004">
        <ele>178</ele>
      </trkpt>
      <trkpt lat="50.55869" lon="5.11985">
        <ele>178</ele>
      </trkpt>
      <trkpt lat="50.55827" lon="5.11984">
        <ele>179</ele>
      </trkpt>
      <trkpt lat="50.55784" lon="5.11984">
        <ele>178.4</ele>
      </trkpt>
      <trkpt lat="50.55796" lon="5.11916">
        <ele>178</ele>
      </trkpt>
      <trkpt lat="50.5581" lon="5.11862">
        <ele>179</ele>
      </trkpt>
      <trkpt lat="50.55844" lon="5.11755">
        <ele>181</ele>
      </trkpt>
      <trkpt lat="50.55885" lon="5.11636">
        <ele>184</ele>
      </trkpt>
      <trkpt lat="50.55904" lon="5.1158">
        <ele>186</ele>
      </trkpt>
      <trkpt lat="50.55924" lon="5.11531">
        <ele>184.1</ele>
      </trkpt>
      <trkpt lat="50.55895" lon="5.11448">
        <ele>188</ele>
      </trkpt>
      <trkpt lat="50.55856" lon="5.11371">
        <ele>190</ele>
      </trkpt>
      <trkpt lat="50.55777" lon="5.11217">
        <ele>191</ele>
      </trkpt>
      <trkpt lat="50.55741" lon="5.11107">
        <ele>191</ele>
      </trkpt>
      <trkpt lat="50.55708" lon="5.10986">
        <ele>192</ele>
      </trkpt>
      <trkpt lat="50.55692" lon="5.10934">
        <ele>192</ele>
      </trkpt>
      <trkpt lat="50.55676" lon="5.10874">
        <ele>192</ele>
      </trkpt>
      <trkpt lat="50.55646" lon="5.10752">
        <ele>192</ele>
      </trkpt>
      <trkpt lat="50.55617" lon="5.10638">
        <ele>193</ele>
      </trkpt>
      <trkpt lat="50.55589" lon="5.10539">
        <ele>193</ele>
      </trkpt>
      <trkpt lat="50.55561" lon="5.10448">
        <ele>194</ele>
      </trkpt>
      <trkpt lat="50.55503" lon="5.1027">
        <ele>195.6</ele>
      </trkpt>
      <trkpt lat="50.55452" lon="5.101">
        <ele>194</ele>
      </trkpt>
      <trkpt lat="50.55401" lon="5.09934">
        <ele>195</ele>
      </trkpt>
      <trkpt lat="50.55342" lon="5.09771">
        <ele>194</ele>
      </trkpt>
      <trkpt lat="50.55313" lon="5.09677">
        <ele>194</ele>
      </trkpt>
      <trkpt lat="50.55283" lon="5.0958">
        <ele>194</ele>
      </trkpt>
      <trkpt lat="50.55271" lon="5.09562">
        <ele>194</ele>
      </trkpt>
      <trkpt lat="50.55255" lon="5.09546">
        <ele>194</ele>
      </trkpt>
      <trkpt lat="50.55218" lon="5.09527">
        <ele>194</ele>
      </trkpt>
      <trkpt lat="50.55184" lon="5.09519">
        <ele>193</ele>
      </trkpt>
      <trkpt lat="50.55141" lon="5.0952">
        <ele>192.7</ele>
      </trkpt>
      <trkpt lat="50.55128" lon="5.09417">
        <ele>194</ele>
      </trkpt>
      <trkpt lat="50.55127" lon="5.0933">
        <ele>195</ele>
      </trkpt>
      <trkpt lat="50.55128" lon="5.09233">
        <ele>195</ele>
      </trkpt>
      <trkpt lat="50.55134" lon="5.09143">
        <ele>195.7</ele>
      </trkpt>
      <trkpt lat="50.55149" lon="5.09067">
        <ele>196</ele>
      </trkpt>
      <trkpt lat="50.5516" lon="5.08998">
        <ele>197</ele>
      </trkpt>
      <trkpt lat="50.55169" lon="5.089">
        <ele>196</ele>
      </trkpt>
      <trkpt lat="50.55179" lon="5.08795">
        <ele>197</ele>
      </trkpt>
      <trkpt lat="50.55194" lon="5.08622">
        <ele>194</ele>
      </trkpt>
      <trkpt lat="50.55202" lon="5.08542">
        <ele>194</ele>
      </trkpt>
      <trkpt lat="50.55214" lon="5.08467">
        <ele>194</ele>
      </trkpt>
      <trkpt lat="50.55294" lon="5.0826">
        <ele>191</ele>
      </trkpt>
      <trkpt lat="50.55391" lon="5.0802">
        <ele>189</ele>
      </trkpt>
      <trkpt lat="50.55488" lon="5.07794">
        <ele>192</ele>
      </trkpt>
      <trkpt lat="50.55549" lon="5.07645">
        <ele>190</ele>
      </trkpt>
      <trkpt lat="50.55605" lon="5.07501">
        <ele>189</ele>
      </trkpt>
      <trkpt lat="50.55663" lon="5.07349">
        <ele>190</ele>
      </trkpt>
      <trkpt lat="50.55719" lon="5.07222">
        <ele>188.2</ele>
      </trkpt>
      <trkpt lat="50.55773" lon="5.07155">
        <ele>185</ele>
      </trkpt>
      <trkpt lat="50.55802" lon="5.07119">
        <ele>185</ele>
      </trkpt>
      <trkpt lat="50.55824" lon="5.07083">
        <ele>183.5</ele>
      </trkpt>
      <trkpt lat="50.55851" lon="5.07017">
        <ele>181</ele>
      </trkpt>
      <trkpt lat="50.55878" lon="5.06944">
        <ele>180</ele>
      </trkpt>
      <trkpt lat="50.55859" lon="5.06921">
        <ele>180</ele>
      </trkpt>
      <trkpt lat="50.55835" lon="5.069">
        <ele>181</ele>
      </trkpt>
      <trkpt lat="50.55791" lon="5.0688">
        <ele>182</ele>
      </trkpt>
      <trkpt lat="50.55721" lon="5.06849">
        <ele>184.4</ele>
      </trkpt>
      <trkpt lat="50.55693" lon="5.06837">
        <ele>185</ele>
      </trkpt>
      <trkpt lat="50.55662" lon="5.06817">
        <ele>185</ele>
      </trkpt>
      <trkpt lat="50.55602" lon="5.06783">
        <ele>186</ele>
      </trkpt>
      <trkpt lat="50.55542" lon="5.06749">
        <ele>185</ele>
      </trkpt>
      <trkpt lat="50.55485" lon="5.0672">
        <ele>186.1</ele>
      </trkpt>
      <trkpt lat="50.5543" lon="5.06674">
        <ele>187</ele>
      </trkpt>
      <trkpt lat="50.55375" lon="5.06625">
        <ele>187</ele>
      </trkpt>
      <trkpt lat="50.55347" lon="5.06599">
        <ele>187</ele>
      </trkpt>
      <trkpt lat="50.55319" lon="5.06579">
        <ele>188</ele>
      </trkpt>
      <trkpt lat="50.55291" lon="5.06565">
        <ele>188</ele>
      </trkpt>
      <trkpt lat="50.55263" lon="5.06546">
        <ele>189</ele>
      </trkpt>
      <trkpt lat="50.55205" lon="5.0649">
        <ele>190</ele>
      </trkpt>
      <trkpt lat="50.55145" lon="5.06423">
        <ele>190</ele>
      </trkpt>
      <trkpt lat="50.55027" lon="5.06299">
        <ele>191</ele>
      </trkpt>
      <trkpt lat="50.54987" lon="5.06261">
        <ele>191</ele>
      </trkpt>
      <trkpt lat="50.54948" lon="5.06206">
        <ele>192</ele>
      </trkpt>
      <trkpt lat="50.54915" lon="5.06178">
        <ele>192</ele>
      </trkpt>
      <trkpt lat="50.54889" lon="5.06119">
        <ele>193.1</ele>
      </trkpt>
      <trkpt lat="50.54862" lon="5.06082">
        <ele>195</ele>
      </trkpt>
      <trkpt lat="50.54824" lon="5.06043">
        <ele>195</ele>
      </trkpt>
      <trkpt lat="50.54804" lon="5.06018">
        <ele>196</ele>
      </trkpt>
      <trkpt lat="50.54796" lon="5.06005">
        <ele>196</ele>
      </trkpt>
      <trkpt lat="50.54789" lon="5.0599">
        <ele>196.8</ele>
      </trkpt>
      <trkpt lat="50.54798" lon="5.05948">
        <ele>197</ele>
      </trkpt>
      <trkpt lat="50.54808" lon="5.05896">
        <ele>197</ele>
      </trkpt>
      <trkpt lat="50.54821" lon="5.05846">
        <ele>197</ele>
      </trkpt>
      <trkpt lat="50.54833" lon="5.05804">
        <ele>196.9</ele>
      </trkpt>
      <trkpt lat="50.54853" lon="5.05756">
        <ele>196</ele>
      </trkpt>
      <trkpt lat="50.54872" lon="5.05716">
        <ele>196</ele>
      </trkpt>
      <trkpt lat="50.54892" lon="5.05678">
        <ele>196</ele>
      </trkpt>
      <trkpt lat="50.54905" lon="5.05653">
        <ele>196</ele>
      </trkpt>
      <trkpt lat="50.54919" lon="5.05639">
        <ele>196</ele>
      </trkpt>
      <trkpt lat="50.54884" lon="5.05588">
        <ele>195.7</ele>
      </trkpt>
      <trkpt lat="50.54847" lon="5.05534">
        <ele>197</ele>
      </trkpt>
      <trkpt lat="50.54809" lon="5.05479">
        <ele>197</ele>
      </trkpt>
      <trkpt lat="50.54772" lon="5.05424">
        <ele>198</ele>
      </trkpt>
      <trkpt lat="50.54752" lon="5.0544">
        <ele>198</ele>
      </trkpt>
      <trkpt lat="50.54709" lon="5.05464">
        <ele>197.7</ele>
      </trkpt>
      <trkpt lat="50.54674" lon="5.05479">
        <ele>198</ele>
      </trkpt>
      <trkpt lat="50.54638" lon="5.05492">
        <ele>198.1</ele>
      </trkpt>
      <trkpt lat="50.54525" lon="5.05528">
        <ele>199</ele>
      </trkpt>
      <trkpt lat="50.54416" lon="5.05562">
        <ele>199.8</ele>
      </trkpt>
      <trkpt lat="50.54373" lon="5.05575">
        <ele>200</ele>
      </trkpt>
      <trkpt lat="50.54333" lon="5.05584">
        <ele>201</ele>
      </trkpt>
      <trkpt lat="50.54272" lon="5.05575">
        <ele>200</ele>
      </trkpt>
      <trkpt lat="50.5421" lon="5.05567">
        <ele>198.5</ele>
      </trkpt>
      <trkpt lat="50.54176" lon="5.05587">
        <ele>198</ele>
      </trkpt>
      <trkpt lat="50.54139" lon="5.05622">
        <ele>200</ele>
      </trkpt>
      <trkpt lat="50.54068" lon="5.05685">
        <ele>201.6</ele>
      </trkpt>
      <trkpt lat="50.54037" lon="5.05705">
        <ele>202</ele>
      </trkpt>
      <trkpt lat="50.53988" lon="5.05724">
        <ele>202</ele>
      </trkpt>
      <trkpt lat="50.53941" lon="5.05739">
        <ele>202</ele>
      </trkpt>
      <trkpt lat="50.53916" lon="5.05749">
        <ele>203</ele>
      </trkpt>
      <trkpt lat="50.53894" lon="5.05754">
        <ele>203</ele>
      </trkpt>
      <trkpt lat="50.53837" lon="5.05765">
        <ele>201.7</ele>
      </trkpt>
      <trkpt lat="50.53795" lon="5.05708">
        <ele>201</ele>
      </trkpt>
      <trkpt lat="50.5377" lon="5.05644">
        <ele>201</ele>
      </trkpt>
      <trkpt lat="50.53739" lon="5.05569">
        <ele>202</ele>
      </trkpt>
      <trkpt lat="50.53708" lon="5.05497">
        <ele>202.8</ele>
      </trkpt>
      <trkpt lat="50.53683" lon="5.05466">
        <ele>203</ele>
      </trkpt>
      <trkpt lat="50.53645" lon="5.05421">
        <ele>204</ele>
      </trkpt>
      <trkpt lat="50.53523" lon="5.05491">
        <ele>204</ele>
      </trkpt>
      <trkpt lat="50.5338" lon="5.05575">
        <ele>203</ele>
      </trkpt>
      <trkpt lat="50.53308" lon="5.05618">
        <ele>202</ele>
      </trkpt>
      <trkpt lat="50.53261" lon="5.05645">
        <ele>201</ele>
      </trkpt>
      <trkpt lat="50.53217" lon="5.0567">
        <ele>199</ele>
      </trkpt>
      <trkpt lat="50.53187" lon="5.057">
        <ele>198</ele>
      </trkpt>
      <trkpt lat="50.53171" lon="5.05701">
        <ele>198</ele>
      </trkpt>
      <trkpt lat="50.53164" lon="5.05688">
        <ele>199</ele>
      </trkpt>
      <trkpt lat="50.53151" lon="5.05678">
        <ele>199</ele>
      </trkpt>
      <trkpt lat="50.53137" lon="5.0568">
        <ele>199</ele>
      </trkpt>
      <trkpt lat="50.53129" lon="5.05692">
        <ele>199</ele>
      </trkpt>
      <trkpt lat="50.53122" lon="5.05714">
        <ele>199</ele>
      </trkpt>
      <trkpt lat="50.53101" lon="5.05733">
        <ele>199</ele>
      </trkpt>
      <trkpt lat="50.53067" lon="5.05753">
        <ele>198</ele>
      </trkpt>
      <trkpt lat="50.5304" lon="5.0577">
        <ele>197</ele>
      </trkpt>
      <trkpt lat="50.53016" lon="5.05779">
        <ele>197</ele>
      </trkpt>
      <trkpt lat="50.53001" lon="5.05765">
        <ele>197</ele>
      </trkpt>
      <trkpt lat="50.52987" lon="5.05767">
        <ele>197</ele>
      </trkpt>
      <trkpt lat="50.52978" lon="5.05781">
        <ele>197</ele>
      </trkpt>
      <trkpt lat="50.52972" lon="5.05801">
        <ele>197</ele>
      </trkpt>
      <trkpt lat="50.52931" lon="5.05833">
        <ele>198</ele>
      </trkpt>
      <trkpt lat="50.52907" lon="5.05849">
        <ele>199</ele>
      </trkpt>
      <trkpt lat="50.52881" lon="5.05863">
        <ele>199.7</ele>
      </trkpt>
      <trkpt lat="50.52879" lon="5.05851">
        <ele>200</ele>
      </trkpt>
      <trkpt lat="50.52882" lon="5.05808">
        <ele>200</ele>
      </trkpt>
      <trkpt lat="50.52893" lon="5.0568">
        <ele>199</ele>
      </trkpt>
      <trkpt lat="50.52901" lon="5.05581">
        <ele>198.6</ele>
      </trkpt>
      <trkpt lat="50.52907" lon="5.05511">
        <ele>199</ele>
      </trkpt>
      <trkpt lat="50.52903" lon="5.0548">
        <ele>198.2</ele>
      </trkpt>
      <trkpt lat="50.52831" lon="5.05395">
        <ele>200</ele>
      </trkpt>
      <trkpt lat="50.52794" lon="5.05354">
        <ele>202</ele>
      </trkpt>
      <trkpt lat="50.52759" lon="5.05319">
        <ele>204</ele>
      </trkpt>
      <trkpt lat="50.52727" lon="5.05281">
        <ele>204</ele>
      </trkpt>
      <trkpt lat="50.5271" lon="5.05258">
        <ele>204</ele>
      </trkpt>
      <trkpt lat="50.52694" lon="5.05228">
        <ele>204</ele>
      </trkpt>
      <trkpt lat="50.52644" lon="5.05128">
        <ele>206.3</ele>
      </trkpt>
      <trkpt lat="50.52622" lon="5.05067">
        <ele>208</ele>
      </trkpt>
      <trkpt lat="50.52601" lon="5.0499">
        <ele>209</ele>
      </trkpt>
      <trkpt lat="50.52569" lon="5.04882">
        <ele>211</ele>
      </trkpt>
      <trkpt lat="50.52564" lon="5.04841">
        <ele>210.4</ele>
      </trkpt>
      <trkpt lat="50.52559" lon="5.04816">
        <ele>211</ele>
      </trkpt>
      <trkpt lat="50.52556" lon="5.04786">
        <ele>211</ele>
      </trkpt>
      <trkpt lat="50.52535" lon="5.04641">
        <ele>211</ele>
      </trkpt>
      <trkpt lat="50.52514" lon="5.04499">
        <ele>205.9</ele>
      </trkpt>
      <trkpt lat="50.52466" lon="5.04511">
        <ele>206</ele>
      </trkpt>
      <trkpt lat="50.52453" lon="5.04487">
        <ele>205</ele>
      </trkpt>
      <trkpt lat="50.52435" lon="5.04451">
        <ele>204</ele>
      </trkpt>
      <trkpt lat="50.52411" lon="5.04423">
        <ele>204</ele>
      </trkpt>
      <trkpt lat="50.52386" lon="5.04392">
        <ele>204</ele>
      </trkpt>
      <trkpt lat="50.52353" lon="5.04327">
        <ele>201</ele>
      </trkpt>
      <trkpt lat="50.52321" lon="5.04251">
        <ele>199.3</ele>
      </trkpt>
      <trkpt lat="50.52294" lon="5.04186">
        <ele>199</ele>
      </trkpt>
      <trkpt lat="50.52289" lon="5.04155">
        <ele>199</ele>
      </trkpt>
      <trkpt lat="50.52274" lon="5.03974">
        <ele>198.1</ele>
      </trkpt>
      <trkpt lat="50.52269" lon="5.03937">
        <ele>199</ele>
      </trkpt>
      <trkpt lat="50.52252" lon="5.03919">
        <ele>199</ele>
      </trkpt>
      <trkpt lat="50.52168" lon="5.03848">
        <ele>198.3</ele>
      </trkpt>
      <trkpt lat="50.52146" lon="5.03787">
        <ele>199</ele>
      </trkpt>
      <trkpt lat="50.52123" lon="5.03756">
        <ele>199.2</ele>
      </trkpt>
      <trkpt lat="50.52086" lon="5.03666">
        <ele>203</ele>
      </trkpt>
      <trkpt lat="50.52051" lon="5.03553">
        <ele>201.4</ele>
      </trkpt>
      <trkpt lat="50.52027" lon="5.03471">
        <ele>203</ele>
      </trkpt>
      <trkpt lat="50.52005" lon="5.03394">
        <ele>203.7</ele>
      </trkpt>
      <trkpt lat="50.52039" lon="5.0322">
        <ele>198</ele>
      </trkpt>
      <trkpt lat="50.52077" lon="5.03037">
        <ele>202.5</ele>
      </trkpt>
      <trkpt lat="50.52001" lon="5.02993">
        <ele>202</ele>
      </trkpt>
      <trkpt lat="50.51925" lon="5.02947">
        <ele>204</ele>
      </trkpt>
      <trkpt lat="50.51846" lon="5.02907">
        <ele>207</ele>
      </trkpt>
      <trkpt lat="50.51807" lon="5.02887">
        <ele>205</ele>
      </trkpt>
      <trkpt lat="50.51777" lon="5.02865">
        <ele>204</ele>
      </trkpt>
      <trkpt lat="50.51744" lon="5.02836">
        <ele>202</ele>
      </trkpt>
      <trkpt lat="50.5167" lon="5.02722">
        <ele>206.6</ele>
      </trkpt>
      <trkpt lat="50.51527" lon="5.02472">
        <ele>198</ele>
      </trkpt>
      <trkpt lat="50.51491" lon="5.02409">
        <ele>200</ele>
      </trkpt>
      <trkpt lat="50.51456" lon="5.02352">
        <ele>201</ele>
      </trkpt>
      <trkpt lat="50.51382" lon="5.02241">
        <ele>203.3</ele>
      </trkpt>
      <trkpt lat="50.51262" lon="5.02076">
        <ele>211.2</ele>
      </trkpt>
      <trkpt lat="50.51289" lon="5.02025">
        <ele>211.7</ele>
      </trkpt>
      <trkpt lat="50.51218" lon="5.01935">
        <ele>212</ele>
      </trkpt>
      <trkpt lat="50.5118" lon="5.01874">
        <ele>212</ele>
      </trkpt>
      <trkpt lat="50.51137" lon="5.01809">
        <ele>209.4</ele>
      </trkpt>
      <trkpt lat="50.51086" lon="5.01854">
        <ele>209</ele>
      </trkpt>
      <trkpt lat="50.51033" lon="5.01903">
        <ele>207.5</ele>
      </trkpt>
      <trkpt lat="50.51028" lon="5.01845">
        <ele>206</ele>
      </trkpt>
      <trkpt lat="50.51025" lon="5.01784">
        <ele>203.7</ele>
      </trkpt>
      <trkpt lat="50.5098" lon="5.01749">
        <ele>199</ele>
      </trkpt>
      <trkpt lat="50.50935" lon="5.01713">
        <ele>197.5</ele>
      </trkpt>
      <trkpt lat="50.50793" lon="5.01649">
        <ele>180</ele>
      </trkpt>
      <trkpt lat="50.50757" lon="5.0165">
        <ele>178</ele>
      </trkpt>
      <trkpt lat="50.50725" lon="5.01651">
        <ele>180</ele>
      </trkpt>
      <trkpt lat="50.50714" lon="5.01636">
        <ele>180</ele>
      </trkpt>
      <trkpt lat="50.50713" lon="5.01576">
        <ele>183</ele>
      </trkpt>
      <trkpt lat="50.50701" lon="5.0145">
        <ele>185.1</ele>
      </trkpt>
      <trkpt lat="50.50706" lon="5.01382">
        <ele>186</ele>
      </trkpt>
      <trkpt lat="50.50705" lon="5.01347">
        <ele>186.1</ele>
      </trkpt>
      <trkpt lat="50.50653" lon="5.01175">
        <ele>192</ele>
      </trkpt>
      <trkpt lat="50.50602" lon="5.01011">
        <ele>196</ele>
      </trkpt>
      <trkpt lat="50.50549" lon="5.00839">
        <ele>201</ele>
      </trkpt>
      <trkpt lat="50.50495" lon="5.00677">
        <ele>209</ele>
      </trkpt>
      <trkpt lat="50.50481" lon="5.00655">
        <ele>211</ele>
      </trkpt>
      <trkpt lat="50.50469" lon="5.00626">
        <ele>212</ele>
      </trkpt>
      <trkpt lat="50.50458" lon="5.00557">
        <ele>213.4</ele>
      </trkpt>
      <trkpt lat="50.50438" lon="5.00517">
        <ele>214</ele>
      </trkpt>
      <trkpt lat="50.50419" lon="5.0048">
        <ele>214.5</ele>
      </trkpt>
      <trkpt lat="50.50398" lon="5.00481">
        <ele>215</ele>
      </trkpt>
      <trkpt lat="50.50326" lon="5.00459">
        <ele>215</ele>
      </trkpt>
      <trkpt lat="50.5028" lon="5.00443">
        <ele>214</ele>
      </trkpt>
      <trkpt lat="50.50253" lon="5.00435">
        <ele>214</ele>
      </trkpt>
      <trkpt lat="50.50235" lon="5.00437">
        <ele>213</ele>
      </trkpt>
      <trkpt lat="50.50169" lon="5.00492">
        <ele>212</ele>
      </trkpt>
      <trkpt lat="50.50105" lon="5.00542">
        <ele>210</ele>
      </trkpt>
      <trkpt lat="50.50028" lon="5.00585">
        <ele>205</ele>
      </trkpt>
      <trkpt lat="50.49991" lon="5.00603">
        <ele>202</ele>
      </trkpt>
      <trkpt lat="50.49955" lon="5.00611">
        <ele>200</ele>
      </trkpt>
      <trkpt lat="50.49791" lon="5.00655">
        <ele>188</ele>
      </trkpt>
      <trkpt lat="50.49628" lon="5.00694">
        <ele>178.6</ele>
      </trkpt>
      <trkpt lat="50.49589" lon="5.00701">
        <ele>178</ele>
      </trkpt>
      <trkpt lat="50.49544" lon="5.00704">
        <ele>175</ele>
      </trkpt>
      <trkpt lat="50.49463" lon="5.00711">
        <ele>172</ele>
      </trkpt>
      <trkpt lat="50.4938" lon="5.00715">
        <ele>173</ele>
      </trkpt>
      <trkpt lat="50.49287" lon="5.00722">
        <ele>176</ele>
      </trkpt>
      <trkpt lat="50.49217" lon="5.00668">
        <ele>179</ele>
      </trkpt>
      <trkpt lat="50.49186" lon="5.00642">
        <ele>180.6</ele>
      </trkpt>
      <trkpt lat="50.49156" lon="5.0062">
        <ele>182</ele>
      </trkpt>
      <trkpt lat="50.49095" lon="5.0058">
        <ele>180</ele>
      </trkpt>
      <trkpt lat="50.49033" lon="5.00539">
        <ele>179</ele>
      </trkpt>
      <trkpt lat="50.48973" lon="5.00501">
        <ele>177.7</ele>
      </trkpt>
      <trkpt lat="50.48857" lon="5.00427">
        <ele>179</ele>
      </trkpt>
      <trkpt lat="50.48715" lon="5.00337">
        <ele>178</ele>
      </trkpt>
      <trkpt lat="50.48582" lon="5.00266">
        <ele>175.3</ele>
      </trkpt>
      <trkpt lat="50.48458" lon="5.00202">
        <ele>174</ele>
      </trkpt>
      <trkpt lat="50.4834" lon="5.00142">
        <ele>173</ele>
      </trkpt>
      <trkpt lat="50.48262" lon="5.00136">
        <ele>171</ele>
      </trkpt>
      <trkpt lat="50.48203" lon="5.00133">
        <ele>170</ele>
      </trkpt>
      <trkpt lat="50.48175" lon="5.00127">
        <ele>170</ele>
      </trkpt>
      <trkpt lat="50.48146" lon="5.00112">
        <ele>168</ele>
      </trkpt>
      <trkpt lat="50.48006" lon="5.00012">
        <ele>166</ele>
      </trkpt>
      <trkpt lat="50.47871" lon="4.99916">
        <ele>162.2</ele>
      </trkpt>
      <trkpt lat="50.47761" lon="4.99839">
        <ele>159</ele>
      </trkpt>
      <trkpt lat="50.47705" lon="4.99799">
        <ele>159</ele>
      </trkpt>
      <trkpt lat="50.47653" lon="4.99767">
        <ele>156.8</ele>
      </trkpt>
      <trkpt lat="50.47603" lon="4.99758">
        <ele>154</ele>
      </trkpt>
      <trkpt lat="50.47552" lon="4.9975">
        <ele>147.4</ele>
      </trkpt>
      <trkpt lat="50.4751" lon="4.99767">
        <ele>143.6</ele>
      </trkpt>
      <trkpt lat="50.47487" lon="4.99771">
        <ele>134</ele>
      </trkpt>
      <trkpt lat="50.47463" lon="4.99769">
        <ele>130.9</ele>
      </trkpt>
      <trkpt lat="50.47393" lon="4.99715">
        <ele>129</ele>
      </trkpt>
      <trkpt lat="50.47343" lon="4.99693">
        <ele>129</ele>
      </trkpt>
      <trkpt lat="50.47319" lon="4.99685">
        <ele>125</ele>
      </trkpt>
      <trkpt lat="50.47295" lon="4.99671">
        <ele>126</ele>
      </trkpt>
      <trkpt lat="50.47284" lon="4.99642">
        <ele>126</ele>
      </trkpt>
      <trkpt lat="50.47273" lon="4.99608">
        <ele>126</ele>
      </trkpt>
      <trkpt lat="50.47236" lon="4.99533">
        <ele>120</ele>
      </trkpt>
      <trkpt lat="50.47215" lon="4.99494">
        <ele>122</ele>
      </trkpt>
      <trkpt lat="50.47198" lon="4.99466">
        <ele>120</ele>
      </trkpt>
      <trkpt lat="50.47187" lon="4.99467">
        <ele>120</ele>
      </trkpt>
      <trkpt lat="50.4718" lon="4.99488">
        <ele>117</ele>
      </trkpt>
      <trkpt lat="50.47181" lon="4.99513">
        <ele>116</ele>
      </trkpt>
      <trkpt lat="50.47184" lon="4.9954">
        <ele>116</ele>
      </trkpt>
      <trkpt lat="50.47193" lon="4.99581">
        <ele>115</ele>
      </trkpt>
      <trkpt lat="50.47198" lon="4.99609">
        <ele>113</ele>
      </trkpt>
      <trkpt lat="50.47197" lon="4.99629">
        <ele>112.9</ele>
      </trkpt>
      <trkpt lat="50.4717" lon="4.99727">
        <ele>105</ele>
      </trkpt>
      <trkpt lat="50.47154" lon="4.99759">
        <ele>97</ele>
      </trkpt>
      <trkpt lat="50.47138" lon="4.99785">
        <ele>94</ele>
      </trkpt>
      <trkpt lat="50.4712" lon="4.99788">
        <ele>93</ele>
      </trkpt>
      <trkpt lat="50.47107" lon="4.99786">
        <ele>92</ele>
      </trkpt>
      <trkpt lat="50.47095" lon="4.99776">
        <ele>92</ele>
      </trkpt>
      <trkpt lat="50.47067" lon="4.99746">
        <ele>89</ele>
      </trkpt>
      <trkpt lat="50.47038" lon="4.9971">
        <ele>87</ele>
      </trkpt>
      <trkpt lat="50.47025" lon="4.99694">
        <ele>87</ele>
      </trkpt>
      <trkpt lat="50.47015" lon="4.99674">
        <ele>86.3</ele>
      </trkpt>
      <trkpt lat="50.47013" lon="4.99648">
        <ele>88</ele>
      </trkpt>
      <trkpt lat="50.47016" lon="4.99621">
        <ele>89</ele>
      </trkpt>
      <trkpt lat="50.47016" lon="4.99591">
        <ele>89</ele>
      </trkpt>
      <trkpt lat="50.47011" lon="4.99554">
        <ele>91.3</ele>
      </trkpt>
      <trkpt lat="50.46995" lon="4.9952">
        <ele>86</ele>
      </trkpt>
      <trkpt lat="50.4698" lon="4.99501">
        <ele>86</ele>
      </trkpt>
      <trkpt lat="50.46965" lon="4.9949">
        <ele>86</ele>
      </trkpt>
      <trkpt lat="50.46943" lon="4.9948">
        <ele>84</ele>
      </trkpt>
      <trkpt lat="50.46907" lon="4.99477">
        <ele>79</ele>
      </trkpt>
      <trkpt lat="50.46849" lon="4.99479">
        <ele>78</ele>
      </trkpt>
      <trkpt lat="50.46743" lon="4.99478">
        <ele>81.9</ele>
      </trkpt>
      <trkpt lat="50.46717" lon="4.99462">
        <ele>84</ele>
      </trkpt>
      <trkpt lat="50.46705" lon="4.99447">
        <ele>85</ele>
      </trkpt>
      <trkpt lat="50.46695" lon="4.99424">
        <ele>85.1</ele>
      </trkpt>
      <trkpt lat="50.46692" lon="4.9939">
        <ele>82</ele>
      </trkpt>
      <trkpt lat="50.46694" lon="4.99357">
        <ele>81.3</ele>
      </trkpt>
      <trkpt lat="50.46661" lon="4.99347">
        <ele>82</ele>
      </trkpt>
      <trkpt lat="50.46644" lon="4.99344">
        <ele>83</ele>
      </trkpt>
      <trkpt lat="50.46627" lon="4.99347">
        <ele>80</ele>
      </trkpt>
      <trkpt lat="50.46613" lon="4.99353">
        <ele>84</ele>
      </trkpt>
      <trkpt lat="50.46598" lon="4.99362">
        <ele>85</ele>
      </trkpt>
      <trkpt lat="50.46584" lon="4.99386">
        <ele>87</ele>
      </trkpt>
      <trkpt lat="50.46571" lon="4.99419">
        <ele>92.2</ele>
      </trkpt>
      <trkpt lat="50.46555" lon="4.99461">
        <ele>92</ele>
      </trkpt>
      <trkpt lat="50.46534" lon="4.99569">
        <ele>94</ele>
      </trkpt>
      <trkpt lat="50.46517" lon="4.99696">
        <ele>91</ele>
      </trkpt>
      <trkpt lat="50.46519" lon="4.99733">
        <ele>94</ele>
      </trkpt>
      <trkpt lat="50.46523" lon="4.99765">
        <ele>93</ele>
      </trkpt>
      <trkpt lat="50.46537" lon="4.99841">
        <ele>95</ele>
      </trkpt>
      <trkpt lat="50.46537" lon="4.99925">
        <ele>96</ele>
      </trkpt>
      <trkpt lat="50.46534" lon="4.99972">
        <ele>95</ele>
      </trkpt>
      <trkpt lat="50.46526" lon="5.00004">
        <ele>94.3</ele>
      </trkpt>
      <trkpt lat="50.46517" lon="5.00027">
        <ele>95</ele>
      </trkpt>
      <trkpt lat="50.46496" lon="5.00045">
        <ele>89</ele>
      </trkpt>
      <trkpt lat="50.46421" lon="5.00064">
        <ele>91.4</ele>
      </trkpt>
      <trkpt lat="50.46402" lon="5.00061">
        <ele>94</ele>
      </trkpt>
      <trkpt lat="50.46377" lon="5.00048">
        <ele>94</ele>
      </trkpt>
      <trkpt lat="50.46333" lon="5.00027">
        <ele>99</ele>
      </trkpt>
      <trkpt lat="50.46289" lon="5.0001">
        <ele>100</ele>
      </trkpt>
      <trkpt lat="50.46245" lon="4.99996">
        <ele>97</ele>
      </trkpt>
      <trkpt lat="50.46188" lon="4.9999">
        <ele>97</ele>
      </trkpt>
      <trkpt lat="50.46156" lon="4.99996">
        <ele>96</ele>
      </trkpt>
      <trkpt lat="50.46122" lon="5.0001">
        <ele>94</ele>
      </trkpt>
      <trkpt lat="50.46096" lon="5.00032">
        <ele>98</ele>
      </trkpt>
      <trkpt lat="50.46071" lon="5.00059">
        <ele>99</ele>
      </trkpt>
      <trkpt lat="50.46045" lon="5.00091">
        <ele>101</ele>
      </trkpt>
      <trkpt lat="50.46019" lon="5.0013">
        <ele>100</ele>
      </trkpt>
      <trkpt lat="50.45995" lon="5.00155">
        <ele>99</ele>
      </trkpt>
      <trkpt lat="50.45954" lon="5.00188">
        <ele>99</ele>
      </trkpt>
      <trkpt lat="50.45928" lon="5.00207">
        <ele>98</ele>
      </trkpt>
      <trkpt lat="50.45905" lon="5.00218">
        <ele>95.2</ele>
      </trkpt>
      <trkpt lat="50.45872" lon="5.00202">
        <ele>96</ele>
      </trkpt>
      <trkpt lat="50.45824" lon="5.00168">
        <ele>102</ele>
      </trkpt>
      <trkpt lat="50.45742" lon="5.00109">
        <ele>104.2</ele>
      </trkpt>
      <trkpt lat="50.45705" lon="5.00107">
        <ele>105</ele>
      </trkpt>
      <trkpt lat="50.45675" lon="5.00121">
        <ele>106</ele>
      </trkpt>
      <trkpt lat="50.45644" lon="5.00145">
        <ele>110</ele>
      </trkpt>
      <trkpt lat="50.4562" lon="5.00175">
        <ele>116</ele>
      </trkpt>
      <trkpt lat="50.45561" lon="5.00244">
        <ele>115</ele>
      </trkpt>
      <trkpt lat="50.45509" lon="5.00309">
        <ele>118</ele>
      </trkpt>
      <trkpt lat="50.45475" lon="5.00366">
        <ele>113</ele>
      </trkpt>
      <trkpt lat="50.45444" lon="5.00399">
        <ele>110.1</ele>
      </trkpt>
      <trkpt lat="50.45386" lon="5.00456">
        <ele>113</ele>
      </trkpt>
      <trkpt lat="50.45357" lon="5.00495">
        <ele>113</ele>
      </trkpt>
      <trkpt lat="50.45334" lon="5.00535">
        <ele>111</ele>
      </trkpt>
      <trkpt lat="50.45309" lon="5.00594">
        <ele>118</ele>
      </trkpt>
      <trkpt lat="50.45289" lon="5.00678">
        <ele>119.9</ele>
      </trkpt>
      <trkpt lat="50.45292" lon="5.00728">
        <ele>120</ele>
      </trkpt>
      <trkpt lat="50.45297" lon="5.00768">
        <ele>120</ele>
      </trkpt>
      <trkpt lat="50.45308" lon="5.00853">
        <ele>120.7</ele>
      </trkpt>
      <trkpt lat="50.45306" lon="5.00882">
        <ele>120</ele>
      </trkpt>
      <trkpt lat="50.45287" lon="5.00962">
        <ele>120</ele>
      </trkpt>
      <trkpt lat="50.4526" lon="5.01048">
        <ele>121</ele>
      </trkpt>
      <trkpt lat="50.45233" lon="5.01108">
        <ele>121.8</ele>
      </trkpt>
      <trkpt lat="50.45203" lon="5.01143">
        <ele>124</ele>
      </trkpt>
      <trkpt lat="50.45162" lon="5.01162">
        <ele>122</ele>
      </trkpt>
      <trkpt lat="50.45125" lon="5.01171">
        <ele>128.2</ele>
      </trkpt>
      <trkpt lat="50.44991" lon="5.0107">
        <ele>119.9</ele>
      </trkpt>
      <trkpt lat="50.44969" lon="5.01065">
        <ele>121</ele>
      </trkpt>
      <trkpt lat="50.44938" lon="5.01073">
        <ele>121</ele>
      </trkpt>
      <trkpt lat="50.44907" lon="5.01074">
        <ele>123</ele>
      </trkpt>
      <trkpt lat="50.44864" lon="5.01061">
        <ele>122</ele>
      </trkpt>
      <trkpt lat="50.44821" lon="5.01025">
        <ele>122</ele>
      </trkpt>
      <trkpt lat="50.44731" lon="5.00942">
        <ele>117.3</ele>
      </trkpt>
      <trkpt lat="50.44685" lon="5.00918">
        <ele>117</ele>
      </trkpt>
      <trkpt lat="50.44663" lon="5.00907">
        <ele>114</ele>
      </trkpt>
      <trkpt lat="50.44641" lon="5.00893">
        <ele>114</ele>
      </trkpt>
      <trkpt lat="50.44599" lon="5.00877">
        <ele>115</ele>
      </trkpt>
      <trkpt lat="50.44557" lon="5.00868">
        <ele>116.2</ele>
      </trkpt>
      <trkpt lat="50.4453" lon="5.00877">
        <ele>117</ele>
      </trkpt>
      <trkpt lat="50.44508" lon="5.009">
        <ele>117</ele>
      </trkpt>
      <trkpt lat="50.44498" lon="5.00915">
        <ele>117</ele>
      </trkpt>
      <trkpt lat="50.44488" lon="5.00934">
        <ele>121.2</ele>
      </trkpt>
      <trkpt lat="50.44475" lon="5.00989">
        <ele>126</ele>
      </trkpt>
      <trkpt lat="50.44466" lon="5.0108">
        <ele>128.8</ele>
      </trkpt>
      <trkpt lat="50.44461" lon="5.0117">
        <ele>136</ele>
      </trkpt>
      <trkpt lat="50.44457" lon="5.01208">
        <ele>136</ele>
      </trkpt>
      <trkpt lat="50.44445" lon="5.01234">
        <ele>133</ele>
      </trkpt>
      <trkpt lat="50.4442" lon="5.0125">
        <ele>127</ele>
      </trkpt>
      <trkpt lat="50.44368" lon="5.01269">
        <ele>124</ele>
      </trkpt>
      <trkpt lat="50.44333" lon="5.0127">
        <ele>124</ele>
      </trkpt>
      <trkpt lat="50.44299" lon="5.01269">
        <ele>124.2</ele>
      </trkpt>
      <trkpt lat="50.44289" lon="5.01256">
        <ele>124</ele>
      </trkpt>
      <trkpt lat="50.44285" lon="5.01229">
        <ele>125</ele>
      </trkpt>
      <trkpt lat="50.44279" lon="5.0121">
        <ele>126</ele>
      </trkpt>
      <trkpt lat="50.44189" lon="5.01167">
        <ele>124</ele>
      </trkpt>
      <trkpt lat="50.44092" lon="5.01118">
        <ele>128.9</ele>
      </trkpt>
      <trkpt lat="50.4397" lon="5.00974">
        <ele>133.3</ele>
      </trkpt>
      <trkpt lat="50.43907" lon="5.00895">
        <ele>132</ele>
      </trkpt>
      <trkpt lat="50.43845" lon="5.00816">
        <ele>132.4</ele>
      </trkpt>
      <trkpt lat="50.43824" lon="5.0078">
        <ele>127</ele>
      </trkpt>
      <trkpt lat="50.43803" lon="5.00731">
        <ele>131</ele>
      </trkpt>
      <trkpt lat="50.43783" lon="5.00674">
        <ele>132</ele>
      </trkpt>
      <trkpt lat="50.43774" lon="5.00642">
        <ele>137</ele>
      </trkpt>
      <trkpt lat="50.43762" lon="5.0062">
        <ele>138.3</ele>
      </trkpt>
      <trkpt lat="50.43742" lon="5.00589">
        <ele>134</ele>
      </trkpt>
      <trkpt lat="50.43718" lon="5.00574">
        <ele>135</ele>
      </trkpt>
      <trkpt lat="50.43695" lon="5.00563">
        <ele>132</ele>
      </trkpt>
      <trkpt lat="50.43668" lon="5.00567">
        <ele>131</ele>
      </trkpt>
      <trkpt lat="50.43639" lon="5.00579">
        <ele>129</ele>
      </trkpt>
      <trkpt lat="50.43624" lon="5.0058">
        <ele>129</ele>
      </trkpt>
      <trkpt lat="50.43609" lon="5.00578">
        <ele>126</ele>
      </trkpt>
      <trkpt lat="50.43606" lon="5.00592">
        <ele>124</ele>
      </trkpt>
      <trkpt lat="50.43562" lon="5.00631">
        <ele>123</ele>
      </trkpt>
      <trkpt lat="50.4352" lon="5.00664">
        <ele>123</ele>
      </trkpt>
      <trkpt lat="50.43359" lon="5.00703">
        <ele>138</ele>
      </trkpt>
      <trkpt lat="50.4333" lon="5.00726">
        <ele>140</ele>
      </trkpt>
      <trkpt lat="50.43316" lon="5.00756">
        <ele>142</ele>
      </trkpt>
      <trkpt lat="50.43306" lon="5.00794">
        <ele>145.1</ele>
      </trkpt>
      <trkpt lat="50.43304" lon="5.00844">
        <ele>149</ele>
      </trkpt>
      <trkpt lat="50.43303" lon="5.00889">
        <ele>149</ele>
      </trkpt>
      <trkpt lat="50.43303" lon="5.00936">
        <ele>151</ele>
      </trkpt>
      <trkpt lat="50.43307" lon="5.00971">
        <ele>152</ele>
      </trkpt>
      <trkpt lat="50.43331" lon="5.01129">
        <ele>151</ele>
      </trkpt>
      <trkpt lat="50.43341" lon="5.01205">
        <ele>160</ele>
      </trkpt>
      <trkpt lat="50.43351" lon="5.01276">
        <ele>160.8</ele>
      </trkpt>
      <trkpt lat="50.43351" lon="5.01322">
        <ele>159</ele>
      </trkpt>
      <trkpt lat="50.4334" lon="5.01359">
        <ele>161</ele>
      </trkpt>
      <trkpt lat="50.43318" lon="5.01392">
        <ele>153.2</ele>
      </trkpt>
      <trkpt lat="50.43269" lon="5.01403">
        <ele>150</ele>
      </trkpt>
      <trkpt lat="50.43246" lon="5.0141">
        <ele>149</ele>
      </trkpt>
      <trkpt lat="50.43211" lon="5.01432">
        <ele>152.3</ele>
      </trkpt>
      <trkpt lat="50.43181" lon="5.01492">
        <ele>154</ele>
      </trkpt>
      <trkpt lat="50.43161" lon="5.01557">
        <ele>154</ele>
      </trkpt>
      <trkpt lat="50.4314" lon="5.01603">
        <ele>153</ele>
      </trkpt>
      <trkpt lat="50.43087" lon="5.0164">
        <ele>154</ele>
      </trkpt>
      <trkpt lat="50.43036" lon="5.01672">
        <ele>156</ele>
      </trkpt>
      <trkpt lat="50.43017" lon="5.0169">
        <ele>156</ele>
      </trkpt>
      <trkpt lat="50.42973" lon="5.01749">
        <ele>156</ele>
      </trkpt>
      <trkpt lat="50.42929" lon="5.01804">
        <ele>158.2</ele>
      </trkpt>
      <trkpt lat="50.42851" lon="5.01892">
        <ele>162</ele>
      </trkpt>
      <trkpt lat="50.42789" lon="5.01968">
        <ele>163</ele>
      </trkpt>
      <trkpt lat="50.42773" lon="5.01958">
        <ele>162.5</ele>
      </trkpt>
      <trkpt lat="50.42765" lon="5.01964">
        <ele>162.5</ele>
      </trkpt>
      <trkpt lat="50.42763" lon="5.01978">
        <ele>163</ele>
      </trkpt>
      <trkpt lat="50.42768" lon="5.01991">
        <ele>163</ele>
      </trkpt>
      <trkpt lat="50.42762" lon="5.02007">
        <ele>163</ele>
      </trkpt>
      <trkpt lat="50.42698" lon="5.02085">
        <ele>164</ele>
      </trkpt>
      <trkpt lat="50.42626" lon="5.02184">
        <ele>164</ele>
      </trkpt>
      <trkpt lat="50.42611" lon="5.02208">
        <ele>165</ele>
      </trkpt>
      <trkpt lat="50.42604" lon="5.02233">
        <ele>165</ele>
      </trkpt>
      <trkpt lat="50.42598" lon="5.02265">
        <ele>166.4</ele>
      </trkpt>
      <trkpt lat="50.4259" lon="5.02274">
        <ele>167</ele>
      </trkpt>
      <trkpt lat="50.42591" lon="5.02285">
        <ele>167</ele>
      </trkpt>
      <trkpt lat="50.42599" lon="5.02294">
        <ele>167</ele>
      </trkpt>
      <trkpt lat="50.42607" lon="5.023">
        <ele>167</ele>
      </trkpt>
      <trkpt lat="50.42613" lon="5.02317">
        <ele>167</ele>
      </trkpt>
      <trkpt lat="50.42617" lon="5.02346">
        <ele>168</ele>
      </trkpt>
      <trkpt lat="50.42622" lon="5.02409">
        <ele>169.2</ele>
      </trkpt>
      <trkpt lat="50.42632" lon="5.02462">
        <ele>172</ele>
      </trkpt>
      <trkpt lat="50.42641" lon="5.0251">
        <ele>174</ele>
      </trkpt>
      <trkpt lat="50.42656" lon="5.02581">
        <ele>176</ele>
      </trkpt>
      <trkpt lat="50.42669" lon="5.02669">
        <ele>179</ele>
      </trkpt>
      <trkpt lat="50.42701" lon="5.02849">
        <ele>178.7</ele>
      </trkpt>
      <trkpt lat="50.42768" lon="5.03026">
        <ele>180</ele>
      </trkpt>
      <trkpt lat="50.42804" lon="5.03106">
        <ele>181</ele>
      </trkpt>
      <trkpt lat="50.4284" lon="5.03194">
        <ele>182</ele>
      </trkpt>
      <trkpt lat="50.42924" lon="5.03446">
        <ele>186</ele>
      </trkpt>
      <trkpt lat="50.43083" lon="5.03617">
        <ele>179</ele>
      </trkpt>
      <trkpt lat="50.43162" lon="5.03703">
        <ele>180</ele>
      </trkpt>
      <trkpt lat="50.43229" lon="5.03771">
        <ele>181.5</ele>
      </trkpt>
      <trkpt lat="50.43255" lon="5.03813">
        <ele>183</ele>
      </trkpt>
      <trkpt lat="50.43279" lon="5.03866">
        <ele>185</ele>
      </trkpt>
      <trkpt lat="50.43303" lon="5.03926">
        <ele>187</ele>
      </trkpt>
      <trkpt lat="50.43326" lon="5.03996">
        <ele>186.9</ele>
      </trkpt>
      <trkpt lat="50.43358" lon="5.04089">
        <ele>187</ele>
      </trkpt>
      <trkpt lat="50.4339" lon="5.04178">
        <ele>188</ele>
      </trkpt>
      <trkpt lat="50.43477" lon="5.04415">
        <ele>193</ele>
      </trkpt>
      <trkpt lat="50.43503" lon="5.0449">
        <ele>194</ele>
      </trkpt>
      <trkpt lat="50.43529" lon="5.04557">
        <ele>194</ele>
      </trkpt>
      <trkpt lat="50.43584" lon="5.0466">
        <ele>196</ele>
      </trkpt>
      <trkpt lat="50.43636" lon="5.04771">
        <ele>195.8</ele>
      </trkpt>
      <trkpt lat="50.4369" lon="5.0495">
        <ele>193</ele>
      </trkpt>
      <trkpt lat="50.43747" lon="5.05118">
        <ele>193</ele>
      </trkpt>
      <trkpt lat="50.43774" lon="5.05154">
        <ele>192</ele>
      </trkpt>
      <trkpt lat="50.43805" lon="5.05175">
        <ele>191</ele>
      </trkpt>
      <trkpt lat="50.43871" lon="5.05224">
        <ele>188</ele>
      </trkpt>
      <trkpt lat="50.4391" lon="5.05236">
        <ele>186</ele>
      </trkpt>
      <trkpt lat="50.43949" lon="5.0524">
        <ele>185</ele>
      </trkpt>
      <trkpt lat="50.4403" lon="5.05252">
        <ele>183</ele>
      </trkpt>
      <trkpt lat="50.4411" lon="5.05264">
        <ele>184</ele>
      </trkpt>
      <trkpt lat="50.44186" lon="5.05276">
        <ele>180</ele>
      </trkpt>
      <trkpt lat="50.4425" lon="5.05312">
        <ele>171</ele>
      </trkpt>
      <trkpt lat="50.44333" lon="5.05374">
        <ele>166.1</ele>
      </trkpt>
      <trkpt lat="50.44452" lon="5.05514">
        <ele>154</ele>
      </trkpt>
      <trkpt lat="50.44512" lon="5.05583">
        <ele>149</ele>
      </trkpt>
      <trkpt lat="50.44571" lon="5.05663">
        <ele>149.8</ele>
      </trkpt>
      <trkpt lat="50.44599" lon="5.05677">
        <ele>151</ele>
      </trkpt>
      <trkpt lat="50.44632" lon="5.05664">
        <ele>148</ele>
      </trkpt>
      <trkpt lat="50.44667" lon="5.05644">
        <ele>148</ele>
      </trkpt>
      <trkpt lat="50.44702" lon="5.05622">
        <ele>146</ele>
      </trkpt>
      <trkpt lat="50.44737" lon="5.0561">
        <ele>145</ele>
      </trkpt>
      <trkpt lat="50.44754" lon="5.05619">
        <ele>144</ele>
      </trkpt>
      <trkpt lat="50.44794" lon="5.05615">
        <ele>144</ele>
      </trkpt>
      <trkpt lat="50.4483" lon="5.05616">
        <ele>143.7</ele>
      </trkpt>
      <trkpt lat="50.44851" lon="5.05592">
        <ele>144</ele>
      </trkpt>
      <trkpt lat="50.44873" lon="5.05578">
        <ele>144.1</ele>
      </trkpt>
      <trkpt lat="50.44906" lon="5.05619">
        <ele>145</ele>
      </trkpt>
      <trkpt lat="50.44935" lon="5.05657">
        <ele>147.5</ele>
      </trkpt>
      <trkpt lat="50.4498" lon="5.05647">
        <ele>150</ele>
      </trkpt>
      <trkpt lat="50.45018" lon="5.05638">
        <ele>153</ele>
      </trkpt>
      <trkpt lat="50.45041" lon="5.05647">
        <ele>153.5</ele>
      </trkpt>
      <trkpt lat="50.45148" lon="5.0575">
        <ele>160</ele>
      </trkpt>
      <trkpt lat="50.45204" lon="5.05804">
        <ele>163</ele>
      </trkpt>
      <trkpt lat="50.45231" lon="5.05826">
        <ele>163</ele>
      </trkpt>
      <trkpt lat="50.45254" lon="5.05844">
        <ele>165</ele>
      </trkpt>
      <trkpt lat="50.45286" lon="5.05852">
        <ele>167</ele>
      </trkpt>
      <trkpt lat="50.45339" lon="5.05855">
        <ele>167</ele>
      </trkpt>
      <trkpt lat="50.45404" lon="5.05862">
        <ele>170</ele>
      </trkpt>
      <trkpt lat="50.45431" lon="5.05873">
        <ele>173.4</ele>
      </trkpt>
      <trkpt lat="50.4558" lon="5.05933">
        <ele>183</ele>
      </trkpt>
      <trkpt lat="50.45637" lon="5.05963">
        <ele>188</ele>
      </trkpt>
      <trkpt lat="50.45685" lon="5.05978">
        <ele>194</ele>
      </trkpt>
      <trkpt lat="50.45728" lon="5.0598">
        <ele>195.8</ele>
      </trkpt>
      <trkpt lat="50.45745" lon="5.05971">
        <ele>196</ele>
      </trkpt>
      <trkpt lat="50.45761" lon="5.05951">
        <ele>198</ele>
      </trkpt>
      <trkpt lat="50.45785" lon="5.05932">
        <ele>198</ele>
      </trkpt>
      <trkpt lat="50.45821" lon="5.05911">
        <ele>197</ele>
      </trkpt>
      <trkpt lat="50.45861" lon="5.05913">
        <ele>198.9</ele>
      </trkpt>
      <trkpt lat="50.45878" lon="5.05922">
        <ele>203</ele>
      </trkpt>
      <trkpt lat="50.45896" lon="5.05942">
        <ele>204</ele>
      </trkpt>
      <trkpt lat="50.45908" lon="5.05962">
        <ele>206</ele>
      </trkpt>
      <trkpt lat="50.45969" lon="5.06137">
        <ele>208</ele>
      </trkpt>
      <trkpt lat="50.4603" lon="5.06318">
        <ele>199.9</ele>
      </trkpt>
      <trkpt lat="50.46063" lon="5.06378">
        <ele>200</ele>
      </trkpt>
      <trkpt lat="50.46095" lon="5.06431">
        <ele>199.9</ele>
      </trkpt>
      <trkpt lat="50.46241" lon="5.06635">
        <ele>207.4</ele>
      </trkpt>
      <trkpt lat="50.46307" lon="5.06727">
        <ele>209</ele>
      </trkpt>
      <trkpt lat="50.46372" lon="5.06828">
        <ele>209</ele>
      </trkpt>
      <trkpt lat="50.46529" lon="5.07083">
        <ele>205</ele>
      </trkpt>
      <trkpt lat="50.46449" lon="5.07135">
        <ele>211</ele>
      </trkpt>
      <trkpt lat="50.4634" lon="5.07258">
        <ele>222.6</ele>
      </trkpt>
      <trkpt lat="50.46324" lon="5.07249">
        <ele>223</ele>
      </trkpt>
      <trkpt lat="50.46312" lon="5.0723">
        <ele>224</ele>
      </trkpt>
      <trkpt lat="50.46299" lon="5.07203">
        <ele>223.9</ele>
      </trkpt>
      <trkpt lat="50.46285" lon="5.07194">
        <ele>224</ele>
      </trkpt>
      <trkpt lat="50.46267" lon="5.07195">
        <ele>225</ele>
      </trkpt>
      <trkpt lat="50.46245" lon="5.07192">
        <ele>226</ele>
      </trkpt>
      <trkpt lat="50.46218" lon="5.07168">
        <ele>227</ele>
      </trkpt>
      <trkpt lat="50.46192" lon="5.07149">
        <ele>225.9</ele>
      </trkpt>
      <trkpt lat="50.46172" lon="5.07187">
        <ele>228</ele>
      </trkpt>
      <trkpt lat="50.46152" lon="5.07218">
        <ele>230</ele>
      </trkpt>
      <trkpt lat="50.46123" lon="5.07255">
        <ele>233</ele>
      </trkpt>
      <trkpt lat="50.46109" lon="5.07274">
        <ele>233</ele>
      </trkpt>
      <trkpt lat="50.46095" lon="5.07301">
        <ele>233</ele>
      </trkpt>
      <trkpt lat="50.46083" lon="5.0734">
        <ele>234</ele>
      </trkpt>
      <trkpt lat="50.46072" lon="5.07364">
        <ele>233.1</ele>
      </trkpt>
      <trkpt lat="50.46089" lon="5.07423">
        <ele>235</ele>
      </trkpt>
      <trkpt lat="50.46102" lon="5.07465">
        <ele>236</ele>
      </trkpt>
      <trkpt lat="50.46124" lon="5.0749">
        <ele>237</ele>
      </trkpt>
      <trkpt lat="50.46148" lon="5.07507">
        <ele>237</ele>
      </trkpt>
      <trkpt lat="50.46196" lon="5.07547">
        <ele>240</ele>
      </trkpt>
      <trkpt lat="50.46235" lon="5.07593">
        <ele>240.4</ele>
      </trkpt>
      <trkpt lat="50.46255" lon="5.07611">
        <ele>240</ele>
      </trkpt>
      <trkpt lat="50.46273" lon="5.07624">
        <ele>240</ele>
      </trkpt>
      <trkpt lat="50.46297" lon="5.07631">
        <ele>238.9</ele>
      </trkpt>
      <trkpt lat="50.46323" lon="5.07654">
        <ele>239.3</ele>
      </trkpt>
      <trkpt lat="50.46338" lon="5.07669">
        <ele>240</ele>
      </trkpt>
      <trkpt lat="50.46354" lon="5.07693">
        <ele>239</ele>
      </trkpt>
      <trkpt lat="50.46388" lon="5.07751">
        <ele>240</ele>
      </trkpt>
      <trkpt lat="50.46455" lon="5.07862">
        <ele>238</ele>
      </trkpt>
      <trkpt lat="50.46638" lon="5.0807">
        <ele>234</ele>
      </trkpt>
      <trkpt lat="50.4673" lon="5.08173">
        <ele>236.4</ele>
      </trkpt>
      <trkpt lat="50.46776" lon="5.0824">
        <ele>236.5</ele>
      </trkpt>
      <trkpt lat="50.46884" lon="5.0834">
        <ele>233</ele>
      </trkpt>
      <trkpt lat="50.46939" lon="5.08392">
        <ele>228</ele>
      </trkpt>
      <trkpt lat="50.46973" lon="5.08422">
        <ele>230</ele>
      </trkpt>
      <trkpt lat="50.46995" lon="5.08448">
        <ele>230</ele>
      </trkpt>
      <trkpt lat="50.47049" lon="5.08561">
        <ele>232</ele>
      </trkpt>
      <trkpt lat="50.47074" lon="5.08613">
        <ele>235</ele>
      </trkpt>
      <trkpt lat="50.471" lon="5.08658">
        <ele>229.6</ele>
      </trkpt>
      <trkpt lat="50.47137" lon="5.08704">
        <ele>230</ele>
      </trkpt>
      <trkpt lat="50.47157" lon="5.0873">
        <ele>230</ele>
      </trkpt>
      <trkpt lat="50.47171" lon="5.08756">
        <ele>228.1</ele>
      </trkpt>
      <trkpt lat="50.47191" lon="5.08792">
        <ele>227</ele>
      </trkpt>
      <trkpt lat="50.47212" lon="5.08819">
        <ele>226</ele>
      </trkpt>
      <trkpt lat="50.4724" lon="5.08847">
        <ele>226</ele>
      </trkpt>
      <trkpt lat="50.47255" lon="5.0887">
        <ele>220.9</ele>
      </trkpt>
      <trkpt lat="50.473" lon="5.09046">
        <ele>224.8</ele>
      </trkpt>
      <trkpt lat="50.47305" lon="5.0908">
        <ele>224</ele>
      </trkpt>
      <trkpt lat="50.4731" lon="5.09119">
        <ele>226.7</ele>
      </trkpt>
      <trkpt lat="50.4734" lon="5.0919">
        <ele>221</ele>
      </trkpt>
      <trkpt lat="50.47371" lon="5.09255">
        <ele>222</ele>
      </trkpt>
      <trkpt lat="50.47403" lon="5.09349">
        <ele>218</ele>
      </trkpt>
      <trkpt lat="50.47436" lon="5.09447">
        <ele>213</ele>
      </trkpt>
      <trkpt lat="50.47465" lon="5.09522">
        <ele>211</ele>
      </trkpt>
      <trkpt lat="50.47474" lon="5.09618">
        <ele>210</ele>
      </trkpt>
      <trkpt lat="50.47503" lon="5.09758">
        <ele>211</ele>
      </trkpt>
      <trkpt lat="50.4754" lon="5.0978">
        <ele>210</ele>
      </trkpt>
      <trkpt lat="50.47582" lon="5.09809">
        <ele>209.5</ele>
      </trkpt>
      <trkpt lat="50.47745" lon="5.09977">
        <ele>197.7</ele>
      </trkpt>
      <trkpt lat="50.47987" lon="5.10233">
        <ele>172</ele>
      </trkpt>
      <trkpt lat="50.48044" lon="5.10307">
        <ele>167</ele>
      </trkpt>
      <trkpt lat="50.48211" lon="5.10581">
        <ele>160</ele>
      </trkpt>
      <trkpt lat="50.48244" lon="5.10619">
        <ele>159</ele>
      </trkpt>
      <trkpt lat="50.48276" lon="5.10653">
        <ele>159</ele>
      </trkpt>
      <trkpt lat="50.48309" lon="5.10687">
        <ele>158</ele>
      </trkpt>
      <trkpt lat="50.48342" lon="5.1072">
        <ele>158.4</ele>
      </trkpt>
      <trkpt lat="50.48438" lon="5.1082">
        <ele>154</ele>
      </trkpt>
      <trkpt lat="50.48475" lon="5.10833">
        <ele>153</ele>
      </trkpt>
      <trkpt lat="50.4852" lon="5.10839">
        <ele>148</ele>
      </trkpt>
      <trkpt lat="50.48576" lon="5.10848">
        <ele>146</ele>
      </trkpt>
      <trkpt lat="50.48597" lon="5.10852">
        <ele>143</ele>
      </trkpt>
      <trkpt lat="50.48617" lon="5.10847">
        <ele>142</ele>
      </trkpt>
      <trkpt lat="50.48633" lon="5.10821">
        <ele>141</ele>
      </trkpt>
      <trkpt lat="50.48659" lon="5.10764">
        <ele>140</ele>
      </trkpt>
      <trkpt lat="50.48702" lon="5.10673">
        <ele>138</ele>
      </trkpt>
      <trkpt lat="50.48744" lon="5.10579">
        <ele>136</ele>
      </trkpt>
      <trkpt lat="50.48774" lon="5.10513">
        <ele>132</ele>
      </trkpt>
      <trkpt lat="50.48779" lon="5.10477">
        <ele>128.7</ele>
      </trkpt>
      <trkpt lat="50.48773" lon="5.10448">
        <ele>128</ele>
      </trkpt>
      <trkpt lat="50.48765" lon="5.10425">
        <ele>126</ele>
      </trkpt>
      <trkpt lat="50.48744" lon="5.10392">
        <ele>122</ele>
      </trkpt>
      <trkpt lat="50.48671" lon="5.10332">
        <ele>116.4</ele>
      </trkpt>
      <trkpt lat="50.48608" lon="5.10256">
        <ele>115</ele>
      </trkpt>
      <trkpt lat="50.48552" lon="5.10209">
        <ele>116</ele>
      </trkpt>
      <trkpt lat="50.48529" lon="5.10182">
        <ele>117</ele>
      </trkpt>
      <trkpt lat="50.48507" lon="5.10126">
        <ele>108.5</ele>
      </trkpt>
      <trkpt lat="50.48509" lon="5.0997">
        <ele>96</ele>
      </trkpt>
      <trkpt lat="50.48506" lon="5.09891">
        <ele>92.5</ele>
      </trkpt>
      <trkpt lat="50.48487" lon="5.09809">
        <ele>93</ele>
      </trkpt>
      <trkpt lat="50.48471" lon="5.09734">
        <ele>89</ele>
      </trkpt>
      <trkpt lat="50.48585" lon="5.09679">
        <ele>82.3</ele>
      </trkpt>
      <trkpt lat="50.48619" lon="5.09817">
        <ele>81.5</ele>
      </trkpt>
      <trkpt lat="50.48643" lon="5.09823">
        <ele>81</ele>
      </trkpt>
      <trkpt lat="50.48756" lon="5.09757">
        <ele>78.9</ele>
      </trkpt>
      <trkpt lat="50.48794" lon="5.09752">
        <ele>79</ele>
      </trkpt>
      <trkpt lat="50.48839" lon="5.09738">
        <ele>79</ele>
      </trkpt>
      <trkpt lat="50.48928" lon="5.09708">
        <ele>78</ele>
      </trkpt>
      <trkpt lat="50.4902" lon="5.09681">
        <ele>78</ele>
      </trkpt>
      <trkpt lat="50.49115" lon="5.09647">
        <ele>78</ele>
      </trkpt>
      <trkpt lat="50.49147" lon="5.09638">
        <ele>77</ele>
      </trkpt>
      <trkpt lat="50.49216" lon="5.09631">
        <ele>78</ele>
      </trkpt>
      <trkpt lat="50.4925" lon="5.09626">
        <ele>78</ele>
      </trkpt>
      <trkpt lat="50.49283" lon="5.09623">
        <ele>76</ele>
      </trkpt>
      <trkpt lat="50.49295" lon="5.09626">
        <ele>75</ele>
      </trkpt>
      <trkpt lat="50.49305" lon="5.09639">
        <ele>75</ele>
      </trkpt>
      <trkpt lat="50.49316" lon="5.0964">
        <ele>75</ele>
      </trkpt>
      <trkpt lat="50.49323" lon="5.09628">
        <ele>75</ele>
      </trkpt>
      <trkpt lat="50.49323" lon="5.09616">
        <ele>74.3</ele>
      </trkpt>
      <trkpt lat="50.49407" lon="5.09574">
        <ele>71</ele>
      </trkpt>
      <trkpt lat="50.49487" lon="5.09537">
        <ele>75.2</ele>
      </trkpt>
      <trkpt lat="50.49519" lon="5.09544">
        <ele>77</ele>
      </trkpt>
      <trkpt lat="50.49527" lon="5.09561">
        <ele>78</ele>
      </trkpt>
      <trkpt lat="50.49537" lon="5.09567">
        <ele>78</ele>
      </trkpt>
      <trkpt lat="50.49548" lon="5.09555">
        <ele>77.6</ele>
      </trkpt>
      <trkpt lat="50.49597" lon="5.09616">
        <ele>76</ele>
      </trkpt>
      <trkpt lat="50.49621" lon="5.09634">
        <ele>76</ele>
      </trkpt>
      <trkpt lat="50.49645" lon="5.09644">
        <ele>75.5</ele>
      </trkpt>
      <trkpt lat="50.49699" lon="5.0964">
        <ele>77</ele>
      </trkpt>
      <trkpt lat="50.49724" lon="5.09628">
        <ele>78</ele>
      </trkpt>
      <trkpt lat="50.49748" lon="5.09604">
        <ele>78.7</ele>
      </trkpt>
      <trkpt lat="50.4976" lon="5.09578">
        <ele>82</ele>
      </trkpt>
      <trkpt lat="50.49771" lon="5.09541">
        <ele>85</ele>
      </trkpt>
      <trkpt lat="50.49778" lon="5.09494">
        <ele>87</ele>
      </trkpt>
      <trkpt lat="50.49785" lon="5.09436">
        <ele>89</ele>
      </trkpt>
      <trkpt lat="50.49801" lon="5.09333">
        <ele>94</ele>
      </trkpt>
      <trkpt lat="50.49808" lon="5.09283">
        <ele>93</ele>
      </trkpt>
      <trkpt lat="50.49814" lon="5.09258">
        <ele>93</ele>
      </trkpt>
      <trkpt lat="50.49821" lon="5.09241">
        <ele>90.9</ele>
      </trkpt>
      <trkpt lat="50.49847" lon="5.09215">
        <ele>91</ele>
      </trkpt>
      <trkpt lat="50.49883" lon="5.09211">
        <ele>92</ele>
      </trkpt>
      <trkpt lat="50.49907" lon="5.09221">
        <ele>94</ele>
      </trkpt>
      <trkpt lat="50.49934" lon="5.09241">
        <ele>95</ele>
      </trkpt>
      <trkpt lat="50.49965" lon="5.0927">
        <ele>98</ele>
      </trkpt>
      <trkpt lat="50.50003" lon="5.09308">
        <ele>95</ele>
      </trkpt>
      <trkpt lat="50.50018" lon="5.09317">
        <ele>95.2</ele>
      </trkpt>
      <trkpt lat="50.50055" lon="5.09311">
        <ele>94</ele>
      </trkpt>
      <trkpt lat="50.50102" lon="5.09298">
        <ele>92</ele>
      </trkpt>
      <trkpt lat="50.50194" lon="5.09263">
        <ele>93.9</ele>
      </trkpt>
      <trkpt lat="50.50225" lon="5.0924">
        <ele>95</ele>
      </trkpt>
      <trkpt lat="50.50264" lon="5.09203">
        <ele>97</ele>
      </trkpt>
      <trkpt lat="50.50286" lon="5.09174">
        <ele>97</ele>
      </trkpt>
      <trkpt lat="50.5031" lon="5.09137">
        <ele>98</ele>
      </trkpt>
      <trkpt lat="50.50322" lon="5.09115">
        <ele>98</ele>
      </trkpt>
      <trkpt lat="50.50335" lon="5.09082">
        <ele>97</ele>
      </trkpt>
      <trkpt lat="50.50354" lon="5.09008">
        <ele>101</ele>
      </trkpt>
      <trkpt lat="50.50373" lon="5.08918">
        <ele>102.5</ele>
      </trkpt>
      <trkpt lat="50.50386" lon="5.08869">
        <ele>103</ele>
      </trkpt>
      <trkpt lat="50.50401" lon="5.08839">
        <ele>103</ele>
      </trkpt>
      <trkpt lat="50.5043" lon="5.08794">
        <ele>105</ele>
      </trkpt>
      <trkpt lat="50.50488" lon="5.08723">
        <ele>109</ele>
      </trkpt>
      <trkpt lat="50.5062" lon="5.08558">
        <ele>112.3</ele>
      </trkpt>
      <trkpt lat="50.50614" lon="5.08639">
        <ele>111</ele>
      </trkpt>
      <trkpt lat="50.50612" lon="5.08695">
        <ele>111</ele>
      </trkpt>
      <trkpt lat="50.50616" lon="5.08759">
        <ele>112.2</ele>
      </trkpt>
      <trkpt lat="50.5064" lon="5.08805">
        <ele>114</ele>
      </trkpt>
      <trkpt lat="50.50667" lon="5.08826">
        <ele>115.3</ele>
      </trkpt>
      <trkpt lat="50.50713" lon="5.08813">
        <ele>118</ele>
      </trkpt>
      <trkpt lat="50.50764" lon="5.08798">
        <ele>120.6</ele>
      </trkpt>
      <trkpt lat="50.5089" lon="5.08852">
        <ele>128</ele>
      </trkpt>
      <trkpt lat="50.50953" lon="5.08876">
        <ele>133</ele>
      </trkpt>
      <trkpt lat="50.51013" lon="5.08898">
        <ele>134.9</ele>
      </trkpt>
      <trkpt lat="50.51093" lon="5.08874">
        <ele>139</ele>
      </trkpt>
      <trkpt lat="50.51173" lon="5.08859">
        <ele>143</ele>
      </trkpt>
      <trkpt lat="50.51195" lon="5.08866">
        <ele>144</ele>
      </trkpt>
      <trkpt lat="50.5126" lon="5.08927">
        <ele>146</ele>
      </trkpt>
      <trkpt lat="50.51298" lon="5.08963">
        <ele>146</ele>
      </trkpt>
      <trkpt lat="50.5133" lon="5.0898">
        <ele>145</ele>
      </trkpt>
      <trkpt lat="50.51392" lon="5.0899">
        <ele>145</ele>
      </trkpt>
      <trkpt lat="50.51445" lon="5.0901">
        <ele>148</ele>
      </trkpt>
      <trkpt lat="50.51494" lon="5.09041">
        <ele>149.5</ele>
      </trkpt>
      <trkpt lat="50.51597" lon="5.09109">
        <ele>150</ele>
      </trkpt>
      <trkpt lat="50.51717" lon="5.09214">
        <ele>152</ele>
      </trkpt>
      <trkpt lat="50.51812" lon="5.09355">
        <ele>155</ele>
      </trkpt>
      <trkpt lat="50.51863" lon="5.09431">
        <ele>155</ele>
      </trkpt>
      <trkpt lat="50.51895" lon="5.0949">
        <ele>152.8</ele>
      </trkpt>
      <trkpt lat="50.51932" lon="5.0961">
        <ele>154</ele>
      </trkpt>
      <trkpt lat="50.51968" lon="5.09736">
        <ele>156</ele>
      </trkpt>
      <trkpt lat="50.52" lon="5.09849">
        <ele>161</ele>
      </trkpt>
      <trkpt lat="50.52033" lon="5.10035">
        <ele>164.4</ele>
      </trkpt>
      <trkpt lat="50.5202" lon="5.10045">
        <ele>164</ele>
      </trkpt>
      <trkpt lat="50.51975" lon="5.10072">
        <ele>163</ele>
      </trkpt>
      <trkpt lat="50.51943" lon="5.10096">
        <ele>166</ele>
      </trkpt>
      <trkpt lat="50.51913" lon="5.10125">
        <ele>170.9</ele>
      </trkpt>
      <trkpt lat="50.5187" lon="5.10222">
        <ele>174</ele>
      </trkpt>
      <trkpt lat="50.51851" lon="5.10267">
        <ele>176</ele>
      </trkpt>
      <trkpt lat="50.51833" lon="5.10324">
        <ele>179</ele>
      </trkpt>
      <trkpt lat="50.51805" lon="5.10447">
        <ele>186</ele>
      </trkpt>
      <trkpt lat="50.51787" lon="5.10534">
        <ele>190</ele>
      </trkpt>
      <trkpt lat="50.51785" lon="5.10567">
        <ele>191</ele>
      </trkpt>
      <trkpt lat="50.51793" lon="5.10608">
        <ele>193.4</ele>
      </trkpt>
      <trkpt lat="50.51817" lon="5.10654">
        <ele>194</ele>
      </trkpt>
      <trkpt lat="50.51841" lon="5.10691">
        <ele>193</ele>
      </trkpt>
      <trkpt lat="50.51888" lon="5.1077">
        <ele>194</ele>
      </trkpt>
      <trkpt lat="50.51965" lon="5.10901">
        <ele>194.6</ele>
      </trkpt>
      <trkpt lat="50.51972" lon="5.10934">
        <ele>196</ele>
      </trkpt>
      <trkpt lat="50.51978" lon="5.11017">
        <ele>198</ele>
      </trkpt>
      <trkpt lat="50.5198" lon="5.11078">
        <ele>199.7</ele>
      </trkpt>
      <trkpt lat="50.51987" lon="5.11108">
        <ele>201</ele>
      </trkpt>
      <trkpt lat="50.52022" lon="5.11214">
        <ele>203</ele>
      </trkpt>
      <trkpt lat="50.52027" lon="5.11241">
        <ele>204</ele>
      </trkpt>
      <trkpt lat="50.52038" lon="5.11298">
        <ele>206</ele>
      </trkpt>
      <trkpt lat="50.52052" lon="5.11347">
        <ele>208</ele>
      </trkpt>
      <trkpt lat="50.52075" lon="5.11442">
        <ele>209.5</ele>
      </trkpt>
      <trkpt lat="50.52081" lon="5.11549">
        <ele>211</ele>
      </trkpt>
      <trkpt lat="50.52088" lon="5.11649">
        <ele>209.4</ele>
      </trkpt>
      <trkpt lat="50.52104" lon="5.11723">
        <ele>210</ele>
      </trkpt>
      <trkpt lat="50.52121" lon="5.1179">
        <ele>211</ele>
      </trkpt>
      <trkpt lat="50.52154" lon="5.11919">
        <ele>213</ele>
      </trkpt>
      <trkpt lat="50.52195" lon="5.12051">
        <ele>211</ele>
      </trkpt>
      <trkpt lat="50.52235" lon="5.1218">
        <ele>212</ele>
      </trkpt>
      <trkpt lat="50.52255" lon="5.12242">
        <ele>212</ele>
      </trkpt>
      <trkpt lat="50.52283" lon="5.12288">
        <ele>212</ele>
      </trkpt>
      <trkpt lat="50.52312" lon="5.12334">
        <ele>212</ele>
      </trkpt>
      <trkpt lat="50.52325" lon="5.12364">
        <ele>212</ele>
      </trkpt>
      <trkpt lat="50.52333" lon="5.12394">
        <ele>212.4</ele>
      </trkpt>
      <trkpt lat="50.52334" lon="5.12452">
        <ele>211</ele>
      </trkpt>
      <trkpt lat="50.52341" lon="5.12521">
        <ele>211</ele>
      </trkpt>
      <trkpt lat="50.52355" lon="5.12609">
        <ele>211</ele>
      </trkpt>
      <trkpt lat="50.52376" lon="5.12689">
        <ele>210.1</ele>
      </trkpt>
      <trkpt lat="50.52411" lon="5.12784">
        <ele>209</ele>
      </trkpt>
      <trkpt lat="50.52426" lon="5.12822">
        <ele>207</ele>
      </trkpt>
      <trkpt lat="50.52441" lon="5.12848">
        <ele>207</ele>
      </trkpt>
      <trkpt lat="50.52492" lon="5.12926">
        <ele>207</ele>
      </trkpt>
      <trkpt lat="50.52541" lon="5.13">
        <ele>202.4</ele>
      </trkpt>
      <trkpt lat="50.52621" lon="5.13122">
        <ele>202</ele>
      </trkpt>
      <trkpt lat="50.52662" lon="5.13182">
        <ele>203</ele>
      </trkpt>
      <trkpt lat="50.52683" lon="5.13223">
        <ele>202</ele>
      </trkpt>
      <trkpt lat="50.52696" lon="5.13258">
        <ele>203.2</ele>
      </trkpt>
      <trkpt lat="50.5276" lon="5.13433">
        <ele>201</ele>
      </trkpt>
      <trkpt lat="50.52824" lon="5.1363">
        <ele>200</ele>
      </trkpt>
      <trkpt lat="50.52849" lon="5.13712">
        <ele>199</ele>
      </trkpt>
      <trkpt lat="50.52853" lon="5.13802">
        <ele>200</ele>
      </trkpt>
      <trkpt lat="50.52862" lon="5.13885">
        <ele>199.5</ele>
      </trkpt>
      <trkpt lat="50.52871" lon="5.13937">
        <ele>198.1</ele>
      </trkpt>
      <trkpt lat="50.52852" lon="5.13964">
        <ele>198</ele>
      </trkpt>
      <trkpt lat="50.528" lon="5.14077">
        <ele>194</ele>
      </trkpt>
      <trkpt lat="50.52729" lon="5.14218">
        <ele>186</ele>
      </trkpt>
      <trkpt lat="50.52695" lon="5.14341">
        <ele>180</ele>
      </trkpt>
      <trkpt lat="50.52669" lon="5.14426">
        <ele>178</ele>
      </trkpt>
      <trkpt lat="50.52661" lon="5.1447">
        <ele>177</ele>
      </trkpt>
      <trkpt lat="50.52687" lon="5.14556">
        <ele>175</ele>
      </trkpt>
      <trkpt lat="50.52697" lon="5.14713">
        <ele>174</ele>
      </trkpt>
      <trkpt lat="50.52703" lon="5.14879">
        <ele>172.6</ele>
      </trkpt>
      <trkpt lat="50.52698" lon="5.1502">
        <ele>174</ele>
      </trkpt>
      <trkpt lat="50.52694" lon="5.15158">
        <ele>172.4</ele>
      </trkpt>
      <trkpt lat="50.52706" lon="5.15198">
        <ele>170</ele>
      </trkpt>
      <trkpt lat="50.52716" lon="5.15231">
        <ele>169.5</ele>
      </trkpt>
      <trkpt lat="50.52727" lon="5.15332">
        <ele>168.1</ele>
      </trkpt>
      <trkpt lat="50.52703" lon="5.15669">
        <ele>159</ele>
      </trkpt>
      <trkpt lat="50.5268" lon="5.16006">
        <ele>154</ele>
      </trkpt>
      <trkpt lat="50.52634" lon="5.16679">
        <ele>149</ele>
      </trkpt>
      <trkpt lat="50.52617" lon="5.16924">
        <ele>148</ele>
      </trkpt>
      <trkpt lat="50.52614" lon="5.16959">
        <ele>147</ele>
      </trkpt>
      <trkpt lat="50.52608" lon="5.16985">
        <ele>147.2</ele>
      </trkpt>
      <trkpt lat="50.52566" lon="5.17027">
        <ele>145</ele>
      </trkpt>
      <trkpt lat="50.52514" lon="5.17075">
        <ele>144</ele>
      </trkpt>
      <trkpt lat="50.52428" lon="5.17127">
        <ele>142</ele>
      </trkpt>
      <trkpt lat="50.52413" lon="5.17145">
        <ele>141.2</ele>
      </trkpt>
      <trkpt lat="50.52416" lon="5.17176">
        <ele>141</ele>
      </trkpt>
      <trkpt lat="50.52428" lon="5.1721">
        <ele>142</ele>
      </trkpt>
      <trkpt lat="50.52444" lon="5.17267">
        <ele>142.4</ele>
      </trkpt>
      <trkpt lat="50.52386" lon="5.17324">
        <ele>141</ele>
      </trkpt>
      <trkpt lat="50.52324" lon="5.17392">
        <ele>138</ele>
      </trkpt>
      <trkpt lat="50.52281" lon="5.17488">
        <ele>135</ele>
      </trkpt>
      <trkpt lat="50.52238" lon="5.17594">
        <ele>127</ele>
      </trkpt>
      <trkpt lat="50.52201" lon="5.17701">
        <ele>121</ele>
      </trkpt>
      <trkpt lat="50.52177" lon="5.17741">
        <ele>120</ele>
      </trkpt>
      <trkpt lat="50.52154" lon="5.17779">
        <ele>119.2</ele>
      </trkpt>
      <trkpt lat="50.52085" lon="5.17711">
        <ele>119</ele>
      </trkpt>
      <trkpt lat="50.52014" lon="5.17656">
        <ele>114.2</ele>
      </trkpt>
      <trkpt lat="50.51903" lon="5.17607">
        <ele>109</ele>
      </trkpt>
      <trkpt lat="50.51846" lon="5.17582">
        <ele>106</ele>
      </trkpt>
      <trkpt lat="50.51818" lon="5.17569">
        <ele>101</ele>
      </trkpt>
      <trkpt lat="50.51794" lon="5.17565">
        <ele>99.2</ele>
      </trkpt>
      <trkpt lat="50.51763" lon="5.17569">
        <ele>94</ele>
      </trkpt>
      <trkpt lat="50.51729" lon="5.17581">
        <ele>85.6</ele>
      </trkpt>
      <trkpt lat="50.51699" lon="5.17594">
        <ele>79</ele>
      </trkpt>
      <trkpt lat="50.51666" lon="5.17615">
        <ele>73</ele>
      </trkpt>
      <trkpt lat="50.51683" lon="5.17739">
        <ele>75</ele>
      </trkpt>
      <trkpt lat="50.51704" lon="5.17858">
        <ele>74</ele>
      </trkpt>
      <trkpt lat="50.51725" lon="5.17974">
        <ele>74</ele>
      </trkpt>
      <trkpt lat="50.51746" lon="5.18095">
        <ele>75.2</ele>
      </trkpt>
      <trkpt lat="50.51818" lon="5.18608">
        <ele>72</ele>
      </trkpt>
      <trkpt lat="50.51854" lon="5.18788">
        <ele>72</ele>
      </trkpt>
      <trkpt lat="50.51871" lon="5.18877">
        <ele>69</ele>
      </trkpt>
      <trkpt lat="50.51891" lon="5.18951">
        <ele>67.3</ele>
      </trkpt>
      <trkpt lat="50.5193" lon="5.19055">
        <ele>68</ele>
      </trkpt>
      <trkpt lat="50.51955" lon="5.191">
        <ele>69</ele>
      </trkpt>
      <trkpt lat="50.51978" lon="5.19132">
        <ele>69.5</ele>
      </trkpt>
      <trkpt lat="50.52008" lon="5.19162">
        <ele>71</ele>
      </trkpt>
      <trkpt lat="50.52036" lon="5.19184">
        <ele>72</ele>
      </trkpt>
      <trkpt lat="50.52102" lon="5.19218">
        <ele>71.9</ele>
      </trkpt>
      <trkpt lat="50.52165" lon="5.19233">
        <ele>72</ele>
      </trkpt>
      <trkpt lat="50.52195" lon="5.19265">
        <ele>72</ele>
      </trkpt>
      <trkpt lat="50.52227" lon="5.19313">
        <ele>72</ele>
      </trkpt>
      <trkpt lat="50.52289" lon="5.19394">
        <ele>74</ele>
      </trkpt>
      <trkpt lat="50.52353" lon="5.19475">
        <ele>73</ele>
      </trkpt>
      <trkpt lat="50.52416" lon="5.19544">
        <ele>71</ele>
      </trkpt>
      <trkpt lat="50.52466" lon="5.19599">
        <ele>71</ele>
      </trkpt>
      <trkpt lat="50.52516" lon="5.19659">
        <ele>72</ele>
      </trkpt>
      <trkpt lat="50.52568" lon="5.19721">
        <ele>72</ele>
      </trkpt>
      <trkpt lat="50.52622" lon="5.19798">
        <ele>72</ele>
      </trkpt>
      <trkpt lat="50.52676" lon="5.19908">
        <ele>70.7</ele>
      </trkpt>
      <trkpt lat="50.52738" lon="5.19976">
        <ele>69</ele>
      </trkpt>
      <trkpt lat="50.52768" lon="5.20012">
        <ele>70</ele>
      </trkpt>
      <trkpt lat="50.52798" lon="5.20034">
        <ele>70.5</ele>
      </trkpt>
      <trkpt lat="50.52828" lon="5.2007">
        <ele>70</ele>
      </trkpt>
      <trkpt lat="50.52858" lon="5.2011">
        <ele>71</ele>
      </trkpt>
      <trkpt lat="50.52856" lon="5.20146">
        <ele>71</ele>
      </trkpt>
      <trkpt lat="50.52873" lon="5.2022">
        <ele>70</ele>
      </trkpt>
      <trkpt lat="50.52891" lon="5.20316">
        <ele>68.3</ele>
      </trkpt>
      <trkpt lat="50.52888" lon="5.20339">
        <ele>68</ele>
      </trkpt>
      <trkpt lat="50.52878" lon="5.20372">
        <ele>69</ele>
      </trkpt>
      <trkpt lat="50.52875" lon="5.20402">
        <ele>70</ele>
      </trkpt>
      <trkpt lat="50.52904" lon="5.20548">
        <ele>75</ele>
      </trkpt>
      <trkpt lat="50.52926" lon="5.20685">
        <ele>73.7</ele>
      </trkpt>
      <trkpt lat="50.52943" lon="5.20831">
        <ele>75</ele>
      </trkpt>
      <trkpt lat="50.52959" lon="5.20993">
        <ele>73</ele>
      </trkpt>
      <trkpt lat="50.52963" lon="5.2117">
        <ele>70</ele>
      </trkpt>
      <trkpt lat="50.5296" lon="5.21264">
        <ele>69</ele>
      </trkpt>
      <trkpt lat="50.52958" lon="5.21359">
        <ele>69.1</ele>
      </trkpt>
      <trkpt lat="50.52961" lon="5.21385">
        <ele>69</ele>
      </trkpt>
      <trkpt lat="50.5296" lon="5.21412">
        <ele>69.6</ele>
      </trkpt>
      <trkpt lat="50.52954" lon="5.21434">
        <ele>70</ele>
      </trkpt>
      <trkpt lat="50.52951" lon="5.21462">
        <ele>70.7</ele>
      </trkpt>
      <trkpt lat="50.52979" lon="5.21587">
        <ele>72</ele>
      </trkpt>
      <trkpt lat="50.53009" lon="5.21707">
        <ele>72</ele>
      </trkpt>
      <trkpt lat="50.53041" lon="5.21827">
        <ele>73</ele>
      </trkpt>
      <trkpt lat="50.53058" lon="5.21888">
        <ele>74</ele>
      </trkpt>
      <trkpt lat="50.53075" lon="5.21939">
        <ele>78</ele>
      </trkpt>
      <trkpt lat="50.5297" lon="5.22047">
        <ele>78</ele>
      </trkpt>
      <trkpt lat="50.52867" lon="5.22208">
        <ele>84.1</ele>
      </trkpt>
      <trkpt lat="50.528" lon="5.22275">
        <ele>81</ele>
      </trkpt>
      <trkpt lat="50.52728" lon="5.22358">
        <ele>79.5</ele>
      </trkpt>
      <trkpt lat="50.52719" lon="5.22345">
        <ele>79</ele>
      </trkpt>
      <trkpt lat="50.5271" lon="5.22324">
        <ele>74</ele>
      </trkpt>
      <trkpt lat="50.52694" lon="5.22276">
        <ele>73</ele>
      </trkpt>
      <trkpt lat="50.52677" lon="5.22242">
        <ele>72</ele>
      </trkpt>
      <trkpt lat="50.5266" lon="5.22261">
        <ele>72</ele>
      </trkpt>
      <trkpt lat="50.52641" lon="5.22296">
        <ele>72</ele>
      </trkpt>
      <trkpt lat="50.52619" lon="5.22337">
        <ele>74</ele>
      </trkpt>
      <trkpt lat="50.52611" lon="5.22341">
        <ele>74</ele>
      </trkpt>
      <trkpt lat="50.52603" lon="5.22332">
        <ele>71</ele>
      </trkpt>
      <trkpt lat="50.52575" lon="5.22383">
        <ele>72</ele>
      </trkpt>
      <trkpt lat="50.52548" lon="5.22424">
        <ele>73</ele>
      </trkpt>
      <trkpt lat="50.525" lon="5.22488">
        <ele>69</ele>
      </trkpt>
      <trkpt lat="50.52453" lon="5.22557">
        <ele>71.6</ele>
      </trkpt>
      <trkpt lat="50.52422" lon="5.22583">
        <ele>73</ele>
      </trkpt>
      <trkpt lat="50.52394" lon="5.22598">
        <ele>74</ele>
      </trkpt>
      <trkpt lat="50.52329" lon="5.22612">
        <ele>73.6</ele>
      </trkpt>
      <trkpt lat="50.52291" lon="5.22611">
        <ele>74</ele>
      </trkpt>
      <trkpt lat="50.52253" lon="5.22601">
        <ele>72</ele>
      </trkpt>
      <trkpt lat="50.52163" lon="5.22569">
        <ele>71</ele>
      </trkpt>
      <trkpt lat="50.52112" lon="5.22555">
        <ele>72</ele>
      </trkpt>
      <trkpt lat="50.52047" lon="5.2255">
        <ele>72</ele>
      </trkpt>
      <trkpt lat="50.51925" lon="5.22552">
        <ele>69</ele>
      </trkpt>
      <trkpt lat="50.51917" lon="5.22567">
        <ele>69</ele>
      </trkpt>
      <trkpt lat="50.51914" lon="5.22604">
        <ele>69</ele>
      </trkpt>
      <trkpt lat="50.51921" lon="5.22676">
        <ele>72</ele>
      </trkpt>
      <trkpt lat="50.5191" lon="5.22745">
        <ele>75</ele>
      </trkpt>
      <trkpt lat="50.51904" lon="5.22782">
        <ele>75</ele>
      </trkpt>
      <trkpt lat="50.51901" lon="5.22833">
        <ele>75.9</ele>
      </trkpt>
      <trkpt lat="50.5191" lon="5.22963">
        <ele>75</ele>
      </trkpt>
      <trkpt lat="50.51924" lon="5.23037">
        <ele>77</ele>
      </trkpt>
      <trkpt lat="50.51942" lon="5.23107">
        <ele>77.4</ele>
      </trkpt>
      <trkpt lat="50.51966" lon="5.23185">
        <ele>77</ele>
      </trkpt>
      <trkpt lat="50.51977" lon="5.23224">
        <ele>77</ele>
      </trkpt>
      <trkpt lat="50.51989" lon="5.23241">
        <ele>78</ele>
      </trkpt>
      <trkpt lat="50.52006" lon="5.23252">
        <ele>78</ele>
      </trkpt>
      <trkpt lat="50.52027" lon="5.23279">
        <ele>79</ele>
      </trkpt>
      <trkpt lat="50.52071" lon="5.23333">
        <ele>80</ele>
      </trkpt>
      <trkpt lat="50.52154" lon="5.2343">
        <ele>80</ele>
      </trkpt>
      <trkpt lat="50.52139" lon="5.23448">
        <ele>79.2</ele>
      </trkpt>
      <trkpt lat="50.52176" lon="5.23505">
        <ele>79</ele>
      </trkpt>
      <trkpt lat="50.52214" lon="5.23542">
        <ele>77.5</ele>
      </trkpt>
      <trkpt lat="50.52249" lon="5.23565">
        <ele>76</ele>
      </trkpt>
      <trkpt lat="50.52282" lon="5.23595">
        <ele>73</ele>
      </trkpt>
      <trkpt lat="50.52334" lon="5.23645">
        <ele>72</ele>
      </trkpt>
      <trkpt lat="50.52392" lon="5.23692">
        <ele>72</ele>
      </trkpt>
      <trkpt lat="50.52451" lon="5.23735">
        <ele>73</ele>
      </trkpt>
      <trkpt lat="50.52567" lon="5.23818">
        <ele>72</ele>
      </trkpt>
      <trkpt lat="50.52684" lon="5.23899">
        <ele>71.3</ele>
      </trkpt>
      <trkpt lat="50.52761" lon="5.23928">
        <ele>71</ele>
      </trkpt>
      <trkpt lat="50.52837" lon="5.23957">
        <ele>71</ele>
      </trkpt>
      <trkpt lat="50.52913" lon="5.23987">
        <ele>70</ele>
      </trkpt>
      <trkpt lat="50.52952" lon="5.24002">
        <ele>71</ele>
      </trkpt>
      <trkpt lat="50.5299" lon="5.24013">
        <ele>71.3</ele>
      </trkpt>
      <trkpt lat="50.5303" lon="5.24026">
        <ele>77</ele>
      </trkpt>
      <trkpt lat="50.53049" lon="5.24047">
        <ele>77.5</ele>
      </trkpt>
      <trkpt lat="50.53104" lon="5.24121">
        <ele>84</ele>
      </trkpt>
      <trkpt lat="50.53141" lon="5.24168">
        <ele>79</ele>
      </trkpt>
      <trkpt lat="50.53155" lon="5.24199">
        <ele>77.8</ele>
      </trkpt>
      <trkpt lat="50.53152" lon="5.24229">
        <ele>75</ele>
      </trkpt>
      <trkpt lat="50.53145" lon="5.24229">
        <ele>74</ele>
      </trkpt>
      <trkpt lat="50.53139" lon="5.24242">
        <ele>74</ele>
      </trkpt>
      <trkpt lat="50.53145" lon="5.24255">
        <ele>71</ele>
      </trkpt>
      <trkpt lat="50.53156" lon="5.24262">
        <ele>71.6</ele>
      </trkpt>
      <trkpt lat="50.53241" lon="5.24376">
        <ele>76</ele>
      </trkpt>
      <trkpt lat="50.53283" lon="5.2444">
        <ele>78</ele>
      </trkpt>
      <trkpt lat="50.53326" lon="5.24517">
        <ele>77.5</ele>
      </trkpt>
      <trkpt lat="50.53364" lon="5.24607">
        <ele>84</ele>
      </trkpt>
      <trkpt lat="50.53402" lon="5.24702">
        <ele>84</ele>
      </trkpt>
      <trkpt lat="50.53443" lon="5.24814">
        <ele>84</ele>
      </trkpt>
      <trkpt lat="50.53483" lon="5.24944">
        <ele>77</ele>
      </trkpt>
      <trkpt lat="50.53578" lon="5.2528">
        <ele>73</ele>
      </trkpt>
      <trkpt lat="50.53626" lon="5.25449">
        <ele>79</ele>
      </trkpt>
      <trkpt lat="50.53673" lon="5.25626">
        <ele>71</ele>
      </trkpt>
      <trkpt lat="50.53721" lon="5.25858">
        <ele>70</ele>
      </trkpt>
      <trkpt lat="50.53767" lon="5.26088">
        <ele>75.8</ele>
      </trkpt>
      <trkpt lat="50.53772" lon="5.26154">
        <ele>77</ele>
      </trkpt>
      <trkpt lat="50.53775" lon="5.26214">
        <ele>78</ele>
      </trkpt>
      <trkpt lat="50.53775" lon="5.26292">
        <ele>81</ele>
      </trkpt>
      <trkpt lat="50.53765" lon="5.2637">
        <ele>81</ele>
      </trkpt>
      <trkpt lat="50.53754" lon="5.26445">
        <ele>85</ele>
      </trkpt>
      <trkpt lat="50.53748" lon="5.26528">
        <ele>73</ele>
      </trkpt>
      <trkpt lat="50.53749" lon="5.26618">
        <ele>66</ele>
      </trkpt>
      <trkpt lat="50.5375" lon="5.26665">
        <ele>71</ele>
      </trkpt>
      <trkpt lat="50.53756" lon="5.26697">
        <ele>80.4</ele>
      </trkpt>
      <trkpt lat="50.53767" lon="5.26742">
        <ele>79</ele>
      </trkpt>
      <trkpt lat="50.5378" lon="5.26774">
        <ele>80</ele>
      </trkpt>
      <trkpt lat="50.53789" lon="5.26808">
        <ele>81</ele>
      </trkpt>
      <trkpt lat="50.53797" lon="5.26845">
        <ele>80.2</ele>
      </trkpt>
      <trkpt lat="50.53797" lon="5.26946">
        <ele>80</ele>
      </trkpt>
      <trkpt lat="50.53796" lon="5.27052">
        <ele>79.5</ele>
      </trkpt>
      <trkpt lat="50.53818" lon="5.2717">
        <ele>83</ele>
      </trkpt>
      <trkpt lat="50.53828" lon="5.27225">
        <ele>79</ele>
      </trkpt>
      <trkpt lat="50.53835" lon="5.27287">
        <ele>86.8</ele>
      </trkpt>
      <trkpt lat="50.53826" lon="5.27445">
        <ele>76</ele>
      </trkpt>
      <trkpt lat="50.53819" lon="5.27529">
        <ele>74</ele>
      </trkpt>
      <trkpt lat="50.53817" lon="5.276">
        <ele>73</ele>
      </trkpt>
      <trkpt lat="50.5382" lon="5.27647">
        <ele>73</ele>
      </trkpt>
      <trkpt lat="50.53824" lon="5.27686">
        <ele>73</ele>
      </trkpt>
      <trkpt lat="50.53854" lon="5.27895">
        <ele>70</ele>
      </trkpt>
      <trkpt lat="50.53891" lon="5.28193">
        <ele>69.8</ele>
      </trkpt>
      <trkpt lat="50.53929" lon="5.28497">
        <ele>70</ele>
      </trkpt>
      <trkpt lat="50.53967" lon="5.28806">
        <ele>70.5</ele>
      </trkpt>
      <trkpt lat="50.53994" lon="5.29011">
        <ele>72</ele>
      </trkpt>
      <trkpt lat="50.54018" lon="5.29207">
        <ele>71</ele>
      </trkpt>
      <trkpt lat="50.54046" lon="5.29405">
        <ele>70</ele>
      </trkpt>
      <trkpt lat="50.5407" lon="5.29603">
        <ele>69.5</ele>
      </trkpt>
      <trkpt lat="50.5412" lon="5.29982">
        <ele>70</ele>
      </trkpt>
      <trkpt lat="50.54146" lon="5.30171">
        <ele>68</ele>
      </trkpt>
      <trkpt lat="50.54172" lon="5.30353">
        <ele>68.4</ele>
      </trkpt>
      <trkpt lat="50.54188" lon="5.30419">
        <ele>68</ele>
      </trkpt>
      <trkpt lat="50.54205" lon="5.30475">
        <ele>68</ele>
      </trkpt>
      <trkpt lat="50.54243" lon="5.30578">
        <ele>69</ele>
      </trkpt>
      <trkpt lat="50.54327" lon="5.30767">
        <ele>69</ele>
      </trkpt>
      <trkpt lat="50.54416" lon="5.30971">
        <ele>70</ele>
      </trkpt>
      <trkpt lat="50.54462" lon="5.31075">
        <ele>73</ele>
      </trkpt>
      <trkpt lat="50.54506" lon="5.31173">
        <ele>71.9</ele>
      </trkpt>
      <trkpt lat="50.54565" lon="5.31306">
        <ele>71</ele>
      </trkpt>
      <trkpt lat="50.54626" lon="5.31448">
        <ele>72</ele>
      </trkpt>
      <trkpt lat="50.54686" lon="5.31582">
        <ele>73</ele>
      </trkpt>
      <trkpt lat="50.54733" lon="5.31684">
        <ele>73</ele>
      </trkpt>
      <trkpt lat="50.54781" lon="5.31793">
        <ele>74</ele>
      </trkpt>
      <trkpt lat="50.54829" lon="5.31889">
        <ele>74</ele>
      </trkpt>
      <trkpt lat="50.54877" lon="5.31979">
        <ele>74.1</ele>
      </trkpt>
      <trkpt lat="50.55008" lon="5.32209">
        <ele>73</ele>
      </trkpt>
      <trkpt lat="50.5514" lon="5.32439">
        <ele>72.8</ele>
      </trkpt>
      <trkpt lat="50.55213" lon="5.32567">
        <ele>75</ele>
      </trkpt>
      <trkpt lat="50.55279" lon="5.32684">
        <ele>80.1</ele>
      </trkpt>
      <trkpt lat="50.55331" lon="5.32821">
        <ele>78</ele>
      </trkpt>
      <trkpt lat="50.55354" lon="5.32883">
        <ele>85</ele>
      </trkpt>
      <trkpt lat="50.55382" lon="5.32945">
        <ele>79.5</ele>
      </trkpt>
      <trkpt lat="50.55472" lon="5.33103">
        <ele>81</ele>
      </trkpt>
      <trkpt lat="50.5552" lon="5.33192">
        <ele>82</ele>
      </trkpt>
      <trkpt lat="50.55542" lon="5.33222">
        <ele>83</ele>
      </trkpt>
      <trkpt lat="50.55561" lon="5.33245">
        <ele>83.2</ele>
      </trkpt>
      <trkpt lat="50.55609" lon="5.33302">
        <ele>89</ele>
      </trkpt>
      <trkpt lat="50.55632" lon="5.33339">
        <ele>82</ele>
      </trkpt>
      <trkpt lat="50.55655" lon="5.33384">
        <ele>79.2</ele>
      </trkpt>
      <trkpt lat="50.55791" lon="5.33666">
        <ele>72</ele>
      </trkpt>
      <trkpt lat="50.55857" lon="5.33805">
        <ele>76</ele>
      </trkpt>
      <trkpt lat="50.55924" lon="5.3394">
        <ele>75.6</ele>
      </trkpt>
      <trkpt lat="50.5597" lon="5.33978">
        <ele>80</ele>
      </trkpt>
      <trkpt lat="50.55984" lon="5.33995">
        <ele>82</ele>
      </trkpt>
      <trkpt lat="50.55997" lon="5.34015">
        <ele>79.8</ele>
      </trkpt>
      <trkpt lat="50.56241" lon="5.34687">
        <ele>76</ele>
      </trkpt>
      <trkpt lat="50.56329" lon="5.34937">
        <ele>71</ele>
      </trkpt>
      <trkpt lat="50.56376" lon="5.35076">
        <ele>72</ele>
      </trkpt>
      <trkpt lat="50.56426" lon="5.35249">
        <ele>67.2</ele>
      </trkpt>
      <trkpt lat="50.56547" lon="5.35665">
        <ele>75</ele>
      </trkpt>
      <trkpt lat="50.56608" lon="5.35875">
        <ele>73</ele>
      </trkpt>
      <trkpt lat="50.56675" lon="5.36113">
        <ele>77.9</ele>
      </trkpt>
      <trkpt lat="50.56704" lon="5.3626">
        <ele>80</ele>
      </trkpt>
      <trkpt lat="50.56734" lon="5.36417">
        <ele>78</ele>
      </trkpt>
      <trkpt lat="50.56752" lon="5.36505">
        <ele>76</ele>
      </trkpt>
      <trkpt lat="50.56771" lon="5.36582">
        <ele>78</ele>
      </trkpt>
      <trkpt lat="50.56818" lon="5.36753">
        <ele>79</ele>
      </trkpt>
      <trkpt lat="50.5687" lon="5.3697">
        <ele>82</ele>
      </trkpt>
      <trkpt lat="50.56908" lon="5.37132">
        <ele>74</ele>
      </trkpt>
      <trkpt lat="50.56925" lon="5.37184">
        <ele>78.8</ele>
      </trkpt>
      <trkpt lat="50.57136" lon="5.37805">
        <ele>77.7</ele>
      </trkpt>
      <trkpt lat="50.57209" lon="5.37951">
        <ele>76</ele>
      </trkpt>
      <trkpt lat="50.57247" lon="5.38034">
        <ele>74</ele>
      </trkpt>
      <trkpt lat="50.57284" lon="5.38132">
        <ele>82</ele>
      </trkpt>
      <trkpt lat="50.57305" lon="5.38188">
        <ele>82</ele>
      </trkpt>
      <trkpt lat="50.57326" lon="5.38233">
        <ele>81</ele>
      </trkpt>
      <trkpt lat="50.57368" lon="5.38312">
        <ele>86</ele>
      </trkpt>
      <trkpt lat="50.5745" lon="5.3846">
        <ele>86.7</ele>
      </trkpt>
      <trkpt lat="50.57528" lon="5.38586">
        <ele>82</ele>
      </trkpt>
      <trkpt lat="50.57563" lon="5.38645">
        <ele>83</ele>
      </trkpt>
      <trkpt lat="50.57598" lon="5.38711">
        <ele>85.9</ele>
      </trkpt>
      <trkpt lat="50.57666" lon="5.38842">
        <ele>77</ele>
      </trkpt>
      <trkpt lat="50.57733" lon="5.38962">
        <ele>78</ele>
      </trkpt>
      <trkpt lat="50.578" lon="5.39076">
        <ele>84</ele>
      </trkpt>
      <trkpt lat="50.57835" lon="5.39135">
        <ele>89</ele>
      </trkpt>
      <trkpt lat="50.57856" lon="5.39173">
        <ele>83</ele>
      </trkpt>
      <trkpt lat="50.5787" lon="5.39215">
        <ele>83</ele>
      </trkpt>
      <trkpt lat="50.57869" lon="5.39317">
        <ele>75</ele>
      </trkpt>
      <trkpt lat="50.57871" lon="5.39345">
        <ele>72</ele>
      </trkpt>
      <trkpt lat="50.57875" lon="5.39368">
        <ele>72</ele>
      </trkpt>
      <trkpt lat="50.57902" lon="5.39435">
        <ele>71</ele>
      </trkpt>
      <trkpt lat="50.57928" lon="5.39494">
        <ele>72</ele>
      </trkpt>
      <trkpt lat="50.57948" lon="5.39547">
        <ele>72</ele>
      </trkpt>
      <trkpt lat="50.57952" lon="5.39587">
        <ele>70</ele>
      </trkpt>
      <trkpt lat="50.57951" lon="5.39623">
        <ele>69</ele>
      </trkpt>
      <trkpt lat="50.5794" lon="5.39665">
        <ele>68</ele>
      </trkpt>
      <trkpt lat="50.57926" lon="5.39692">
        <ele>68</ele>
      </trkpt>
      <trkpt lat="50.57914" lon="5.39711">
        <ele>66</ele>
      </trkpt>
      <trkpt lat="50.57889" lon="5.39748">
        <ele>65</ele>
      </trkpt>
      <trkpt lat="50.57878" lon="5.39744">
        <ele>65</ele>
      </trkpt>
      <trkpt lat="50.57871" lon="5.39752">
        <ele>66</ele>
      </trkpt>
      <trkpt lat="50.57867" lon="5.39766">
        <ele>66</ele>
      </trkpt>
      <trkpt lat="50.57876" lon="5.39784">
        <ele>66</ele>
      </trkpt>
      <trkpt lat="50.57886" lon="5.39786">
        <ele>66.1</ele>
      </trkpt>
      <trkpt lat="50.57921" lon="5.39896">
        <ele>67</ele>
      </trkpt>
      <trkpt lat="50.57957" lon="5.40002">
        <ele>66</ele>
      </trkpt>
      <trkpt lat="50.58028" lon="5.40204">
        <ele>66</ele>
      </trkpt>
      <trkpt lat="50.58105" lon="5.40407">
        <ele>66</ele>
      </trkpt>
      <trkpt lat="50.58144" lon="5.4051">
        <ele>67</ele>
      </trkpt>
      <trkpt lat="50.58182" lon="5.40602">
        <ele>65</ele>
      </trkpt>
      <trkpt lat="50.58256" lon="5.40809">
        <ele>68</ele>
      </trkpt>
      <trkpt lat="50.58293" lon="5.40907">
        <ele>68</ele>
      </trkpt>
      <trkpt lat="50.5833" lon="5.40996">
        <ele>67</ele>
      </trkpt>
      <trkpt lat="50.58399" lon="5.41144">
        <ele>70</ele>
      </trkpt>
      <trkpt lat="50.58469" lon="5.41272">
        <ele>69</ele>
      </trkpt>
      <trkpt lat="50.58536" lon="5.41386">
        <ele>68</ele>
      </trkpt>
      <trkpt lat="50.58575" lon="5.41449">
        <ele>67</ele>
      </trkpt>
      <trkpt lat="50.58605" lon="5.41508">
        <ele>67.7</ele>
      </trkpt>
      <trkpt lat="50.58609" lon="5.41541">
        <ele>68</ele>
      </trkpt>
      <trkpt lat="50.58611" lon="5.41583">
        <ele>68</ele>
      </trkpt>
      <trkpt lat="50.58609" lon="5.41642">
        <ele>67</ele>
      </trkpt>
      <trkpt lat="50.58609" lon="5.41745">
        <ele>66</ele>
      </trkpt>
      <trkpt lat="50.58634" lon="5.42004">
        <ele>65</ele>
      </trkpt>
      <trkpt lat="50.58664" lon="5.42285">
        <ele>65</ele>
      </trkpt>
      <trkpt lat="50.58694" lon="5.42565">
        <ele>63.7</ele>
      </trkpt>
      <trkpt lat="50.58711" lon="5.42652">
        <ele>64</ele>
      </trkpt>
      <trkpt lat="50.58733" lon="5.42745">
        <ele>64</ele>
      </trkpt>
      <trkpt lat="50.58778" lon="5.42926">
        <ele>65</ele>
      </trkpt>
      <trkpt lat="50.58866" lon="5.43274">
        <ele>73.3</ele>
      </trkpt>
      <trkpt lat="50.58877" lon="5.43357">
        <ele>72</ele>
      </trkpt>
      <trkpt lat="50.58883" lon="5.43432">
        <ele>69</ele>
      </trkpt>
      <trkpt lat="50.58896" lon="5.436">
        <ele>68</ele>
      </trkpt>
      <trkpt lat="50.58903" lon="5.4368">
        <ele>67</ele>
      </trkpt>
      <trkpt lat="50.58913" lon="5.43756">
        <ele>68</ele>
      </trkpt>
      <trkpt lat="50.58934" lon="5.43909">
        <ele>66.6</ele>
      </trkpt>
      <trkpt lat="50.58952" lon="5.44045">
        <ele>68</ele>
      </trkpt>
      <trkpt lat="50.58971" lon="5.44177">
        <ele>70</ele>
      </trkpt>
      <trkpt lat="50.58992" lon="5.44308">
        <ele>71</ele>
      </trkpt>
      <trkpt lat="50.59015" lon="5.44428">
        <ele>67</ele>
      </trkpt>
      <trkpt lat="50.59039" lon="5.44548">
        <ele>67</ele>
      </trkpt>
      <trkpt lat="50.59059" lon="5.44609">
        <ele>67</ele>
      </trkpt>
      <trkpt lat="50.59081" lon="5.4466">
        <ele>66</ele>
      </trkpt>
      <trkpt lat="50.59127" lon="5.44757">
        <ele>64</ele>
      </trkpt>
      <trkpt lat="50.59173" lon="5.44855">
        <ele>66</ele>
      </trkpt>
      <trkpt lat="50.59185" lon="5.44897">
        <ele>66</ele>
      </trkpt>
      <trkpt lat="50.59192" lon="5.44935">
        <ele>65</ele>
      </trkpt>
      <trkpt lat="50.59202" lon="5.44983">
        <ele>66</ele>
      </trkpt>
      <trkpt lat="50.59211" lon="5.45036">
        <ele>65.5</ele>
      </trkpt>
      <trkpt lat="50.59223" lon="5.4511">
        <ele>65.8</ele>
      </trkpt>
      <trkpt lat="50.59233" lon="5.45185">
        <ele>66</ele>
      </trkpt>
      <trkpt lat="50.59238" lon="5.45222">
        <ele>65</ele>
      </trkpt>
      <trkpt lat="50.5924" lon="5.45252">
        <ele>64</ele>
      </trkpt>
      <trkpt lat="50.59237" lon="5.45322">
        <ele>64</ele>
      </trkpt>
      <trkpt lat="50.59236" lon="5.45355">
        <ele>65</ele>
      </trkpt>
      <trkpt lat="50.59236" lon="5.45388">
        <ele>65</ele>
      </trkpt>
      <trkpt lat="50.59252" lon="5.45394">
        <ele>66</ele>
      </trkpt>
      <trkpt lat="50.59267" lon="5.45396">
        <ele>66</ele>
      </trkpt>
      <trkpt lat="50.59271" lon="5.45405">
        <ele>66</ele>
      </trkpt>
      <trkpt lat="50.59277" lon="5.45411">
        <ele>66</ele>
      </trkpt>
      <trkpt lat="50.59285" lon="5.45436">
        <ele>67</ele>
      </trkpt>
      <trkpt lat="50.59295" lon="5.4546">
        <ele>67</ele>
      </trkpt>
      <trkpt lat="50.59318" lon="5.45503">
        <ele>66</ele>
      </trkpt>
      <trkpt lat="50.59343" lon="5.45546">
        <ele>67</ele>
      </trkpt>
      <trkpt lat="50.5936" lon="5.45577">
        <ele>67</ele>
      </trkpt>
      <trkpt lat="50.59378" lon="5.45612">
        <ele>68</ele>
      </trkpt>
      <trkpt lat="50.59396" lon="5.4566">
        <ele>68</ele>
      </trkpt>
      <trkpt lat="50.59414" lon="5.45711">
        <ele>67</ele>
      </trkpt>
      <trkpt lat="50.59476" lon="5.4587">
        <ele>67</ele>
      </trkpt>
      <trkpt lat="50.59508" lon="5.45948">
        <ele>69</ele>
      </trkpt>
      <trkpt lat="50.59539" lon="5.46033">
        <ele>68</ele>
      </trkpt>
      <trkpt lat="50.59572" lon="5.46108">
        <ele>69</ele>
      </trkpt>
      <trkpt lat="50.59603" lon="5.46193">
        <ele>67.5</ele>
      </trkpt>
      <trkpt lat="50.59634" lon="5.46277">
        <ele>67</ele>
      </trkpt>
      <trkpt lat="50.59665" lon="5.46359">
        <ele>66.6</ele>
      </trkpt>
      <trkpt lat="50.59703" lon="5.46457">
        <ele>66</ele>
      </trkpt>
      <trkpt lat="50.5974" lon="5.46552">
        <ele>67</ele>
      </trkpt>
      <trkpt lat="50.59758" lon="5.46595">
        <ele>68</ele>
      </trkpt>
      <trkpt lat="50.59777" lon="5.4663">
        <ele>67</ele>
      </trkpt>
      <trkpt lat="50.59796" lon="5.46666">
        <ele>67</ele>
      </trkpt>
      <trkpt lat="50.59815" lon="5.46708">
        <ele>67.4</ele>
      </trkpt>
      <trkpt lat="50.59829" lon="5.46742">
        <ele>68</ele>
      </trkpt>
      <trkpt lat="50.59844" lon="5.46778">
        <ele>68</ele>
      </trkpt>
      <trkpt lat="50.59857" lon="5.46825">
        <ele>68</ele>
      </trkpt>
      <trkpt lat="50.59869" lon="5.46875">
        <ele>68</ele>
      </trkpt>
      <trkpt lat="50.5988" lon="5.46931">
        <ele>66</ele>
      </trkpt>
      <trkpt lat="50.599" lon="5.47048">
        <ele>64</ele>
      </trkpt>
      <trkpt lat="50.59919" lon="5.47171">
        <ele>64</ele>
      </trkpt>
      <trkpt lat="50.59933" lon="5.4722">
        <ele>65</ele>
      </trkpt>
      <trkpt lat="50.59946" lon="5.47263">
        <ele>65</ele>
      </trkpt>
      <trkpt lat="50.59965" lon="5.47301">
        <ele>66</ele>
      </trkpt>
      <trkpt lat="50.59989" lon="5.47341">
        <ele>66</ele>
      </trkpt>
      <trkpt lat="50.60013" lon="5.47385">
        <ele>66</ele>
      </trkpt>
      <trkpt lat="50.60082" lon="5.47507">
        <ele>67</ele>
      </trkpt>
      <trkpt lat="50.60261" lon="5.4782">
        <ele>65</ele>
      </trkpt>
      <trkpt lat="50.60314" lon="5.47914">
        <ele>67</ele>
      </trkpt>
      <trkpt lat="50.60348" lon="5.47974">
        <ele>67</ele>
      </trkpt>
      <trkpt lat="50.60365" lon="5.48008">
        <ele>67</ele>
      </trkpt>
      <trkpt lat="50.60412" lon="5.48119">
        <ele>67</ele>
      </trkpt>
      <trkpt lat="50.60438" lon="5.4818">
        <ele>68</ele>
      </trkpt>
      <trkpt lat="50.60453" lon="5.4823">
        <ele>68.1</ele>
      </trkpt>
      <trkpt lat="50.60473" lon="5.48297">
        <ele>68</ele>
      </trkpt>
      <trkpt lat="50.60492" lon="5.48365">
        <ele>67</ele>
      </trkpt>
      <trkpt lat="50.60485" lon="5.48376">
        <ele>67</ele>
      </trkpt>
      <trkpt lat="50.60486" lon="5.48389">
        <ele>67</ele>
      </trkpt>
      <trkpt lat="50.60421" lon="5.4847">
        <ele>65</ele>
      </trkpt>
      <trkpt lat="50.60405" lon="5.48439">
        <ele>65</ele>
      </trkpt>
      <trkpt lat="50.60423" lon="5.48414">
        <ele>65.3</ele>
      </trkpt>
    </trkseg>
  </trk>
</gpx>